<?xml version='1.0' encoding='UTF-8'?>
<gpx version="1.1" creator="https://www.komoot.de" xmlns="http://www.topografix.com/GPX/1/1" xmlns:xsi="http://www.w3.org/2001/XMLSchema-instance" xsi:schemaLocation="http://www.topografix.com/GPX/1/1 http://www.topografix.com/GPX/1/1/gpx.xsd">
  <metadata>
    <name>Runde bis St. Hubert</name>
    <author>
      <link href="https://www.komoot.de">
        <text>komoot</text>
        <type>text/html</type>
      </link>
    </author>
  </metadata>
  <trk>
    <name>Runde bis St. Hubert</name>
    <trkseg>
      <trkpt lat="51.559123" lon="6.269396">
        <ele>21.374662</ele>
        <time>2024-04-01T06:01:02.363Z</time>
      </trkpt>
      <trkpt lat="51.557897" lon="6.270369">
        <ele>21.462788</ele>
        <time>2024-04-01T06:01:32.912Z</time>
      </trkpt>
      <trkpt lat="51.556369" lon="6.271303">
        <ele>21.728573</ele>
        <time>2024-04-01T06:02:11.280Z</time>
      </trkpt>
      <trkpt lat="51.556452" lon="6.272622">
        <ele>21.769477</ele>
        <time>2024-04-01T06:02:42.326Z</time>
      </trkpt>
      <trkpt lat="51.556569" lon="6.273810">
        <ele>21.794462</ele>
        <time>2024-04-01T06:03:09.905Z</time>
      </trkpt>
      <trkpt lat="51.556870" lon="6.275838">
        <ele>21.655284</ele>
        <time>2024-04-01T06:03:57.238Z</time>
      </trkpt>
      <trkpt lat="51.555664" lon="6.276337">
        <ele>21.631758</ele>
        <time>2024-04-01T06:04:43.417Z</time>
      </trkpt>
      <trkpt lat="51.555519" lon="6.276560">
        <ele>21.637167</ele>
        <time>2024-04-01T06:04:51.053Z</time>
      </trkpt>
      <trkpt lat="51.555391" lon="6.277188">
        <ele>21.648245</ele>
        <time>2024-04-01T06:05:06.443Z</time>
      </trkpt>
      <trkpt lat="51.555384" lon="6.277450">
        <ele>21.652641</ele>
        <time>2024-04-01T06:05:12.450Z</time>
      </trkpt>
      <trkpt lat="51.555423" lon="6.277624">
        <ele>21.655741</ele>
        <time>2024-04-01T06:05:17.009Z</time>
      </trkpt>
      <trkpt lat="51.555695" lon="6.279010">
        <ele>21.646501</ele>
        <time>2024-04-01T06:05:50.695Z</time>
      </trkpt>
      <trkpt lat="51.555808" lon="6.279370">
        <ele>21.642920</ele>
        <time>2024-04-01T06:06:00.050Z</time>
      </trkpt>
      <trkpt lat="51.555950" lon="6.279680">
        <ele>21.639501</ele>
        <time>2024-04-01T06:06:08.871Z</time>
      </trkpt>
      <trkpt lat="51.556071" lon="6.279925">
        <ele>21.636722</ele>
        <time>2024-04-01T06:06:16.071Z</time>
      </trkpt>
      <trkpt lat="51.556722" lon="6.281512">
        <ele>21.537442</ele>
        <time>2024-04-01T06:06:59.244Z</time>
      </trkpt>
      <trkpt lat="51.555991" lon="6.283493">
        <ele>21.468514</ele>
        <time>2024-04-01T06:07:30.695Z</time>
      </trkpt>
      <trkpt lat="51.555826" lon="6.284048">
        <ele>21.490435</ele>
        <time>2024-04-01T06:07:39.238Z</time>
      </trkpt>
      <trkpt lat="51.555563" lon="6.285102">
        <ele>21.530905</ele>
        <time>2024-04-01T06:07:55.469Z</time>
      </trkpt>
      <trkpt lat="51.555559" lon="6.285241">
        <ele>21.535864</ele>
        <time>2024-04-01T06:07:57.483Z</time>
      </trkpt>
      <trkpt lat="51.555479" lon="6.285776">
        <ele>21.562653</ele>
        <time>2024-04-01T06:08:05.422Z</time>
      </trkpt>
      <trkpt lat="51.555374" lon="6.286090">
        <ele>21.582127</ele>
        <time>2024-04-01T06:08:10.591Z</time>
      </trkpt>
      <trkpt lat="51.555167" lon="6.286522">
        <ele>21.611917</ele>
        <time>2024-04-01T06:08:18.394Z</time>
      </trkpt>
      <trkpt lat="51.554799" lon="6.286998">
        <ele>21.653402</ele>
        <time>2024-04-01T06:08:29.083Z</time>
      </trkpt>
      <trkpt lat="51.553993" lon="6.287657">
        <ele>21.704732</ele>
        <time>2024-04-01T06:08:49.221Z</time>
      </trkpt>
      <trkpt lat="51.552994" lon="6.288967">
        <ele>21.721053</ele>
        <time>2024-04-01T06:09:17.785Z</time>
      </trkpt>
      <trkpt lat="51.552876" lon="6.289075">
        <ele>21.722773</ele>
        <time>2024-04-01T06:09:20.816Z</time>
      </trkpt>
      <trkpt lat="51.552863" lon="6.289083">
        <ele>21.724918</ele>
        <time>2024-04-01T06:09:21.137Z</time>
      </trkpt>
      <trkpt lat="51.551969" lon="6.289633">
        <ele>21.873939</ele>
        <time>2024-04-01T06:09:43.320Z</time>
      </trkpt>
      <trkpt lat="51.550430" lon="6.290491">
        <ele>22.153404</ele>
        <time>2024-04-01T06:10:21.353Z</time>
      </trkpt>
      <trkpt lat="51.550273" lon="6.290633">
        <ele>22.187265</ele>
        <time>2024-04-01T06:10:25.435Z</time>
      </trkpt>
      <trkpt lat="51.550036" lon="6.291175">
        <ele>22.264717</ele>
        <time>2024-04-01T06:10:34.879Z</time>
      </trkpt>
      <trkpt lat="51.549789" lon="6.291561">
        <ele>22.329461</ele>
        <time>2024-04-01T06:10:42.762Z</time>
      </trkpt>
      <trkpt lat="51.549670" lon="6.291652">
        <ele>22.353043</ele>
        <time>2024-04-01T06:10:45.812Z</time>
      </trkpt>
      <trkpt lat="51.549430" lon="6.291752">
        <ele>22.395489</ele>
        <time>2024-04-01T06:10:51.344Z</time>
      </trkpt>
      <trkpt lat="51.549380" lon="6.291733">
        <ele>22.404285</ele>
        <time>2024-04-01T06:10:52.525Z</time>
      </trkpt>
      <trkpt lat="51.548462" lon="6.290815">
        <ele>22.589362</ele>
        <time>2024-04-01T06:11:17.256Z</time>
      </trkpt>
      <trkpt lat="51.548355" lon="6.290799">
        <ele>22.607760</ele>
        <time>2024-04-01T06:11:19.858Z</time>
      </trkpt>
      <trkpt lat="51.547976" lon="6.290997">
        <ele>22.686454</ele>
        <time>2024-04-01T06:11:29.453Z</time>
      </trkpt>
      <trkpt lat="51.547447" lon="6.291325">
        <ele>22.820973</ele>
        <time>2024-04-01T06:11:43.089Z</time>
      </trkpt>
      <trkpt lat="51.546857" lon="6.291760">
        <ele>22.974970</ele>
        <time>2024-04-01T06:11:58.088Z</time>
      </trkpt>
      <trkpt lat="51.546534" lon="6.292039">
        <ele>23.061962</ele>
        <time>2024-04-01T06:12:06.540Z</time>
      </trkpt>
      <trkpt lat="51.546369" lon="6.292327">
        <ele>23.079569</ele>
        <time>2024-04-01T06:12:12.203Z</time>
      </trkpt>
      <trkpt lat="51.546346" lon="6.292415">
        <ele>23.080835</ele>
        <time>2024-04-01T06:12:13.578Z</time>
      </trkpt>
      <trkpt lat="51.546220" lon="6.292662">
        <ele>23.085071</ele>
        <time>2024-04-01T06:12:18.098Z</time>
      </trkpt>
      <trkpt lat="51.546121" lon="6.292780">
        <ele>23.087698</ele>
        <time>2024-04-01T06:12:20.992Z</time>
      </trkpt>
      <trkpt lat="51.545951" lon="6.292849">
        <ele>23.091437</ele>
        <time>2024-04-01T06:12:24.915Z</time>
      </trkpt>
      <trkpt lat="51.545217" lon="6.292980">
        <ele>23.107183</ele>
        <time>2024-04-01T06:12:41.389Z</time>
      </trkpt>
      <trkpt lat="51.544793" lon="6.293225">
        <ele>23.089890</ele>
        <time>2024-04-01T06:12:51.106Z</time>
      </trkpt>
      <trkpt lat="51.543815" lon="6.293865">
        <ele>22.898905</ele>
        <time>2024-04-01T06:13:14.017Z</time>
      </trkpt>
      <trkpt lat="51.543771" lon="6.293896">
        <ele>22.890216</ele>
        <time>2024-04-01T06:13:14.958Z</time>
      </trkpt>
      <trkpt lat="51.542125" lon="6.295009">
        <ele>22.729430</ele>
        <time>2024-04-01T06:13:54.216Z</time>
      </trkpt>
      <trkpt lat="51.541983" lon="6.295115">
        <ele>22.721859</ele>
        <time>2024-04-01T06:13:57.670Z</time>
      </trkpt>
      <trkpt lat="51.541838" lon="6.295275">
        <ele>22.713354</ele>
        <time>2024-04-01T06:14:01.614Z</time>
      </trkpt>
      <trkpt lat="51.541772" lon="6.295677">
        <ele>22.699235</ele>
        <time>2024-04-01T06:14:07.339Z</time>
      </trkpt>
      <trkpt lat="51.541753" lon="6.295871">
        <ele>22.681242</ele>
        <time>2024-04-01T06:14:10.160Z</time>
      </trkpt>
      <trkpt lat="51.541648" lon="6.297076">
        <ele>22.569763</ele>
        <time>2024-04-01T06:14:26.915Z</time>
      </trkpt>
      <trkpt lat="51.541590" lon="6.297358">
        <ele>22.542550</ele>
        <time>2024-04-01T06:14:30.958Z</time>
      </trkpt>
      <trkpt lat="51.541498" lon="6.297586">
        <ele>22.517650</ele>
        <time>2024-04-01T06:14:34.726Z</time>
      </trkpt>
      <trkpt lat="51.541396" lon="6.297873">
        <ele>22.487365</ele>
        <time>2024-04-01T06:14:39.254Z</time>
      </trkpt>
      <trkpt lat="51.541366" lon="6.298315">
        <ele>22.446629</ele>
        <time>2024-04-01T06:14:45.180Z</time>
      </trkpt>
      <trkpt lat="51.541380" lon="6.299054">
        <ele>22.375038</ele>
        <time>2024-04-01T06:14:54.826Z</time>
      </trkpt>
      <trkpt lat="51.541413" lon="6.299506">
        <ele>22.330561</ele>
        <time>2024-04-01T06:15:00.846Z</time>
      </trkpt>
      <trkpt lat="51.541483" lon="6.299989">
        <ele>22.282094</ele>
        <time>2024-04-01T06:15:07.479Z</time>
      </trkpt>
      <trkpt lat="51.540762" lon="6.300154">
        <ele>22.167660</ele>
        <time>2024-04-01T06:15:23.558Z</time>
      </trkpt>
      <trkpt lat="51.539248" lon="6.300323">
        <ele>22.414144</ele>
        <time>2024-04-01T06:15:58.841Z</time>
      </trkpt>
      <trkpt lat="51.535565" lon="6.300882">
        <ele>23.157529</ele>
        <time>2024-04-01T06:17:25.055Z</time>
      </trkpt>
      <trkpt lat="51.535501" lon="6.300870">
        <ele>23.169678</ele>
        <time>2024-04-01T06:17:26.543Z</time>
      </trkpt>
      <trkpt lat="51.535444" lon="6.300790">
        <ele>23.183944</ele>
        <time>2024-04-01T06:17:28.267Z</time>
      </trkpt>
      <trkpt lat="51.535288" lon="6.300341">
        <ele>23.203488</ele>
        <time>2024-04-01T06:17:35.637Z</time>
      </trkpt>
      <trkpt lat="51.534757" lon="6.299284">
        <ele>23.185676</ele>
        <time>2024-04-01T06:17:54.354Z</time>
      </trkpt>
      <trkpt lat="51.534722" lon="6.299251">
        <ele>23.184821</ele>
        <time>2024-04-01T06:17:55.221Z</time>
      </trkpt>
      <trkpt lat="51.534133" lon="6.299129">
        <ele>23.172304</ele>
        <time>2024-04-01T06:18:08.452Z</time>
      </trkpt>
      <trkpt lat="51.533207" lon="6.298936">
        <ele>23.100782</ele>
        <time>2024-04-01T06:18:28.757Z</time>
      </trkpt>
      <trkpt lat="51.533074" lon="6.298907">
        <ele>23.089354</ele>
        <time>2024-04-01T06:18:31.912Z</time>
      </trkpt>
      <trkpt lat="51.532894" lon="6.298954">
        <ele>23.073828</ele>
        <time>2024-04-01T06:18:35.792Z</time>
      </trkpt>
      <trkpt lat="51.531925" lon="6.299902">
        <ele>23.139565</ele>
        <time>2024-04-01T06:19:00.839Z</time>
      </trkpt>
      <trkpt lat="51.531895" lon="6.299930">
        <ele>23.148813</ele>
        <time>2024-04-01T06:19:01.705Z</time>
      </trkpt>
      <trkpt lat="51.531449" lon="6.300297">
        <ele>23.282385</ele>
        <time>2024-04-01T06:19:13.542Z</time>
      </trkpt>
      <trkpt lat="51.530638" lon="6.300681">
        <ele>23.511293</ele>
        <time>2024-04-01T06:19:34.326Z</time>
      </trkpt>
      <trkpt lat="51.529774" lon="6.301114">
        <ele>23.824891</ele>
        <time>2024-04-01T06:19:56.588Z</time>
      </trkpt>
      <trkpt lat="51.529522" lon="6.301152">
        <ele>23.912595</ele>
        <time>2024-04-01T06:20:02.624Z</time>
      </trkpt>
      <trkpt lat="51.529244" lon="6.301099">
        <ele>24.009600</ele>
        <time>2024-04-01T06:20:09.144Z</time>
      </trkpt>
      <trkpt lat="51.528481" lon="6.300613">
        <ele>24.080828</ele>
        <time>2024-04-01T06:20:27.777Z</time>
      </trkpt>
      <trkpt lat="51.528195" lon="6.300359">
        <ele>24.055900</ele>
        <time>2024-04-01T06:20:34.961Z</time>
      </trkpt>
      <trkpt lat="51.527933" lon="6.300340">
        <ele>24.035892</ele>
        <time>2024-04-01T06:20:40.695Z</time>
      </trkpt>
      <trkpt lat="51.527827" lon="6.300293">
        <ele>24.027504</ele>
        <time>2024-04-01T06:20:43.037Z</time>
      </trkpt>
      <trkpt lat="51.527782" lon="6.300376">
        <ele>24.022278</ele>
        <time>2024-04-01T06:20:44.522Z</time>
      </trkpt>
      <trkpt lat="51.527698" lon="6.300449">
        <ele>24.014993</ele>
        <time>2024-04-01T06:20:46.585Z</time>
      </trkpt>
      <trkpt lat="51.527611" lon="6.300477">
        <ele>24.008224</ele>
        <time>2024-04-01T06:20:48.507Z</time>
      </trkpt>
      <trkpt lat="51.527469" lon="6.300459">
        <ele>23.997358</ele>
        <time>2024-04-01T06:20:51.535Z</time>
      </trkpt>
      <trkpt lat="51.527378" lon="6.300444">
        <ele>23.990379</ele>
        <time>2024-04-01T06:20:53.524Z</time>
      </trkpt>
      <trkpt lat="51.526992" lon="6.300379">
        <ele>24.005919</ele>
        <time>2024-04-01T06:21:01.966Z</time>
      </trkpt>
      <trkpt lat="51.526667" lon="6.300395">
        <ele>24.033685</ele>
        <time>2024-04-01T06:21:09.198Z</time>
      </trkpt>
      <trkpt lat="51.526345" lon="6.300529">
        <ele>24.062088</ele>
        <time>2024-04-01T06:21:16.622Z</time>
      </trkpt>
      <trkpt lat="51.525733" lon="6.300873">
        <ele>24.117453</ele>
        <time>2024-04-01T06:21:31.950Z</time>
      </trkpt>
      <trkpt lat="51.525309" lon="6.301164">
        <ele>24.191698</ele>
        <time>2024-04-01T06:21:42.948Z</time>
      </trkpt>
      <trkpt lat="51.524907" lon="6.301404">
        <ele>24.288685</ele>
        <time>2024-04-01T06:21:52.825Z</time>
      </trkpt>
      <trkpt lat="51.524410" lon="6.301740">
        <ele>24.410626</ele>
        <time>2024-04-01T06:22:05.361Z</time>
      </trkpt>
      <trkpt lat="51.524021" lon="6.302067">
        <ele>24.509910</ele>
        <time>2024-04-01T06:22:15.904Z</time>
      </trkpt>
      <trkpt lat="51.523506" lon="6.302484">
        <ele>24.579253</ele>
        <time>2024-04-01T06:22:29.144Z</time>
      </trkpt>
      <trkpt lat="51.522708" lon="6.302902">
        <ele>24.650622</ele>
        <time>2024-04-01T06:22:48.233Z</time>
      </trkpt>
      <trkpt lat="51.522231" lon="6.303092">
        <ele>24.692410</ele>
        <time>2024-04-01T06:22:58.976Z</time>
      </trkpt>
      <trkpt lat="51.521925" lon="6.303043">
        <ele>24.696094</ele>
        <time>2024-04-01T06:23:08.238Z</time>
      </trkpt>
      <trkpt lat="51.521722" lon="6.303017">
        <ele>24.696615</ele>
        <time>2024-04-01T06:23:14.121Z</time>
      </trkpt>
      <trkpt lat="51.521516" lon="6.302926">
        <ele>24.697162</ele>
        <time>2024-04-01T06:23:20.379Z</time>
      </trkpt>
      <trkpt lat="51.521503" lon="6.302871">
        <ele>24.697255</ele>
        <time>2024-04-01T06:23:21.441Z</time>
      </trkpt>
      <trkpt lat="51.521499" lon="6.302854">
        <ele>24.697284</ele>
        <time>2024-04-01T06:23:21.775Z</time>
      </trkpt>
      <trkpt lat="51.521478" lon="6.303051">
        <ele>24.697602</ele>
        <time>2024-04-01T06:23:24.596Z</time>
      </trkpt>
      <trkpt lat="51.521458" lon="6.303278">
        <ele>24.697967</ele>
        <time>2024-04-01T06:23:27.877Z</time>
      </trkpt>
      <trkpt lat="51.521450" lon="6.303336">
        <ele>24.698062</ele>
        <time>2024-04-01T06:23:28.629Z</time>
      </trkpt>
      <trkpt lat="51.521254" lon="6.305104">
        <ele>24.718544</ele>
        <time>2024-04-01T06:23:53.412Z</time>
      </trkpt>
      <trkpt lat="51.521251" lon="6.305468">
        <ele>24.730201</ele>
        <time>2024-04-01T06:23:58.562Z</time>
      </trkpt>
      <trkpt lat="51.521220" lon="6.305793">
        <ele>24.740730</ele>
        <time>2024-04-01T06:24:03.139Z</time>
      </trkpt>
      <trkpt lat="51.521166" lon="6.306024">
        <ele>24.748632</ele>
        <time>2024-04-01T06:24:06.698Z</time>
      </trkpt>
      <trkpt lat="51.521133" lon="6.306302">
        <ele>24.757695</ele>
        <time>2024-04-01T06:24:10.820Z</time>
      </trkpt>
      <trkpt lat="51.521068" lon="6.307000">
        <ele>24.780296</ele>
        <time>2024-04-01T06:24:20.736Z</time>
      </trkpt>
      <trkpt lat="51.521060" lon="6.307212">
        <ele>24.787097</ele>
        <time>2024-04-01T06:24:23.714Z</time>
      </trkpt>
      <trkpt lat="51.521072" lon="6.307298">
        <ele>24.789919</ele>
        <time>2024-04-01T06:24:24.922Z</time>
      </trkpt>
      <trkpt lat="51.520987" lon="6.308156">
        <ele>24.787075</ele>
        <time>2024-04-01T06:24:36.905Z</time>
      </trkpt>
      <trkpt lat="51.520915" lon="6.308733">
        <ele>24.782966</ele>
        <time>2024-04-01T06:24:45.035Z</time>
      </trkpt>
      <trkpt lat="51.520877" lon="6.309196">
        <ele>24.779704</ele>
        <time>2024-04-01T06:24:51.504Z</time>
      </trkpt>
      <trkpt lat="51.520837" lon="6.309653">
        <ele>24.776482</ele>
        <time>2024-04-01T06:24:57.925Z</time>
      </trkpt>
      <trkpt lat="51.520762" lon="6.309631">
        <ele>24.775626</ele>
        <time>2024-04-01T06:24:59.624Z</time>
      </trkpt>
      <trkpt lat="51.520685" lon="6.309610">
        <ele>24.774749</ele>
        <time>2024-04-01T06:25:01.343Z</time>
      </trkpt>
      <trkpt lat="51.520528" lon="6.309730">
        <ele>24.772798</ele>
        <time>2024-04-01T06:25:05.333Z</time>
      </trkpt>
      <trkpt lat="51.520247" lon="6.309733">
        <ele>24.731911</ele>
        <time>2024-04-01T06:25:11.629Z</time>
      </trkpt>
      <trkpt lat="51.518963" lon="6.309427">
        <ele>24.516321</ele>
        <time>2024-04-01T06:25:39.581Z</time>
      </trkpt>
      <trkpt lat="51.518832" lon="6.309393">
        <ele>24.494282</ele>
        <time>2024-04-01T06:25:42.675Z</time>
      </trkpt>
      <trkpt lat="51.518736" lon="6.309368">
        <ele>24.478129</ele>
        <time>2024-04-01T06:25:44.616Z</time>
      </trkpt>
      <trkpt lat="51.518665" lon="6.309349">
        <ele>24.464322</ele>
        <time>2024-04-01T06:25:46.290Z</time>
      </trkpt>
      <trkpt lat="51.517000" lon="6.308931">
        <ele>24.115041</ele>
        <time>2024-04-01T06:26:22.662Z</time>
      </trkpt>
      <trkpt lat="51.515274" lon="6.308492">
        <ele>23.878928</ele>
        <time>2024-04-01T06:27:00.833Z</time>
      </trkpt>
      <trkpt lat="51.511927" lon="6.307678">
        <ele>24.164052</ele>
        <time>2024-04-01T06:28:18.126Z</time>
      </trkpt>
      <trkpt lat="51.511245" lon="6.307476">
        <ele>24.227259</ele>
        <time>2024-04-01T06:28:33.606Z</time>
      </trkpt>
      <trkpt lat="51.509865" lon="6.307030">
        <ele>24.352308</ele>
        <time>2024-04-01T06:29:05.234Z</time>
      </trkpt>
      <trkpt lat="51.507517" lon="6.306216">
        <ele>24.976216</ele>
        <time>2024-04-01T06:30:02.155Z</time>
      </trkpt>
      <trkpt lat="51.507504" lon="6.306302">
        <ele>24.990326</ele>
        <time>2024-04-01T06:30:03.491Z</time>
      </trkpt>
      <trkpt lat="51.506731" lon="6.309293">
        <ele>25.370248</ele>
        <time>2024-04-01T06:30:50.813Z</time>
      </trkpt>
      <trkpt lat="51.506272" lon="6.308904">
        <ele>25.419525</ele>
        <time>2024-04-01T06:31:02.764Z</time>
      </trkpt>
      <trkpt lat="51.506095" lon="6.308710">
        <ele>25.439870</ele>
        <time>2024-04-01T06:31:07.703Z</time>
      </trkpt>
      <trkpt lat="51.506026" lon="6.308715">
        <ele>25.446429</ele>
        <time>2024-04-01T06:31:09.252Z</time>
      </trkpt>
      <trkpt lat="51.505199" lon="6.309142">
        <ele>25.323272</ele>
        <time>2024-04-01T06:31:29.127Z</time>
      </trkpt>
      <trkpt lat="51.505024" lon="6.309187">
        <ele>25.289382</ele>
        <time>2024-04-01T06:31:33.083Z</time>
      </trkpt>
      <trkpt lat="51.504078" lon="6.308497">
        <ele>25.080333</ele>
        <time>2024-04-01T06:31:56.453Z</time>
      </trkpt>
      <trkpt lat="51.503965" lon="6.308568">
        <ele>25.047875</ele>
        <time>2024-04-01T06:32:00.948Z</time>
      </trkpt>
      <trkpt lat="51.503741" lon="6.308637">
        <ele>24.986863</ele>
        <time>2024-04-01T06:32:09.198Z</time>
      </trkpt>
      <trkpt lat="51.503469" lon="6.309155">
        <ele>24.874018</ele>
        <time>2024-04-01T06:32:24.606Z</time>
      </trkpt>
      <trkpt lat="51.503359" lon="6.309446">
        <ele>24.817327</ele>
        <time>2024-04-01T06:32:32.325Z</time>
      </trkpt>
      <trkpt lat="51.503290" lon="6.309566">
        <ele>24.790125</ele>
        <time>2024-04-01T06:32:36.012Z</time>
      </trkpt>
      <trkpt lat="51.503224" lon="6.309626">
        <ele>24.769839</ele>
        <time>2024-04-01T06:32:38.808Z</time>
      </trkpt>
      <trkpt lat="51.502952" lon="6.309518">
        <ele>24.694888</ele>
        <time>2024-04-01T06:32:48.933Z</time>
      </trkpt>
      <trkpt lat="51.502877" lon="6.309418">
        <ele>24.668815</ele>
        <time>2024-04-01T06:32:52.448Z</time>
      </trkpt>
      <trkpt lat="51.502635" lon="6.309267">
        <ele>24.605262</ele>
        <time>2024-04-01T06:33:01.609Z</time>
      </trkpt>
      <trkpt lat="51.502121" lon="6.309007">
        <ele>24.484570</ele>
        <time>2024-04-01T06:33:20.928Z</time>
      </trkpt>
      <trkpt lat="51.501599" lon="6.308691">
        <ele>24.359632</ele>
        <time>2024-04-01T06:33:41.349Z</time>
      </trkpt>
      <trkpt lat="51.501559" lon="6.308746">
        <ele>24.347839</ele>
        <time>2024-04-01T06:33:43.353Z</time>
      </trkpt>
      <trkpt lat="51.501501" lon="6.308983">
        <ele>24.312335</ele>
        <time>2024-04-01T06:33:49.040Z</time>
      </trkpt>
      <trkpt lat="51.501464" lon="6.309070">
        <ele>24.297645</ele>
        <time>2024-04-01T06:33:51.515Z</time>
      </trkpt>
      <trkpt lat="51.498757" lon="6.307459">
        <ele>24.414505</ele>
        <time>2024-04-01T06:35:39.826Z</time>
      </trkpt>
      <trkpt lat="51.498629" lon="6.307367">
        <ele>24.426448</ele>
        <time>2024-04-01T06:35:45.035Z</time>
      </trkpt>
      <trkpt lat="51.498567" lon="6.307294">
        <ele>24.432995</ele>
        <time>2024-04-01T06:35:47.899Z</time>
      </trkpt>
      <trkpt lat="51.497598" lon="6.306656">
        <ele>24.535260</ele>
        <time>2024-04-01T06:36:26.946Z</time>
      </trkpt>
      <trkpt lat="51.496914" lon="6.306394">
        <ele>24.629960</ele>
        <time>2024-04-01T06:36:43.422Z</time>
      </trkpt>
      <trkpt lat="51.496524" lon="6.306099">
        <ele>24.688015</ele>
        <time>2024-04-01T06:36:53.652Z</time>
      </trkpt>
      <trkpt lat="51.496248" lon="6.305839">
        <ele>24.731106</ele>
        <time>2024-04-01T06:37:01.468Z</time>
      </trkpt>
      <trkpt lat="51.495991" lon="6.305675">
        <ele>24.810296</ele>
        <time>2024-04-01T06:37:08.405Z</time>
      </trkpt>
      <trkpt lat="51.495420" lon="6.305518">
        <ele>25.012160</ele>
        <time>2024-04-01T06:37:22.920Z</time>
      </trkpt>
      <trkpt lat="51.493815" lon="6.305109">
        <ele>25.403065</ele>
        <time>2024-04-01T06:38:03.802Z</time>
      </trkpt>
      <trkpt lat="51.492932" lon="6.304989">
        <ele>25.453693</ele>
        <time>2024-04-01T06:38:36.581Z</time>
      </trkpt>
      <trkpt lat="51.492532" lon="6.305050">
        <ele>25.446927</ele>
        <time>2024-04-01T06:38:51.076Z</time>
      </trkpt>
      <trkpt lat="51.492056" lon="6.305254">
        <ele>25.314633</ele>
        <time>2024-04-01T06:39:08.872Z</time>
      </trkpt>
      <trkpt lat="51.491230" lon="6.305367">
        <ele>25.092022</ele>
        <time>2024-04-01T06:39:38.854Z</time>
      </trkpt>
      <trkpt lat="51.490147" lon="6.305446">
        <ele>25.076434</ele>
        <time>2024-04-01T06:40:18.690Z</time>
      </trkpt>
      <trkpt lat="51.488053" lon="6.305565">
        <ele>25.553598</ele>
        <time>2024-04-01T06:41:39.331Z</time>
      </trkpt>
      <trkpt lat="51.488011" lon="6.306153">
        <ele>25.678981</ele>
        <time>2024-04-01T06:41:48.103Z</time>
      </trkpt>
      <trkpt lat="51.487795" lon="6.307696">
        <ele>26.005564</ele>
        <time>2024-04-01T06:42:12.114Z</time>
      </trkpt>
      <trkpt lat="51.487742" lon="6.308281">
        <ele>26.125138</ele>
        <time>2024-04-01T06:42:20.994Z</time>
      </trkpt>
      <trkpt lat="51.487748" lon="6.308609">
        <ele>26.191511</ele>
        <time>2024-04-01T06:42:25.861Z</time>
      </trkpt>
      <trkpt lat="51.487791" lon="6.309475">
        <ele>26.367232</ele>
        <time>2024-04-01T06:42:38.774Z</time>
      </trkpt>
      <trkpt lat="51.487769" lon="6.310060">
        <ele>26.376978</ele>
        <time>2024-04-01T06:42:47.193Z</time>
      </trkpt>
      <trkpt lat="51.487286" lon="6.312908">
        <ele>26.060163</ele>
        <time>2024-04-01T06:43:26.917Z</time>
      </trkpt>
      <trkpt lat="51.487250" lon="6.313387">
        <ele>25.968161</ele>
        <time>2024-04-01T06:43:33.241Z</time>
      </trkpt>
      <trkpt lat="51.487270" lon="6.314114">
        <ele>25.829396</ele>
        <time>2024-04-01T06:43:42.876Z</time>
      </trkpt>
      <trkpt lat="51.487289" lon="6.314319">
        <ele>25.789875</ele>
        <time>2024-04-01T06:43:45.580Z</time>
      </trkpt>
      <trkpt lat="51.487539" lon="6.315747">
        <ele>25.597406</ele>
        <time>2024-04-01T06:44:05.543Z</time>
      </trkpt>
      <trkpt lat="51.487468" lon="6.315777">
        <ele>25.598931</ele>
        <time>2024-04-01T06:44:07.149Z</time>
      </trkpt>
      <trkpt lat="51.486653" lon="6.316164">
        <ele>25.616588</ele>
        <time>2024-04-01T06:44:26.050Z</time>
      </trkpt>
      <trkpt lat="51.486273" lon="6.316394">
        <ele>25.625024</ele>
        <time>2024-04-01T06:44:35.379Z</time>
      </trkpt>
      <trkpt lat="51.485802" lon="6.317114">
        <ele>25.682562</ele>
        <time>2024-04-01T06:44:50.486Z</time>
      </trkpt>
      <trkpt lat="51.485770" lon="6.317704">
        <ele>25.725719</ele>
        <time>2024-04-01T06:44:59.099Z</time>
      </trkpt>
      <trkpt lat="51.483314" lon="6.317459">
        <ele>25.800899</ele>
        <time>2024-04-01T06:45:54.402Z</time>
      </trkpt>
      <trkpt lat="51.483136" lon="6.317468">
        <ele>25.796279</ele>
        <time>2024-04-01T06:45:58.229Z</time>
      </trkpt>
      <trkpt lat="51.481417" lon="6.317519">
        <ele>25.369251</ele>
        <time>2024-04-01T06:46:34.938Z</time>
      </trkpt>
      <trkpt lat="51.480409" lon="6.317495">
        <ele>25.351958</ele>
        <time>2024-04-01T06:46:56.932Z</time>
      </trkpt>
      <trkpt lat="51.479016" lon="6.317552">
        <ele>25.432041</ele>
        <time>2024-04-01T06:47:29.535Z</time>
      </trkpt>
      <trkpt lat="51.478662" lon="6.317637">
        <ele>25.460201</ele>
        <time>2024-04-01T06:47:37.706Z</time>
      </trkpt>
      <trkpt lat="51.478060" lon="6.318067">
        <ele>25.512036</ele>
        <time>2024-04-01T06:47:52.451Z</time>
      </trkpt>
      <trkpt lat="51.477877" lon="6.318283">
        <ele>25.529905</ele>
        <time>2024-04-01T06:47:57.514Z</time>
      </trkpt>
      <trkpt lat="51.477316" lon="6.318953">
        <ele>25.444483</ele>
        <time>2024-04-01T06:48:12.863Z</time>
      </trkpt>
      <trkpt lat="51.476807" lon="6.319290">
        <ele>25.343500</ele>
        <time>2024-04-01T06:48:24.718Z</time>
      </trkpt>
      <trkpt lat="51.476349" lon="6.317939">
        <ele>25.200473</ele>
        <time>2024-04-01T06:48:45.195Z</time>
      </trkpt>
      <trkpt lat="51.474587" lon="6.319484">
        <ele>25.230211</ele>
        <time>2024-04-01T06:49:29.996Z</time>
      </trkpt>
      <trkpt lat="51.474002" lon="6.320219">
        <ele>25.406662</ele>
        <time>2024-04-01T06:49:47.876Z</time>
      </trkpt>
      <trkpt lat="51.473838" lon="6.320662">
        <ele>25.482908</ele>
        <time>2024-04-01T06:49:55.619Z</time>
      </trkpt>
      <trkpt lat="51.473801" lon="6.322112">
        <ele>25.600124</ele>
        <time>2024-04-01T06:50:16.700Z</time>
      </trkpt>
      <trkpt lat="51.473780" lon="6.322949">
        <ele>25.642522</ele>
        <time>2024-04-01T06:50:28.757Z</time>
      </trkpt>
      <trkpt lat="51.473773" lon="6.323030">
        <ele>25.646661</ele>
        <time>2024-04-01T06:50:29.941Z</time>
      </trkpt>
      <trkpt lat="51.473233" lon="6.322979">
        <ele>25.690617</ele>
        <time>2024-04-01T06:50:41.892Z</time>
      </trkpt>
      <trkpt lat="51.473171" lon="6.323365">
        <ele>25.625018</ele>
        <time>2024-04-01T06:50:47.254Z</time>
      </trkpt>
      <trkpt lat="51.473096" lon="6.323553">
        <ele>25.572592</ele>
        <time>2024-04-01T06:50:50.213Z</time>
      </trkpt>
      <trkpt lat="51.472937" lon="6.323771">
        <ele>25.493764</ele>
        <time>2024-04-01T06:50:54.619Z</time>
      </trkpt>
      <trkpt lat="51.472458" lon="6.324304">
        <ele>25.274043</ele>
        <time>2024-04-01T06:51:06.803Z</time>
      </trkpt>
      <trkpt lat="51.471905" lon="6.325288">
        <ele>24.972376</ele>
        <time>2024-04-01T06:51:24.330Z</time>
      </trkpt>
      <trkpt lat="51.471868" lon="6.325685">
        <ele>24.894590</ele>
        <time>2024-04-01T06:51:29.512Z</time>
      </trkpt>
      <trkpt lat="51.471971" lon="6.327513">
        <ele>24.538919</ele>
        <time>2024-04-01T06:51:53.815Z</time>
      </trkpt>
      <trkpt lat="51.472009" lon="6.327885">
        <ele>24.465872</ele>
        <time>2024-04-01T06:51:58.941Z</time>
      </trkpt>
      <trkpt lat="51.472079" lon="6.328107">
        <ele>24.483910</ele>
        <time>2024-04-01T06:52:02.440Z</time>
      </trkpt>
      <trkpt lat="51.471194" lon="6.328399">
        <ele>24.665000</ele>
        <time>2024-04-01T06:52:36.542Z</time>
      </trkpt>
      <trkpt lat="51.470985" lon="6.328515">
        <ele>24.709323</ele>
        <time>2024-04-01T06:52:45.047Z</time>
      </trkpt>
      <trkpt lat="51.467224" lon="6.331642">
        <ele>26.166648</ele>
        <time>2024-04-01T06:55:30.808Z</time>
      </trkpt>
      <trkpt lat="51.464029" lon="6.334226">
        <ele>25.976705</ele>
        <time>2024-04-01T06:57:42.265Z</time>
      </trkpt>
      <trkpt lat="51.463979" lon="6.333734">
        <ele>26.028760</ele>
        <time>2024-04-01T06:57:49.593Z</time>
      </trkpt>
      <trkpt lat="51.463864" lon="6.333770">
        <ele>26.048399</ele>
        <time>2024-04-01T06:57:54.022Z</time>
      </trkpt>
      <trkpt lat="51.463003" lon="6.334319">
        <ele>26.203681</ele>
        <time>2024-04-01T06:58:29.654Z</time>
      </trkpt>
      <trkpt lat="51.462034" lon="6.334887">
        <ele>26.281190</ele>
        <time>2024-04-01T06:59:09.009Z</time>
      </trkpt>
      <trkpt lat="51.459703" lon="6.336176">
        <ele>26.144454</ele>
        <time>2024-04-01T07:00:39.563Z</time>
      </trkpt>
      <trkpt lat="51.459461" lon="6.336270">
        <ele>26.113842</ele>
        <time>2024-04-01T07:00:48.596Z</time>
      </trkpt>
      <trkpt lat="51.458095" lon="6.337032">
        <ele>25.962345</ele>
        <time>2024-04-01T07:01:41.759Z</time>
      </trkpt>
      <trkpt lat="51.457642" lon="6.337233">
        <ele>25.914656</ele>
        <time>2024-04-01T07:01:59.101Z</time>
      </trkpt>
      <trkpt lat="51.456723" lon="6.337763">
        <ele>25.969271</ele>
        <time>2024-04-01T07:02:35.358Z</time>
      </trkpt>
      <trkpt lat="51.456036" lon="6.338094">
        <ele>26.022858</ele>
        <time>2024-04-01T07:03:02.512Z</time>
      </trkpt>
      <trkpt lat="51.455726" lon="6.337309">
        <ele>26.099297</ele>
        <time>2024-04-01T07:03:15.823Z</time>
      </trkpt>
      <trkpt lat="51.455097" lon="6.335369">
        <ele>26.323220</ele>
        <time>2024-04-01T07:03:46.841Z</time>
      </trkpt>
      <trkpt lat="51.455032" lon="6.335340">
        <ele>26.334364</ele>
        <time>2024-04-01T07:03:48.455Z</time>
      </trkpt>
      <trkpt lat="51.454979" lon="6.335170">
        <ele>26.357786</ele>
        <time>2024-04-01T07:03:51.287Z</time>
      </trkpt>
      <trkpt lat="51.454938" lon="6.335207">
        <ele>26.367087</ele>
        <time>2024-04-01T07:03:52.407Z</time>
      </trkpt>
      <trkpt lat="51.454836" lon="6.335309">
        <ele>26.390851</ele>
        <time>2024-04-01T07:03:56.912Z</time>
      </trkpt>
      <trkpt lat="51.453271" lon="6.337421">
        <ele>26.722249</ele>
        <time>2024-04-01T07:05:14.770Z</time>
      </trkpt>
      <trkpt lat="51.448979" lon="6.343210">
        <ele>26.899990</ele>
        <time>2024-04-01T07:08:43.473Z</time>
      </trkpt>
      <trkpt lat="51.447799" lon="6.344801">
        <ele>26.718039</ele>
        <time>2024-04-01T07:09:39.776Z</time>
      </trkpt>
      <trkpt lat="51.447183" lon="6.345637">
        <ele>26.585351</ele>
        <time>2024-04-01T07:10:09.427Z</time>
      </trkpt>
      <trkpt lat="51.445557" lon="6.347839">
        <ele>26.162431</ele>
        <time>2024-04-01T07:11:27.229Z</time>
      </trkpt>
      <trkpt lat="51.446321" lon="6.349453">
        <ele>26.069995</ele>
        <time>2024-04-01T07:11:54.277Z</time>
      </trkpt>
      <trkpt lat="51.446184" lon="6.349614">
        <ele>26.061306</ele>
        <time>2024-04-01T07:12:00.494Z</time>
      </trkpt>
      <trkpt lat="51.444273" lon="6.352208">
        <ele>26.877143</ele>
        <time>2024-04-01T07:13:38.116Z</time>
      </trkpt>
      <trkpt lat="51.444137" lon="6.352173">
        <ele>26.961649</ele>
        <time>2024-04-01T07:13:43.655Z</time>
      </trkpt>
      <trkpt lat="51.443996" lon="6.352117">
        <ele>27.050766</ele>
        <time>2024-04-01T07:13:49.563Z</time>
      </trkpt>
      <trkpt lat="51.443378" lon="6.351897">
        <ele>27.439144</ele>
        <time>2024-04-01T07:14:15.358Z</time>
      </trkpt>
      <trkpt lat="51.443176" lon="6.351891">
        <ele>27.563096</ele>
        <time>2024-04-01T07:14:23.534Z</time>
      </trkpt>
      <trkpt lat="51.442153" lon="6.352076">
        <ele>28.053577</ele>
        <time>2024-04-01T07:15:04.617Z</time>
      </trkpt>
      <trkpt lat="51.442029" lon="6.352121">
        <ele>28.096538</ele>
        <time>2024-04-01T07:15:09.703Z</time>
      </trkpt>
      <trkpt lat="51.441962" lon="6.352193">
        <ele>28.123789</ele>
        <time>2024-04-01T07:15:12.871Z</time>
      </trkpt>
      <trkpt lat="51.441782" lon="6.352354">
        <ele>28.193430</ele>
        <time>2024-04-01T07:15:21.055Z</time>
      </trkpt>
      <trkpt lat="51.439902" lon="6.353320">
        <ele>28.444753</ele>
        <time>2024-04-01T07:16:35.336Z</time>
      </trkpt>
      <trkpt lat="51.437293" lon="6.354610">
        <ele>28.004379</ele>
        <time>2024-04-01T07:18:14.409Z</time>
      </trkpt>
      <trkpt lat="51.437211" lon="6.354192">
        <ele>28.012910</ele>
        <time>2024-04-01T07:18:20.719Z</time>
      </trkpt>
      <trkpt lat="51.436752" lon="6.351806">
        <ele>28.084024</ele>
        <time>2024-04-01T07:18:56.231Z</time>
      </trkpt>
      <trkpt lat="51.436707" lon="6.351744">
        <ele>28.090908</ele>
        <time>2024-04-01T07:18:57.550Z</time>
      </trkpt>
      <trkpt lat="51.436407" lon="6.352073">
        <ele>28.133082</ele>
        <time>2024-04-01T07:19:08.280Z</time>
      </trkpt>
      <trkpt lat="51.435780" lon="6.352697">
        <ele>28.218712</ele>
        <time>2024-04-01T07:19:35.861Z</time>
      </trkpt>
      <trkpt lat="51.433702" lon="6.354882">
        <ele>28.513880</ele>
        <time>2024-04-01T07:21:10.214Z</time>
      </trkpt>
      <trkpt lat="51.432626" lon="6.354147">
        <ele>28.468508</ele>
        <time>2024-04-01T07:21:53.318Z</time>
      </trkpt>
      <trkpt lat="51.431911" lon="6.353773">
        <ele>28.413899</ele>
        <time>2024-04-01T07:22:20.744Z</time>
      </trkpt>
      <trkpt lat="51.429981" lon="6.355784">
        <ele>28.224034</ele>
        <time>2024-04-01T07:23:45.527Z</time>
      </trkpt>
      <trkpt lat="51.427480" lon="6.358431">
        <ele>28.111535</ele>
        <time>2024-04-01T07:25:36.257Z</time>
      </trkpt>
      <trkpt lat="51.425461" lon="6.361045">
        <ele>28.169242</ele>
        <time>2024-04-01T07:27:12.422Z</time>
      </trkpt>
      <trkpt lat="51.421898" lon="6.357090">
        <ele>28.844078</ele>
        <time>2024-04-01T07:29:56.701Z</time>
      </trkpt>
      <trkpt lat="51.421441" lon="6.358204">
        <ele>29.049617</ele>
        <time>2024-04-01T07:30:28.797Z</time>
      </trkpt>
      <trkpt lat="51.421225" lon="6.358615">
        <ele>29.132467</ele>
        <time>2024-04-01T07:30:41.719Z</time>
      </trkpt>
      <trkpt lat="51.420943" lon="6.359068">
        <ele>29.231132</ele>
        <time>2024-04-01T07:30:51.399Z</time>
      </trkpt>
      <trkpt lat="51.420609" lon="6.359579">
        <ele>29.219036</ele>
        <time>2024-04-01T07:31:02.557Z</time>
      </trkpt>
      <trkpt lat="51.420512" lon="6.359714">
        <ele>29.196835</ele>
        <time>2024-04-01T07:31:05.665Z</time>
      </trkpt>
      <trkpt lat="51.419513" lon="6.361709">
        <ele>28.862918</ele>
        <time>2024-04-01T07:31:41.381Z</time>
      </trkpt>
      <trkpt lat="51.419476" lon="6.361789">
        <ele>28.836195</ele>
        <time>2024-04-01T07:31:42.721Z</time>
      </trkpt>
      <trkpt lat="51.419446" lon="6.361864">
        <ele>28.812288</ele>
        <time>2024-04-01T07:31:43.882Z</time>
      </trkpt>
      <trkpt lat="51.418915" lon="6.361172">
        <ele>28.517895</ele>
        <time>2024-04-01T07:31:58.160Z</time>
      </trkpt>
      <trkpt lat="51.418372" lon="6.360385">
        <ele>28.202984</ele>
        <time>2024-04-01T07:32:13.557Z</time>
      </trkpt>
      <trkpt lat="51.418351" lon="6.361072">
        <ele>28.100634</ele>
        <time>2024-04-01T07:32:22.644Z</time>
      </trkpt>
      <trkpt lat="51.418335" lon="6.361666">
        <ele>28.019268</ele>
        <time>2024-04-01T07:32:30.529Z</time>
      </trkpt>
      <trkpt lat="51.417972" lon="6.363586">
        <ele>27.780653</ele>
        <time>2024-04-01T07:32:57.976Z</time>
      </trkpt>
      <trkpt lat="51.417949" lon="6.363704">
        <ele>27.776731</ele>
        <time>2024-04-01T07:32:59.632Z</time>
      </trkpt>
      <trkpt lat="51.417237" lon="6.367307">
        <ele>27.914963</ele>
        <time>2024-04-01T07:33:51.861Z</time>
      </trkpt>
      <trkpt lat="51.417174" lon="6.367437">
        <ele>27.940965</ele>
        <time>2024-04-01T07:33:54.328Z</time>
      </trkpt>
      <trkpt lat="51.417074" lon="6.367432">
        <ele>27.966302</ele>
        <time>2024-04-01T07:33:56.752Z</time>
      </trkpt>
      <trkpt lat="51.416567" lon="6.366909">
        <ele>28.118975</ele>
        <time>2024-04-01T07:34:11.754Z</time>
      </trkpt>
      <trkpt lat="51.416359" lon="6.366746">
        <ele>28.192209</ele>
        <time>2024-04-01T07:34:17.576Z</time>
      </trkpt>
      <trkpt lat="51.415999" lon="6.366546">
        <ele>28.352451</ele>
        <time>2024-04-01T07:34:27.206Z</time>
      </trkpt>
      <trkpt lat="51.415458" lon="6.366216">
        <ele>28.595898</ele>
        <time>2024-04-01T07:34:41.859Z</time>
      </trkpt>
      <trkpt lat="51.414486" lon="6.365839">
        <ele>28.908369</ele>
        <time>2024-04-01T07:35:05.413Z</time>
      </trkpt>
      <trkpt lat="51.414187" lon="6.367368">
        <ele>28.893798</ele>
        <time>2024-04-01T07:35:27.136Z</time>
      </trkpt>
      <trkpt lat="51.414069" lon="6.368513">
        <ele>28.909912</ele>
        <time>2024-04-01T07:35:43.099Z</time>
      </trkpt>
      <trkpt lat="51.413673" lon="6.370030">
        <ele>29.053026</ele>
        <time>2024-04-01T07:36:08.009Z</time>
      </trkpt>
      <trkpt lat="51.413402" lon="6.370709">
        <ele>29.123180</ele>
        <time>2024-04-01T07:36:20.068Z</time>
      </trkpt>
      <trkpt lat="51.413121" lon="6.371186">
        <ele>29.119069</ele>
        <time>2024-04-01T07:36:29.866Z</time>
      </trkpt>
      <trkpt lat="51.412936" lon="6.371500">
        <ele>29.103816</ele>
        <time>2024-04-01T07:36:36.152Z</time>
      </trkpt>
      <trkpt lat="51.412567" lon="6.372122">
        <ele>29.073502</ele>
        <time>2024-04-01T07:36:48.014Z</time>
      </trkpt>
      <trkpt lat="51.412466" lon="6.372238">
        <ele>29.066468</ele>
        <time>2024-04-01T07:36:50.677Z</time>
      </trkpt>
      <trkpt lat="51.410339" lon="6.374349">
        <ele>28.642163</ele>
        <time>2024-04-01T07:37:44.359Z</time>
      </trkpt>
      <trkpt lat="51.409617" lon="6.375528">
        <ele>28.830716</ele>
        <time>2024-04-01T07:38:08.377Z</time>
      </trkpt>
      <trkpt lat="51.409554" lon="6.375550">
        <ele>28.842513</ele>
        <time>2024-04-01T07:38:10.038Z</time>
      </trkpt>
      <trkpt lat="51.409409" lon="6.376089">
        <ele>28.909501</ele>
        <time>2024-04-01T07:38:18.960Z</time>
      </trkpt>
      <trkpt lat="51.409281" lon="6.376362">
        <ele>28.948085</ele>
        <time>2024-04-01T07:38:24.081Z</time>
      </trkpt>
      <trkpt lat="51.408470" lon="6.377845">
        <ele>29.150193</ele>
        <time>2024-04-01T07:38:53.101Z</time>
      </trkpt>
      <trkpt lat="51.408051" lon="6.378538">
        <ele>29.222916</ele>
        <time>2024-04-01T07:39:06.486Z</time>
      </trkpt>
      <trkpt lat="51.407498" lon="6.379410">
        <ele>28.977993</ele>
        <time>2024-04-01T07:39:23.162Z</time>
      </trkpt>
      <trkpt lat="51.407218" lon="6.380266">
        <ele>28.787618</ele>
        <time>2024-04-01T07:39:35.839Z</time>
      </trkpt>
      <trkpt lat="51.406873" lon="6.381274">
        <ele>28.602612</ele>
        <time>2024-04-01T07:39:50.902Z</time>
      </trkpt>
      <trkpt lat="51.406217" lon="6.383539">
        <ele>28.347250</ele>
        <time>2024-04-01T07:40:24.866Z</time>
      </trkpt>
      <trkpt lat="51.405649" lon="6.385593">
        <ele>28.738928</ele>
        <time>2024-04-01T07:40:58.297Z</time>
      </trkpt>
      <trkpt lat="51.405449" lon="6.386377">
        <ele>28.921157</ele>
        <time>2024-04-01T07:41:11.203Z</time>
      </trkpt>
      <trkpt lat="51.405327" lon="6.386966">
        <ele>29.084636</ele>
        <time>2024-04-01T07:41:20.614Z</time>
      </trkpt>
      <trkpt lat="51.405310" lon="6.387195">
        <ele>29.145383</ele>
        <time>2024-04-01T07:41:24.121Z</time>
      </trkpt>
      <trkpt lat="51.405237" lon="6.388161">
        <ele>29.401699</ele>
        <time>2024-04-01T07:41:38.678Z</time>
      </trkpt>
      <trkpt lat="51.404902" lon="6.390304">
        <ele>29.918380</ele>
        <time>2024-04-01T07:42:12.461Z</time>
      </trkpt>
      <trkpt lat="51.404667" lon="6.391390">
        <ele>30.172398</ele>
        <time>2024-04-01T07:42:29.550Z</time>
      </trkpt>
      <trkpt lat="51.404639" lon="6.391831">
        <ele>30.221453</ele>
        <time>2024-04-01T07:42:36.024Z</time>
      </trkpt>
      <trkpt lat="51.404661" lon="6.392475">
        <ele>30.236662</ele>
        <time>2024-04-01T07:42:45.274Z</time>
      </trkpt>
      <trkpt lat="51.404639" lon="6.392791">
        <ele>30.244160</ele>
        <time>2024-04-01T07:42:49.787Z</time>
      </trkpt>
      <trkpt lat="51.404591" lon="6.393068">
        <ele>30.250940</ele>
        <time>2024-04-01T07:42:53.780Z</time>
      </trkpt>
      <trkpt lat="51.404504" lon="6.393338">
        <ele>30.258106</ele>
        <time>2024-04-01T07:42:58.042Z</time>
      </trkpt>
      <trkpt lat="51.404418" lon="6.393558">
        <ele>30.264228</ele>
        <time>2024-04-01T07:43:01.609Z</time>
      </trkpt>
      <trkpt lat="51.404257" lon="6.393846">
        <ele>30.273348</ele>
        <time>2024-04-01T07:43:06.960Z</time>
      </trkpt>
      <trkpt lat="51.404247" lon="6.393860">
        <ele>30.273850</ele>
        <time>2024-04-01T07:43:07.241Z</time>
      </trkpt>
      <trkpt lat="51.404146" lon="6.394011">
        <ele>30.279071</ele>
        <time>2024-04-01T07:43:10.274Z</time>
      </trkpt>
      <trkpt lat="51.403654" lon="6.394370">
        <ele>30.211013</ele>
        <time>2024-04-01T07:43:22.040Z</time>
      </trkpt>
      <trkpt lat="51.403515" lon="6.394590">
        <ele>30.177304</ele>
        <time>2024-04-01T07:43:26.247Z</time>
      </trkpt>
      <trkpt lat="51.403100" lon="6.395596">
        <ele>30.047469</ele>
        <time>2024-04-01T07:43:42.603Z</time>
      </trkpt>
      <trkpt lat="51.402798" lon="6.396676">
        <ele>29.891330</ele>
        <time>2024-04-01T07:43:58.511Z</time>
      </trkpt>
      <trkpt lat="51.402483" lon="6.398834">
        <ele>29.523806</ele>
        <time>2024-04-01T07:44:28.157Z</time>
      </trkpt>
      <trkpt lat="51.402136" lon="6.400373">
        <ele>29.291502</ele>
        <time>2024-04-01T07:44:50.231Z</time>
      </trkpt>
      <trkpt lat="51.402108" lon="6.400711">
        <ele>29.244062</ele>
        <time>2024-04-01T07:44:54.887Z</time>
      </trkpt>
      <trkpt lat="51.401985" lon="6.401635">
        <ele>29.112606</ele>
        <time>2024-04-01T07:45:07.578Z</time>
      </trkpt>
      <trkpt lat="51.401458" lon="6.404616">
        <ele>28.903855</ele>
        <time>2024-04-01T07:45:49.655Z</time>
      </trkpt>
      <trkpt lat="51.400954" lon="6.407488">
        <ele>29.316428</ele>
        <time>2024-04-01T07:46:33.828Z</time>
      </trkpt>
      <trkpt lat="51.400803" lon="6.408283">
        <ele>29.447666</ele>
        <time>2024-04-01T07:46:46.336Z</time>
      </trkpt>
      <trkpt lat="51.400650" lon="6.408781">
        <ele>29.535332</ele>
        <time>2024-04-01T07:46:54.377Z</time>
      </trkpt>
      <trkpt lat="51.400269" lon="6.409861">
        <ele>29.731271</ele>
        <time>2024-04-01T07:47:12.313Z</time>
      </trkpt>
      <trkpt lat="51.399988" lon="6.410899">
        <ele>29.917374</ele>
        <time>2024-04-01T07:47:28.677Z</time>
      </trkpt>
      <trkpt lat="51.399741" lon="6.411512">
        <ele>30.037734</ele>
        <time>2024-04-01T07:47:39.318Z</time>
      </trkpt>
      <trkpt lat="51.399173" lon="6.411261">
        <ele>30.193499</ele>
        <time>2024-04-01T07:47:53.363Z</time>
      </trkpt>
      <trkpt lat="51.398165" lon="6.410760">
        <ele>30.414915</ele>
        <time>2024-04-01T07:48:18.695Z</time>
      </trkpt>
      <trkpt lat="51.397868" lon="6.410579">
        <ele>30.479869</ele>
        <time>2024-04-01T07:48:26.136Z</time>
      </trkpt>
      <trkpt lat="51.396662" lon="6.409970">
        <ele>30.575102</ele>
        <time>2024-04-01T07:48:54.180Z</time>
      </trkpt>
      <trkpt lat="51.396159" lon="6.409643">
        <ele>30.566985</ele>
        <time>2024-04-01T07:49:05.986Z</time>
      </trkpt>
      <trkpt lat="51.395946" lon="6.409572">
        <ele>30.563732</ele>
        <time>2024-04-01T07:49:10.736Z</time>
      </trkpt>
      <trkpt lat="51.394413" lon="6.409637">
        <ele>30.735445</ele>
        <time>2024-04-01T07:49:46.068Z</time>
      </trkpt>
      <trkpt lat="51.394149" lon="6.409610">
        <ele>30.773034</ele>
        <time>2024-04-01T07:49:52.274Z</time>
      </trkpt>
      <trkpt lat="51.393248" lon="6.409373">
        <ele>30.902930</ele>
        <time>2024-04-01T07:50:13.476Z</time>
      </trkpt>
      <trkpt lat="51.392261" lon="6.409060">
        <ele>31.046150</ele>
        <time>2024-04-01T07:50:36.430Z</time>
      </trkpt>
      <trkpt lat="51.392200" lon="6.409317">
        <ele>31.070573</ele>
        <time>2024-04-01T07:50:40.399Z</time>
      </trkpt>
      <trkpt lat="51.392150" lon="6.409903">
        <ele>31.093193</ele>
        <time>2024-04-01T07:50:48.589Z</time>
      </trkpt>
      <trkpt lat="51.392007" lon="6.411024">
        <ele>31.136542</ele>
        <time>2024-04-01T07:51:04.553Z</time>
      </trkpt>
      <trkpt lat="51.391442" lon="6.413788">
        <ele>31.296050</ele>
        <time>2024-04-01T07:51:45.693Z</time>
      </trkpt>
      <trkpt lat="51.391370" lon="6.414452">
        <ele>31.340493</ele>
        <time>2024-04-01T07:51:55.320Z</time>
      </trkpt>
      <trkpt lat="51.391275" lon="6.414809">
        <ele>31.366087</ele>
        <time>2024-04-01T07:52:00.946Z</time>
      </trkpt>
      <trkpt lat="51.391167" lon="6.415009">
        <ele>31.392086</ele>
        <time>2024-04-01T07:52:04.731Z</time>
      </trkpt>
      <trkpt lat="51.390861" lon="6.415079">
        <ele>31.445778</ele>
        <time>2024-04-01T07:52:11.848Z</time>
      </trkpt>
      <trkpt lat="51.389905" lon="6.415184">
        <ele>31.612228</ele>
        <time>2024-04-01T07:52:34.101Z</time>
      </trkpt>
      <trkpt lat="51.389572" lon="6.415172">
        <ele>31.670085</ele>
        <time>2024-04-01T07:52:41.782Z</time>
      </trkpt>
      <trkpt lat="51.388711" lon="6.414995">
        <ele>31.886398</ele>
        <time>2024-04-01T07:53:01.945Z</time>
      </trkpt>
      <trkpt lat="51.388635" lon="6.414979">
        <ele>31.906026</ele>
        <time>2024-04-01T07:53:03.779Z</time>
      </trkpt>
      <trkpt lat="51.388497" lon="6.415204">
        <ele>31.956437</ele>
        <time>2024-04-01T07:53:08.333Z</time>
      </trkpt>
      <trkpt lat="51.388413" lon="6.415565">
        <ele>32.018001</ele>
        <time>2024-04-01T07:53:14.022Z</time>
      </trkpt>
      <trkpt lat="51.388421" lon="6.416460">
        <ele>32.149014</ele>
        <time>2024-04-01T07:53:27.519Z</time>
      </trkpt>
      <trkpt lat="51.388363" lon="6.417035">
        <ele>32.179270</ele>
        <time>2024-04-01T07:53:35.897Z</time>
      </trkpt>
      <trkpt lat="51.388269" lon="6.417720">
        <ele>32.215703</ele>
        <time>2024-04-01T07:53:45.677Z</time>
      </trkpt>
      <trkpt lat="51.388162" lon="6.418573">
        <ele>32.260898</ele>
        <time>2024-04-01T07:53:57.752Z</time>
      </trkpt>
      <trkpt lat="51.388269" lon="6.417720">
        <ele>32.260690</ele>
        <time>2024-04-01T07:54:09.831Z</time>
      </trkpt>
      <trkpt lat="51.388363" lon="6.417035">
        <ele>32.171311</ele>
        <time>2024-04-01T07:54:19.530Z</time>
      </trkpt>
      <trkpt lat="51.388421" lon="6.416460">
        <ele>32.097085</ele>
        <time>2024-04-01T07:54:27.453Z</time>
      </trkpt>
      <trkpt lat="51.388413" lon="6.415565">
        <ele>31.983019</ele>
        <time>2024-04-01T07:54:39.284Z</time>
      </trkpt>
      <trkpt lat="51.388497" lon="6.415204">
        <ele>31.933921</ele>
        <time>2024-04-01T07:54:44.433Z</time>
      </trkpt>
      <trkpt lat="51.388635" lon="6.414979">
        <ele>31.891647</ele>
        <time>2024-04-01T07:54:48.708Z</time>
      </trkpt>
      <trkpt lat="51.388711" lon="6.414995">
        <ele>31.874978</ele>
        <time>2024-04-01T07:54:50.356Z</time>
      </trkpt>
      <trkpt lat="51.389572" lon="6.415172">
        <ele>31.686216</ele>
        <time>2024-04-01T07:55:09.170Z</time>
      </trkpt>
      <trkpt lat="51.389905" lon="6.415184">
        <ele>31.613786</ele>
        <time>2024-04-01T07:55:16.399Z</time>
      </trkpt>
      <trkpt lat="51.390861" lon="6.415079">
        <ele>31.452958</ele>
        <time>2024-04-01T07:55:37.201Z</time>
      </trkpt>
      <trkpt lat="51.391167" lon="6.415009">
        <ele>31.410496</ele>
        <time>2024-04-01T07:55:43.920Z</time>
      </trkpt>
      <trkpt lat="51.391275" lon="6.414809">
        <ele>31.387824</ele>
        <time>2024-04-01T07:55:47.504Z</time>
      </trkpt>
      <trkpt lat="51.391370" lon="6.414452">
        <ele>31.354555</ele>
        <time>2024-04-01T07:55:52.767Z</time>
      </trkpt>
      <trkpt lat="51.391442" lon="6.413788">
        <ele>31.296783</ele>
        <time>2024-04-01T07:56:01.961Z</time>
      </trkpt>
      <trkpt lat="51.392007" lon="6.411024">
        <ele>31.098800</ele>
        <time>2024-04-01T07:56:41.843Z</time>
      </trkpt>
      <trkpt lat="51.392150" lon="6.409903">
        <ele>31.051420</ele>
        <time>2024-04-01T07:56:57.558Z</time>
      </trkpt>
      <trkpt lat="51.392200" lon="6.409317">
        <ele>31.028129</ele>
        <time>2024-04-01T07:57:05.851Z</time>
      </trkpt>
      <trkpt lat="51.392261" lon="6.409060">
        <ele>31.017302</ele>
        <time>2024-04-01T07:57:09.581Z</time>
      </trkpt>
      <trkpt lat="51.392307" lon="6.408830">
        <ele>31.007791</ele>
        <time>2024-04-01T07:57:13.111Z</time>
      </trkpt>
      <trkpt lat="51.392261" lon="6.409060">
        <ele>30.998280</ele>
        <time>2024-04-01T07:57:16.389Z</time>
      </trkpt>
      <trkpt lat="51.393248" lon="6.409373">
        <ele>30.884852</ele>
        <time>2024-04-01T07:57:38.407Z</time>
      </trkpt>
      <trkpt lat="51.394149" lon="6.409610">
        <ele>30.763173</ele>
        <time>2024-04-01T07:57:58.280Z</time>
      </trkpt>
      <trkpt lat="51.394413" lon="6.409637">
        <ele>30.730503</ele>
        <time>2024-04-01T07:58:03.991Z</time>
      </trkpt>
      <trkpt lat="51.395946" lon="6.409572">
        <ele>30.569839</ele>
        <time>2024-04-01T07:58:37.390Z</time>
      </trkpt>
      <trkpt lat="51.396159" lon="6.409643">
        <ele>30.551274</ele>
        <time>2024-04-01T07:58:42.372Z</time>
      </trkpt>
      <trkpt lat="51.396662" lon="6.409970">
        <ele>30.547640</ele>
        <time>2024-04-01T07:58:54.899Z</time>
      </trkpt>
      <trkpt lat="51.397868" lon="6.410579">
        <ele>30.526410</ele>
        <time>2024-04-01T07:59:23.185Z</time>
      </trkpt>
      <trkpt lat="51.398165" lon="6.410760">
        <ele>30.445854</ele>
        <time>2024-04-01T07:59:30.042Z</time>
      </trkpt>
      <trkpt lat="51.399173" lon="6.411261">
        <ele>30.178296</ele>
        <time>2024-04-01T07:59:52.476Z</time>
      </trkpt>
      <trkpt lat="51.399741" lon="6.411512">
        <ele>30.030517</ele>
        <time>2024-04-01T08:00:05.073Z</time>
      </trkpt>
      <trkpt lat="51.399988" lon="6.410899">
        <ele>29.918468</ele>
        <time>2024-04-01T08:00:14.920Z</time>
      </trkpt>
      <trkpt lat="51.400269" lon="6.409861">
        <ele>29.744730</ele>
        <time>2024-04-01T08:00:30.218Z</time>
      </trkpt>
      <trkpt lat="51.400650" lon="6.408781">
        <ele>29.544204</ele>
        <time>2024-04-01T08:00:47.019Z</time>
      </trkpt>
      <trkpt lat="51.400803" lon="6.408283">
        <ele>29.449108</ele>
        <time>2024-04-01T08:00:54.535Z</time>
      </trkpt>
      <trkpt lat="51.400954" lon="6.407488">
        <ele>29.306746</ele>
        <time>2024-04-01T08:01:05.550Z</time>
      </trkpt>
      <trkpt lat="51.401458" lon="6.404616">
        <ele>28.969601</ele>
        <time>2024-04-01T08:01:45.394Z</time>
      </trkpt>
      <trkpt lat="51.401985" lon="6.401635">
        <ele>29.126621</ele>
        <time>2024-04-01T08:02:29.968Z</time>
      </trkpt>
      <trkpt lat="51.402108" lon="6.400711">
        <ele>29.237051</ele>
        <time>2024-04-01T08:02:43.805Z</time>
      </trkpt>
      <trkpt lat="51.402136" lon="6.400373">
        <ele>29.287061</ele>
        <time>2024-04-01T08:02:48.652Z</time>
      </trkpt>
      <trkpt lat="51.402483" lon="6.398834">
        <ele>29.527079</ele>
        <time>2024-04-01T08:03:12.478Z</time>
      </trkpt>
      <trkpt lat="51.402798" lon="6.396676">
        <ele>29.875197</ele>
        <time>2024-04-01T08:03:45.195Z</time>
      </trkpt>
      <trkpt lat="51.403100" lon="6.395596">
        <ele>30.065441</ele>
        <time>2024-04-01T08:04:02.509Z</time>
      </trkpt>
      <trkpt lat="51.403515" lon="6.394590">
        <ele>30.174895</ele>
        <time>2024-04-01T08:04:19.943Z</time>
      </trkpt>
      <trkpt lat="51.403654" lon="6.394370">
        <ele>30.202136</ele>
        <time>2024-04-01T08:04:24.525Z</time>
      </trkpt>
      <trkpt lat="51.404146" lon="6.394011">
        <ele>30.277523</ele>
        <time>2024-04-01T08:04:36.979Z</time>
      </trkpt>
      <trkpt lat="51.404247" lon="6.393860">
        <ele>30.296783</ele>
        <time>2024-04-01T08:04:40.140Z</time>
      </trkpt>
      <trkpt lat="51.404257" lon="6.393846">
        <ele>30.298634</ele>
        <time>2024-04-01T08:04:40.435Z</time>
      </trkpt>
      <trkpt lat="51.404418" lon="6.393558">
        <ele>30.320388</ele>
        <time>2024-04-01T08:04:45.841Z</time>
      </trkpt>
      <trkpt lat="51.404504" lon="6.393338">
        <ele>30.299171</ele>
        <time>2024-04-01T08:04:49.481Z</time>
      </trkpt>
      <trkpt lat="51.404591" lon="6.393068">
        <ele>30.274336</ele>
        <time>2024-04-01T08:04:53.680Z</time>
      </trkpt>
      <trkpt lat="51.404639" lon="6.392791">
        <ele>30.250842</ele>
        <time>2024-04-01T08:04:57.660Z</time>
      </trkpt>
      <trkpt lat="51.404661" lon="6.392475">
        <ele>30.224858</ele>
        <time>2024-04-01T08:05:02.007Z</time>
      </trkpt>
      <trkpt lat="51.404639" lon="6.391831">
        <ele>30.172151</ele>
        <time>2024-04-01T08:05:10.790Z</time>
      </trkpt>
      <trkpt lat="51.404667" lon="6.391390">
        <ele>30.135925</ele>
        <time>2024-04-01T08:05:16.739Z</time>
      </trkpt>
      <trkpt lat="51.404902" lon="6.390304">
        <ele>29.942922</ele>
        <time>2024-04-01T08:05:32.073Z</time>
      </trkpt>
      <trkpt lat="51.405237" lon="6.388161">
        <ele>29.393847</ele>
        <time>2024-04-01T08:06:01.052Z</time>
      </trkpt>
      <trkpt lat="51.405310" lon="6.387195">
        <ele>29.146476</ele>
        <time>2024-04-01T08:06:13.963Z</time>
      </trkpt>
      <trkpt lat="51.405327" lon="6.386966">
        <ele>29.087731</ele>
        <time>2024-04-01T08:06:16.994Z</time>
      </trkpt>
      <trkpt lat="51.405449" lon="6.386377">
        <ele>28.929642</ele>
        <time>2024-04-01T08:06:25.167Z</time>
      </trkpt>
      <trkpt lat="51.405649" lon="6.385593">
        <ele>28.713881</ele>
        <time>2024-04-01T08:06:36.303Z</time>
      </trkpt>
      <trkpt lat="51.406217" lon="6.383539">
        <ele>28.427789</ele>
        <time>2024-04-01T08:07:06.239Z</time>
      </trkpt>
      <trkpt lat="51.406873" lon="6.381274">
        <ele>28.614310</ele>
        <time>2024-04-01T08:07:42.027Z</time>
      </trkpt>
      <trkpt lat="51.407218" lon="6.380266">
        <ele>28.824771</ele>
        <time>2024-04-01T08:07:59.673Z</time>
      </trkpt>
      <trkpt lat="51.407498" lon="6.379410">
        <ele>28.963178</ele>
        <time>2024-04-01T08:08:14.418Z</time>
      </trkpt>
      <trkpt lat="51.408051" lon="6.378538">
        <ele>29.131027</ele>
        <time>2024-04-01T08:08:32.736Z</time>
      </trkpt>
      <trkpt lat="51.408470" lon="6.377845">
        <ele>29.224729</ele>
        <time>2024-04-01T08:08:46.099Z</time>
      </trkpt>
      <trkpt lat="51.409281" lon="6.376362">
        <ele>28.920714</ele>
        <time>2024-04-01T08:09:12.535Z</time>
      </trkpt>
      <trkpt lat="51.409409" lon="6.376089">
        <ele>28.868070</ele>
        <time>2024-04-01T08:09:17.053Z</time>
      </trkpt>
      <trkpt lat="51.409554" lon="6.375550">
        <ele>28.793895</ele>
        <time>2024-04-01T08:09:24.787Z</time>
      </trkpt>
      <trkpt lat="51.409617" lon="6.375528">
        <ele>28.789694</ele>
        <time>2024-04-01T08:09:26.131Z</time>
      </trkpt>
      <trkpt lat="51.410339" lon="6.374349">
        <ele>28.722539</ele>
        <time>2024-04-01T08:09:48.420Z</time>
      </trkpt>
      <trkpt lat="51.412466" lon="6.372238">
        <ele>29.121356</ele>
        <time>2024-04-01T08:10:47.542Z</time>
      </trkpt>
      <trkpt lat="51.412567" lon="6.372122">
        <ele>29.117625</ele>
        <time>2024-04-01T08:10:50.466Z</time>
      </trkpt>
      <trkpt lat="51.412936" lon="6.371500">
        <ele>29.101549</ele>
        <time>2024-04-01T08:11:02.456Z</time>
      </trkpt>
      <trkpt lat="51.413121" lon="6.371186">
        <ele>29.093460</ele>
        <time>2024-04-01T08:11:08.677Z</time>
      </trkpt>
      <trkpt lat="51.413402" lon="6.370709">
        <ele>29.081172</ele>
        <time>2024-04-01T08:11:17.976Z</time>
      </trkpt>
      <trkpt lat="51.413673" lon="6.370030">
        <ele>29.056838</ele>
        <time>2024-04-01T08:11:29.389Z</time>
      </trkpt>
      <trkpt lat="51.414069" lon="6.368513">
        <ele>28.953911</ele>
        <time>2024-04-01T08:11:52.491Z</time>
      </trkpt>
      <trkpt lat="51.414187" lon="6.367368">
        <ele>28.885525</ele>
        <time>2024-04-01T08:12:08.818Z</time>
      </trkpt>
      <trkpt lat="51.414486" lon="6.365839">
        <ele>28.836909</ele>
        <time>2024-04-01T08:12:31.925Z</time>
      </trkpt>
      <trkpt lat="51.415458" lon="6.366216">
        <ele>28.666040</ele>
        <time>2024-04-01T08:12:53.441Z</time>
      </trkpt>
      <trkpt lat="51.415999" lon="6.366546">
        <ele>28.387873</ele>
        <time>2024-04-01T08:13:05.395Z</time>
      </trkpt>
      <trkpt lat="51.416359" lon="6.366746">
        <ele>28.204778</ele>
        <time>2024-04-01T08:13:13.270Z</time>
      </trkpt>
      <trkpt lat="51.416567" lon="6.366909">
        <ele>28.093519</ele>
        <time>2024-04-01T08:13:18.068Z</time>
      </trkpt>
      <trkpt lat="51.417074" lon="6.367432">
        <ele>27.900851</ele>
        <time>2024-04-01T08:13:30.627Z</time>
      </trkpt>
      <trkpt lat="51.417174" lon="6.367437">
        <ele>27.887631</ele>
        <time>2024-04-01T08:13:32.764Z</time>
      </trkpt>
      <trkpt lat="51.417237" lon="6.367307">
        <ele>27.874065</ele>
        <time>2024-04-01T08:13:34.938Z</time>
      </trkpt>
      <trkpt lat="51.417949" lon="6.363704">
        <ele>27.787483</ele>
        <time>2024-04-01T08:14:27.710Z</time>
      </trkpt>
      <trkpt lat="51.417972" lon="6.363586">
        <ele>27.793970</ele>
        <time>2024-04-01T08:14:29.535Z</time>
      </trkpt>
      <trkpt lat="51.418335" lon="6.361666">
        <ele>28.021851</ele>
        <time>2024-04-01T08:14:57.991Z</time>
      </trkpt>
      <trkpt lat="51.418351" lon="6.361072">
        <ele>28.132896</ele>
        <time>2024-04-01T08:15:06.864Z</time>
      </trkpt>
      <trkpt lat="51.418372" lon="6.360385">
        <ele>28.261361</ele>
        <time>2024-04-01T08:15:17.249Z</time>
      </trkpt>
      <trkpt lat="51.418915" lon="6.361172">
        <ele>28.512728</ele>
        <time>2024-04-01T08:15:35.142Z</time>
      </trkpt>
      <trkpt lat="51.419446" lon="6.361864">
        <ele>28.790437</ele>
        <time>2024-04-01T08:15:52.154Z</time>
      </trkpt>
      <trkpt lat="51.419476" lon="6.361789">
        <ele>28.812989</ele>
        <time>2024-04-01T08:15:53.547Z</time>
      </trkpt>
      <trkpt lat="51.419513" lon="6.361709">
        <ele>28.838197</ele>
        <time>2024-04-01T08:15:55.165Z</time>
      </trkpt>
      <trkpt lat="51.420512" lon="6.359714">
        <ele>29.154938</ele>
        <time>2024-04-01T08:16:34.333Z</time>
      </trkpt>
      <trkpt lat="51.420609" lon="6.359579">
        <ele>29.159914</ele>
        <time>2024-04-01T08:16:37.234Z</time>
      </trkpt>
      <trkpt lat="51.420943" lon="6.359068">
        <ele>29.177801</ele>
        <time>2024-04-01T08:16:47.672Z</time>
      </trkpt>
      <trkpt lat="51.421225" lon="6.358615">
        <ele>29.165748</ele>
        <time>2024-04-01T08:16:56.657Z</time>
      </trkpt>
      <trkpt lat="51.421441" lon="6.358204">
        <ele>29.078194</ele>
        <time>2024-04-01T08:17:08.826Z</time>
      </trkpt>
      <trkpt lat="51.421898" lon="6.357090">
        <ele>28.860988</ele>
        <time>2024-04-01T08:17:38.915Z</time>
      </trkpt>
      <trkpt lat="51.425461" lon="6.361045">
        <ele>28.147989</ele>
        <time>2024-04-01T08:20:17.382Z</time>
      </trkpt>
      <trkpt lat="51.427480" lon="6.358431">
        <ele>28.114891</ele>
        <time>2024-04-01T08:21:53.632Z</time>
      </trkpt>
      <trkpt lat="51.429981" lon="6.355784">
        <ele>28.219388</ele>
        <time>2024-04-01T08:23:45.238Z</time>
      </trkpt>
      <trkpt lat="51.431911" lon="6.353773">
        <ele>28.413457</ele>
        <time>2024-04-01T08:25:11.407Z</time>
      </trkpt>
      <trkpt lat="51.432626" lon="6.354147">
        <ele>28.490133</ele>
        <time>2024-04-01T08:25:40.053Z</time>
      </trkpt>
      <trkpt lat="51.433702" lon="6.354882">
        <ele>28.487320</ele>
        <time>2024-04-01T08:26:23.805Z</time>
      </trkpt>
      <trkpt lat="51.435780" lon="6.352697">
        <ele>28.208946</ele>
        <time>2024-04-01T08:27:54.583Z</time>
      </trkpt>
      <trkpt lat="51.436407" lon="6.352073">
        <ele>28.126562</ele>
        <time>2024-04-01T08:28:21.777Z</time>
      </trkpt>
      <trkpt lat="51.436707" lon="6.351744">
        <ele>28.088347</ele>
        <time>2024-04-01T08:28:32.369Z</time>
      </trkpt>
      <trkpt lat="51.436752" lon="6.351806">
        <ele>28.082110</ele>
        <time>2024-04-01T08:28:33.680Z</time>
      </trkpt>
      <trkpt lat="51.437211" lon="6.354192">
        <ele>28.040618</ele>
        <time>2024-04-01T08:29:07.787Z</time>
      </trkpt>
      <trkpt lat="51.437293" lon="6.354610">
        <ele>28.052465</ele>
        <time>2024-04-01T08:29:13.718Z</time>
      </trkpt>
      <trkpt lat="51.439902" lon="6.353320">
        <ele>28.485769</ele>
        <time>2024-04-01T08:30:58.659Z</time>
      </trkpt>
      <trkpt lat="51.441782" lon="6.352354">
        <ele>28.226295</ele>
        <time>2024-04-01T08:32:11.175Z</time>
      </trkpt>
      <trkpt lat="51.441962" lon="6.352193">
        <ele>28.132032</ele>
        <time>2024-04-01T08:32:18.514Z</time>
      </trkpt>
      <trkpt lat="51.442029" lon="6.352121">
        <ele>28.095146</ele>
        <time>2024-04-01T08:32:21.372Z</time>
      </trkpt>
      <trkpt lat="51.442153" lon="6.352076">
        <ele>28.036995</ele>
        <time>2024-04-01T08:32:25.897Z</time>
      </trkpt>
      <trkpt lat="51.443176" lon="6.351891">
        <ele>27.560361</ele>
        <time>2024-04-01T08:33:02.433Z</time>
      </trkpt>
      <trkpt lat="51.443378" lon="6.351897">
        <ele>27.444159</ele>
        <time>2024-04-01T08:33:09.550Z</time>
      </trkpt>
      <trkpt lat="51.443996" lon="6.352117">
        <ele>27.080066</ele>
        <time>2024-04-01T08:33:31.793Z</time>
      </trkpt>
      <trkpt lat="51.444137" lon="6.352173">
        <ele>26.996521</ele>
        <time>2024-04-01T08:33:36.869Z</time>
      </trkpt>
      <trkpt lat="51.444273" lon="6.352208">
        <ele>26.917299</ele>
        <time>2024-04-01T08:33:41.736Z</time>
      </trkpt>
      <trkpt lat="51.446184" lon="6.349614">
        <ele>25.954998</ele>
        <time>2024-04-01T08:35:11.759Z</time>
      </trkpt>
      <trkpt lat="51.446321" lon="6.349453">
        <ele>25.983229</ele>
        <time>2024-04-01T08:35:18.218Z</time>
      </trkpt>
      <trkpt lat="51.445557" lon="6.347839">
        <ele>26.193217</ele>
        <time>2024-04-01T08:35:48.191Z</time>
      </trkpt>
      <trkpt lat="51.447183" lon="6.345637">
        <ele>26.586025</ele>
        <time>2024-04-01T08:37:08.848Z</time>
      </trkpt>
      <trkpt lat="51.447799" lon="6.344801">
        <ele>26.720465</ele>
        <time>2024-04-01T08:37:39.233Z</time>
      </trkpt>
      <trkpt lat="51.448979" lon="6.343210">
        <ele>26.881804</ele>
        <time>2024-04-01T08:38:37.764Z</time>
      </trkpt>
      <trkpt lat="51.453271" lon="6.337421">
        <ele>26.728757</ele>
        <time>2024-04-01T08:42:05.055Z</time>
      </trkpt>
      <trkpt lat="51.454836" lon="6.335309">
        <ele>26.397552</ele>
        <time>2024-04-01T08:43:19.601Z</time>
      </trkpt>
      <trkpt lat="51.454938" lon="6.335207">
        <ele>26.373760</ele>
        <time>2024-04-01T08:43:24.050Z</time>
      </trkpt>
      <trkpt lat="51.454979" lon="6.335170">
        <ele>26.364448</ele>
        <time>2024-04-01T08:43:25.050Z</time>
      </trkpt>
      <trkpt lat="51.455032" lon="6.335340">
        <ele>26.340999</ele>
        <time>2024-04-01T08:43:27.580Z</time>
      </trkpt>
      <trkpt lat="51.455097" lon="6.335369">
        <ele>26.327644</ele>
        <time>2024-04-01T08:43:29.015Z</time>
      </trkpt>
      <trkpt lat="51.455726" lon="6.337309">
        <ele>26.102323</ele>
        <time>2024-04-01T08:43:58.910Z</time>
      </trkpt>
      <trkpt lat="51.456036" lon="6.338094">
        <ele>26.014497</ele>
        <time>2024-04-01T08:44:11.519Z</time>
      </trkpt>
      <trkpt lat="51.456723" lon="6.337763">
        <ele>25.962168</ele>
        <time>2024-04-01T08:44:37.782Z</time>
      </trkpt>
      <trkpt lat="51.457642" lon="6.337233">
        <ele>25.934538</ele>
        <time>2024-04-01T08:45:13.940Z</time>
      </trkpt>
      <trkpt lat="51.458095" lon="6.337032">
        <ele>25.937973</ele>
        <time>2024-04-01T08:45:31.448Z</time>
      </trkpt>
      <trkpt lat="51.459461" lon="6.336270">
        <ele>26.126422</ele>
        <time>2024-04-01T08:46:25.830Z</time>
      </trkpt>
      <trkpt lat="51.459703" lon="6.336176">
        <ele>26.158810</ele>
        <time>2024-04-01T08:46:35.399Z</time>
      </trkpt>
      <trkpt lat="51.462034" lon="6.334887">
        <ele>26.279320</ele>
        <time>2024-04-01T08:48:08.160Z</time>
      </trkpt>
      <trkpt lat="51.463003" lon="6.334319">
        <ele>26.183133</ele>
        <time>2024-04-01T08:48:45.797Z</time>
      </trkpt>
      <trkpt lat="51.463864" lon="6.333770">
        <ele>26.077807</ele>
        <time>2024-04-01T08:49:19.379Z</time>
      </trkpt>
      <trkpt lat="51.463979" lon="6.333734">
        <ele>26.064202</ele>
        <time>2024-04-01T08:49:23.678Z</time>
      </trkpt>
      <trkpt lat="51.464029" lon="6.334226">
        <ele>26.028141</ele>
        <time>2024-04-01T08:49:30.788Z</time>
      </trkpt>
      <trkpt lat="51.467224" lon="6.331642">
        <ele>26.090511</ele>
        <time>2024-04-01T08:51:45.369Z</time>
      </trkpt>
      <trkpt lat="51.470985" lon="6.328515">
        <ele>24.649698</ele>
        <time>2024-04-01T08:54:17.418Z</time>
      </trkpt>
      <trkpt lat="51.471194" lon="6.328399">
        <ele>24.633321</ele>
        <time>2024-04-01T08:54:25.407Z</time>
      </trkpt>
      <trkpt lat="51.472079" lon="6.328107">
        <ele>24.566406</ele>
        <time>2024-04-01T08:54:58.583Z</time>
      </trkpt>
      <trkpt lat="51.472009" lon="6.327885">
        <ele>24.554928</ele>
        <time>2024-04-01T08:55:02.014Z</time>
      </trkpt>
      <trkpt lat="51.471971" lon="6.327513">
        <ele>24.537537</ele>
        <time>2024-04-01T08:55:07.384Z</time>
      </trkpt>
      <trkpt lat="51.471868" lon="6.325685">
        <ele>24.890904</ele>
        <time>2024-04-01T08:55:34.851Z</time>
      </trkpt>
      <trkpt lat="51.471905" lon="6.325288">
        <ele>24.989530</ele>
        <time>2024-04-01T08:55:41.178Z</time>
      </trkpt>
      <trkpt lat="51.472458" lon="6.324304">
        <ele>25.291737</ele>
        <time>2024-04-01T08:56:01.078Z</time>
      </trkpt>
      <trkpt lat="51.472937" lon="6.323771">
        <ele>25.457246</ele>
        <time>2024-04-01T08:56:15.460Z</time>
      </trkpt>
      <trkpt lat="51.473096" lon="6.323553">
        <ele>25.516625</ele>
        <time>2024-04-01T08:56:20.563Z</time>
      </trkpt>
      <trkpt lat="51.473171" lon="6.323365">
        <ele>25.556116</ele>
        <time>2024-04-01T08:56:23.950Z</time>
      </trkpt>
      <trkpt lat="51.473233" lon="6.322979">
        <ele>25.626629</ele>
        <time>2024-04-01T08:56:29.746Z</time>
      </trkpt>
      <trkpt lat="51.473773" lon="6.323030">
        <ele>25.717944</ele>
        <time>2024-04-01T08:56:41.912Z</time>
      </trkpt>
      <trkpt lat="51.473780" lon="6.322949">
        <ele>25.708633</ele>
        <time>2024-04-01T08:56:43.014Z</time>
      </trkpt>
      <trkpt lat="51.473801" lon="6.322112">
        <ele>25.613255</ele>
        <time>2024-04-01T08:56:54.374Z</time>
      </trkpt>
      <trkpt lat="51.473838" lon="6.320662">
        <ele>25.448020</ele>
        <time>2024-04-01T08:57:13.920Z</time>
      </trkpt>
      <trkpt lat="51.474002" lon="6.320219">
        <ele>25.390465</ele>
        <time>2024-04-01T08:57:20.711Z</time>
      </trkpt>
      <trkpt lat="51.474587" lon="6.319484">
        <ele>25.260967</ele>
        <time>2024-04-01T08:57:36.491Z</time>
      </trkpt>
      <trkpt lat="51.476349" lon="6.317939">
        <ele>25.227101</ele>
        <time>2024-04-01T08:58:21.060Z</time>
      </trkpt>
      <trkpt lat="51.476807" lon="6.319290">
        <ele>25.343230</ele>
        <time>2024-04-01T08:58:43.828Z</time>
      </trkpt>
      <trkpt lat="51.477316" lon="6.318953">
        <ele>25.416421</ele>
        <time>2024-04-01T08:58:56.749Z</time>
      </trkpt>
      <trkpt lat="51.477877" lon="6.318283">
        <ele>25.509367</ele>
        <time>2024-04-01T08:59:12.601Z</time>
      </trkpt>
      <trkpt lat="51.478060" lon="6.318067">
        <ele>25.539560</ele>
        <time>2024-04-01T08:59:17.688Z</time>
      </trkpt>
      <trkpt lat="51.478662" lon="6.317637">
        <ele>25.477780</ele>
        <time>2024-04-01T08:59:32.259Z</time>
      </trkpt>
      <trkpt lat="51.479016" lon="6.317552">
        <ele>25.433309</ele>
        <time>2024-04-01T08:59:40.116Z</time>
      </trkpt>
      <trkpt lat="51.480409" lon="6.317495">
        <ele>25.353720</ele>
        <time>2024-04-01T09:00:10.200Z</time>
      </trkpt>
      <trkpt lat="51.481417" lon="6.317519">
        <ele>25.405208</ele>
        <time>2024-04-01T09:00:33.364Z</time>
      </trkpt>
      <trkpt lat="51.483136" lon="6.317468">
        <ele>25.774658</ele>
        <time>2024-04-01T09:01:14.331Z</time>
      </trkpt>
      <trkpt lat="51.483314" lon="6.317459">
        <ele>25.818054</ele>
        <time>2024-04-01T09:01:18.502Z</time>
      </trkpt>
      <trkpt lat="51.485770" lon="6.317704">
        <ele>25.741034</ele>
        <time>2024-04-01T09:02:12.895Z</time>
      </trkpt>
      <trkpt lat="51.485802" lon="6.317114">
        <ele>25.690207</ele>
        <time>2024-04-01T09:02:20.877Z</time>
      </trkpt>
      <trkpt lat="51.486273" lon="6.316394">
        <ele>25.600584</ele>
        <time>2024-04-01T09:02:34.981Z</time>
      </trkpt>
      <trkpt lat="51.486653" lon="6.316164">
        <ele>25.573733</ele>
        <time>2024-04-01T09:02:43.825Z</time>
      </trkpt>
      <trkpt lat="51.487468" lon="6.315777">
        <ele>25.646448</ele>
        <time>2024-04-01T09:03:02.777Z</time>
      </trkpt>
      <trkpt lat="51.487397" lon="6.315282">
        <ele>25.673511</ele>
        <time>2024-04-01T09:03:10.025Z</time>
      </trkpt>
      <trkpt lat="51.487245" lon="6.314344">
        <ele>25.751009</ele>
        <time>2024-04-01T09:03:24.047Z</time>
      </trkpt>
      <trkpt lat="51.487224" lon="6.314149">
        <ele>25.792971</ele>
        <time>2024-04-01T09:03:27.050Z</time>
      </trkpt>
      <trkpt lat="51.487203" lon="6.313341">
        <ele>25.964451</ele>
        <time>2024-04-01T09:03:39.145Z</time>
      </trkpt>
      <trkpt lat="51.487302" lon="6.312416">
        <ele>26.163466</ele>
        <time>2024-04-01T09:03:53.560Z</time>
      </trkpt>
      <trkpt lat="51.487556" lon="6.310976">
        <ele>26.343236</ele>
        <time>2024-04-01T09:04:15.800Z</time>
      </trkpt>
      <trkpt lat="51.487633" lon="6.310540">
        <ele>26.352270</ele>
        <time>2024-04-01T09:04:22.233Z</time>
      </trkpt>
      <trkpt lat="51.487732" lon="6.309810">
        <ele>26.367164</ele>
        <time>2024-04-01T09:04:32.517Z</time>
      </trkpt>
      <trkpt lat="51.487735" lon="6.309388">
        <ele>26.375577</ele>
        <time>2024-04-01T09:04:38.262Z</time>
      </trkpt>
      <trkpt lat="51.487694" lon="6.308621">
        <ele>26.336703</ele>
        <time>2024-04-01T09:04:48.591Z</time>
      </trkpt>
      <trkpt lat="51.487707" lon="6.308117">
        <ele>26.222335</ele>
        <time>2024-04-01T09:04:55.295Z</time>
      </trkpt>
      <trkpt lat="51.487794" lon="6.307385">
        <ele>26.053376</ele>
        <time>2024-04-01T09:05:05.058Z</time>
      </trkpt>
      <trkpt lat="51.487874" lon="6.306678">
        <ele>25.890456</ele>
        <time>2024-04-01T09:05:14.438Z</time>
      </trkpt>
      <trkpt lat="51.487998" lon="6.305566">
        <ele>25.640174</ele>
        <time>2024-04-01T09:05:29.348Z</time>
      </trkpt>
      <trkpt lat="51.488053" lon="6.305565">
        <ele>25.621351</ele>
        <time>2024-04-01T09:05:31.358Z</time>
      </trkpt>
      <trkpt lat="51.490147" lon="6.305446">
        <ele>25.104823</ele>
        <time>2024-04-01T09:06:47.218Z</time>
      </trkpt>
      <trkpt lat="51.491230" lon="6.305367">
        <ele>25.085096</ele>
        <time>2024-04-01T09:07:27.899Z</time>
      </trkpt>
      <trkpt lat="51.492056" lon="6.305254">
        <ele>25.275724</ele>
        <time>2024-04-01T09:07:59.963Z</time>
      </trkpt>
      <trkpt lat="51.492532" lon="6.305050">
        <ele>25.404948</ele>
        <time>2024-04-01T09:08:19.063Z</time>
      </trkpt>
      <trkpt lat="51.492932" lon="6.304989">
        <ele>25.510341</ele>
        <time>2024-04-01T09:08:34.677Z</time>
      </trkpt>
      <trkpt lat="51.493815" lon="6.305109">
        <ele>25.414250</ele>
        <time>2024-04-01T09:09:07.640Z</time>
      </trkpt>
      <trkpt lat="51.495420" lon="6.305518">
        <ele>25.025555</ele>
        <time>2024-04-01T09:09:43.514Z</time>
      </trkpt>
      <trkpt lat="51.495991" lon="6.305675">
        <ele>24.838082</ele>
        <time>2024-04-01T09:09:56.341Z</time>
      </trkpt>
      <trkpt lat="51.496248" lon="6.305839">
        <ele>24.748589</ele>
        <time>2024-04-01T09:10:02.440Z</time>
      </trkpt>
      <trkpt lat="51.496524" lon="6.306099">
        <ele>24.645043</ele>
        <time>2024-04-01T09:10:09.627Z</time>
      </trkpt>
      <trkpt lat="51.496914" lon="6.306394">
        <ele>24.590273</ele>
        <time>2024-04-01T09:10:19.481Z</time>
      </trkpt>
      <trkpt lat="51.497598" lon="6.306656">
        <ele>24.532941</ele>
        <time>2024-04-01T09:10:35.672Z</time>
      </trkpt>
      <trkpt lat="51.498567" lon="6.307294">
        <ele>24.445178</ele>
        <time>2024-04-01T09:11:14.344Z</time>
      </trkpt>
      <trkpt lat="51.498629" lon="6.307367">
        <ele>24.438304</ele>
        <time>2024-04-01T09:11:17.185Z</time>
      </trkpt>
      <trkpt lat="51.498757" lon="6.307459">
        <ele>24.425766</ele>
        <time>2024-04-01T09:11:22.381Z</time>
      </trkpt>
      <trkpt lat="51.501464" lon="6.309070">
        <ele>24.256150</ele>
        <time>2024-04-01T09:13:08.588Z</time>
      </trkpt>
      <trkpt lat="51.501501" lon="6.308983">
        <ele>24.253898</ele>
        <time>2024-04-01T09:13:10.979Z</time>
      </trkpt>
      <trkpt lat="51.501559" lon="6.308746">
        <ele>24.259605</ele>
        <time>2024-04-01T09:13:17.223Z</time>
      </trkpt>
      <trkpt lat="51.501599" lon="6.308691">
        <ele>24.275851</ele>
        <time>2024-04-01T09:13:19.149Z</time>
      </trkpt>
      <trkpt lat="51.502121" lon="6.309007">
        <ele>24.447972</ele>
        <time>2024-04-01T09:13:40.213Z</time>
      </trkpt>
      <trkpt lat="51.502635" lon="6.309267">
        <ele>24.614246</ele>
        <time>2024-04-01T09:14:01.379Z</time>
      </trkpt>
      <trkpt lat="51.502877" lon="6.309418">
        <ele>24.694350</ele>
        <time>2024-04-01T09:14:11.904Z</time>
      </trkpt>
      <trkpt lat="51.502952" lon="6.309518">
        <ele>24.724424</ele>
        <time>2024-04-01T09:14:15.660Z</time>
      </trkpt>
      <trkpt lat="51.503224" lon="6.309626">
        <ele>24.809426</ele>
        <time>2024-04-01T09:14:26.499Z</time>
      </trkpt>
      <trkpt lat="51.503290" lon="6.309566">
        <ele>24.827460</ele>
        <time>2024-04-01T09:14:29.348Z</time>
      </trkpt>
      <trkpt lat="51.503359" lon="6.309446">
        <ele>24.851642</ele>
        <time>2024-04-01T09:14:33.244Z</time>
      </trkpt>
      <trkpt lat="51.503469" lon="6.309155">
        <ele>24.902039</ele>
        <time>2024-04-01T09:14:41.367Z</time>
      </trkpt>
      <trkpt lat="51.503741" lon="6.308637">
        <ele>25.002356</ele>
        <time>2024-04-01T09:14:57.363Z</time>
      </trkpt>
      <trkpt lat="51.503965" lon="6.308568">
        <ele>25.056596</ele>
        <time>2024-04-01T09:15:06.205Z</time>
      </trkpt>
      <trkpt lat="51.504078" lon="6.308497">
        <ele>25.085450</ele>
        <time>2024-04-01T09:15:10.751Z</time>
      </trkpt>
      <trkpt lat="51.505024" lon="6.309187">
        <ele>25.289635</ele>
        <time>2024-04-01T09:15:36.011Z</time>
      </trkpt>
      <trkpt lat="51.505199" lon="6.309142">
        <ele>25.313750</ele>
        <time>2024-04-01T09:15:40.382Z</time>
      </trkpt>
      <trkpt lat="51.506026" lon="6.308715">
        <ele>25.431949</ele>
        <time>2024-04-01T09:16:00.973Z</time>
      </trkpt>
      <trkpt lat="51.506095" lon="6.308710">
        <ele>25.441347</ele>
        <time>2024-04-01T09:16:02.617Z</time>
      </trkpt>
      <trkpt lat="51.506272" lon="6.308904">
        <ele>25.470502</ele>
        <time>2024-04-01T09:16:07.629Z</time>
      </trkpt>
      <trkpt lat="51.506731" lon="6.309293">
        <ele>25.397090</ele>
        <time>2024-04-01T09:16:19.787Z</time>
      </trkpt>
      <trkpt lat="51.507504" lon="6.306302">
        <ele>24.988393</ele>
        <time>2024-04-01T09:17:03.208Z</time>
      </trkpt>
      <trkpt lat="51.507517" lon="6.306216">
        <ele>24.973712</ele>
        <time>2024-04-01T09:17:04.364Z</time>
      </trkpt>
      <trkpt lat="51.509865" lon="6.307030">
        <ele>24.383758</ele>
        <time>2024-04-01T09:17:55.856Z</time>
      </trkpt>
      <trkpt lat="51.511245" lon="6.307476">
        <ele>24.218397</ele>
        <time>2024-04-01T09:18:26.966Z</time>
      </trkpt>
      <trkpt lat="51.511927" lon="6.307678">
        <ele>24.173588</ele>
        <time>2024-04-01T09:18:42.339Z</time>
      </trkpt>
      <trkpt lat="51.515274" lon="6.308492">
        <ele>23.902359</ele>
        <time>2024-04-01T09:19:56.453Z</time>
      </trkpt>
      <trkpt lat="51.517000" lon="6.308931">
        <ele>24.129568</ele>
        <time>2024-04-01T09:20:36.548Z</time>
      </trkpt>
      <trkpt lat="51.518665" lon="6.309349">
        <ele>24.460459</ele>
        <time>2024-04-01T09:21:15.953Z</time>
      </trkpt>
      <trkpt lat="51.518736" lon="6.309368">
        <ele>24.475062</ele>
        <time>2024-04-01T09:21:17.527Z</time>
      </trkpt>
      <trkpt lat="51.518832" lon="6.309393">
        <ele>24.494793</ele>
        <time>2024-04-01T09:21:20.157Z</time>
      </trkpt>
      <trkpt lat="51.518963" lon="6.309427">
        <ele>24.521716</ele>
        <time>2024-04-01T09:21:23.020Z</time>
      </trkpt>
      <trkpt lat="51.520247" lon="6.309733">
        <ele>24.705014</ele>
        <time>2024-04-01T09:21:53.491Z</time>
      </trkpt>
      <trkpt lat="51.520528" lon="6.309730">
        <ele>24.741073</ele>
        <time>2024-04-01T09:21:59.710Z</time>
      </trkpt>
      <trkpt lat="51.520685" lon="6.309610">
        <ele>24.763382</ele>
        <time>2024-04-01T09:22:03.514Z</time>
      </trkpt>
      <trkpt lat="51.520762" lon="6.309631">
        <ele>24.773404</ele>
        <time>2024-04-01T09:22:05.313Z</time>
      </trkpt>
      <trkpt lat="51.520837" lon="6.309653">
        <ele>24.783187</ele>
        <time>2024-04-01T09:22:06.976Z</time>
      </trkpt>
      <trkpt lat="51.520877" lon="6.309196">
        <ele>24.794975</ele>
        <time>2024-04-01T09:22:13.339Z</time>
      </trkpt>
      <trkpt lat="51.520915" lon="6.308733">
        <ele>24.789766</ele>
        <time>2024-04-01T09:22:19.785Z</time>
      </trkpt>
      <trkpt lat="51.520987" lon="6.308156">
        <ele>24.783202</ele>
        <time>2024-04-01T09:22:27.974Z</time>
      </trkpt>
      <trkpt lat="51.521072" lon="6.307298">
        <ele>24.773511</ele>
        <time>2024-04-01T09:22:40.065Z</time>
      </trkpt>
      <trkpt lat="51.521060" lon="6.307212">
        <ele>24.772528</ele>
        <time>2024-04-01T09:22:41.295Z</time>
      </trkpt>
      <trkpt lat="51.521068" lon="6.307000">
        <ele>24.770159</ele>
        <time>2024-04-01T09:22:44.211Z</time>
      </trkpt>
      <trkpt lat="51.521133" lon="6.306302">
        <ele>24.758625</ele>
        <time>2024-04-01T09:22:53.874Z</time>
      </trkpt>
      <trkpt lat="51.521166" lon="6.306024">
        <ele>24.752182</ele>
        <time>2024-04-01T09:22:57.695Z</time>
      </trkpt>
      <trkpt lat="51.521220" lon="6.305793">
        <ele>24.746565</ele>
        <time>2024-04-01T09:23:01.014Z</time>
      </trkpt>
      <trkpt lat="51.521251" lon="6.305468">
        <ele>24.739080</ele>
        <time>2024-04-01T09:23:05.547Z</time>
      </trkpt>
      <trkpt lat="51.521254" lon="6.305104">
        <ele>24.730793</ele>
        <time>2024-04-01T09:23:10.527Z</time>
      </trkpt>
      <trkpt lat="51.521450" lon="6.303336">
        <ele>24.696296</ele>
        <time>2024-04-01T09:23:35.473Z</time>
      </trkpt>
      <trkpt lat="51.521458" lon="6.303278">
        <ele>24.695800</ele>
        <time>2024-04-01T09:23:36.427Z</time>
      </trkpt>
      <trkpt lat="51.521478" lon="6.303051">
        <ele>24.693884</ele>
        <time>2024-04-01T09:23:39.543Z</time>
      </trkpt>
      <trkpt lat="51.521499" lon="6.302854">
        <ele>24.692214</ele>
        <time>2024-04-01T09:23:42.275Z</time>
      </trkpt>
      <trkpt lat="51.521503" lon="6.302871">
        <ele>24.692062</ele>
        <time>2024-04-01T09:23:42.606Z</time>
      </trkpt>
      <trkpt lat="51.521516" lon="6.302926">
        <ele>24.691571</ele>
        <time>2024-04-01T09:23:43.678Z</time>
      </trkpt>
      <trkpt lat="51.521722" lon="6.303017">
        <ele>24.688702</ele>
        <time>2024-04-01T09:23:49.925Z</time>
      </trkpt>
      <trkpt lat="51.521925" lon="6.303043">
        <ele>24.685967</ele>
        <time>2024-04-01T09:23:55.999Z</time>
      </trkpt>
      <trkpt lat="51.522231" lon="6.303092">
        <ele>24.681837</ele>
        <time>2024-04-01T09:24:04.876Z</time>
      </trkpt>
      <trkpt lat="51.522708" lon="6.302902">
        <ele>24.670248</ele>
        <time>2024-04-01T09:24:16.086Z</time>
      </trkpt>
      <trkpt lat="51.523506" lon="6.302484">
        <ele>24.566345</ele>
        <time>2024-04-01T09:24:34.511Z</time>
      </trkpt>
      <trkpt lat="51.524021" lon="6.302067">
        <ele>24.494957</ele>
        <time>2024-04-01T09:24:47.093Z</time>
      </trkpt>
      <trkpt lat="51.524410" lon="6.301740">
        <ele>24.429314</ele>
        <time>2024-04-01T09:24:56.435Z</time>
      </trkpt>
      <trkpt lat="51.524907" lon="6.301404">
        <ele>24.302577</ele>
        <time>2024-04-01T09:25:08.129Z</time>
      </trkpt>
      <trkpt lat="51.525309" lon="6.301164">
        <ele>24.201776</ele>
        <time>2024-04-01T09:25:17.469Z</time>
      </trkpt>
      <trkpt lat="51.525733" lon="6.300873">
        <ele>24.093406</ele>
        <time>2024-04-01T09:25:27.297Z</time>
      </trkpt>
      <trkpt lat="51.526345" lon="6.300529">
        <ele>24.036997</ele>
        <time>2024-04-01T09:25:41.226Z</time>
      </trkpt>
      <trkpt lat="51.526667" lon="6.300395">
        <ele>24.042769</ele>
        <time>2024-04-01T09:25:48.593Z</time>
      </trkpt>
      <trkpt lat="51.526992" lon="6.300379">
        <ele>24.048412</ele>
        <time>2024-04-01T09:25:55.808Z</time>
      </trkpt>
      <trkpt lat="51.527378" lon="6.300444">
        <ele>24.055146</ele>
        <time>2024-04-01T09:26:04.775Z</time>
      </trkpt>
      <trkpt lat="51.527469" lon="6.300459">
        <ele>24.056734</ele>
        <time>2024-04-01T09:26:06.928Z</time>
      </trkpt>
      <trkpt lat="51.527611" lon="6.300477">
        <ele>24.059206</ele>
        <time>2024-04-01T09:26:10.297Z</time>
      </trkpt>
      <trkpt lat="51.527698" lon="6.300449">
        <ele>24.060745</ele>
        <time>2024-04-01T09:26:12.402Z</time>
      </trkpt>
      <trkpt lat="51.527782" lon="6.300376">
        <ele>24.060645</ele>
        <time>2024-04-01T09:26:14.639Z</time>
      </trkpt>
      <trkpt lat="51.527827" lon="6.300293">
        <ele>24.059196</ele>
        <time>2024-04-01T09:26:16.241Z</time>
      </trkpt>
      <trkpt lat="51.527933" lon="6.300340">
        <ele>24.056872</ele>
        <time>2024-04-01T09:26:18.846Z</time>
      </trkpt>
      <trkpt lat="51.528195" lon="6.300359">
        <ele>24.051327</ele>
        <time>2024-04-01T09:26:24.841Z</time>
      </trkpt>
      <trkpt lat="51.528481" lon="6.300613">
        <ele>24.044418</ele>
        <time>2024-04-01T09:26:32.284Z</time>
      </trkpt>
      <trkpt lat="51.529244" lon="6.301099">
        <ele>24.027066</ele>
        <time>2024-04-01T09:26:50.320Z</time>
      </trkpt>
      <trkpt lat="51.529522" lon="6.301152">
        <ele>23.975997</ele>
        <time>2024-04-01T09:26:56.348Z</time>
      </trkpt>
      <trkpt lat="51.529774" lon="6.301114">
        <ele>23.871413</ele>
        <time>2024-04-01T09:27:01.759Z</time>
      </trkpt>
      <trkpt lat="51.530638" lon="6.300681">
        <ele>23.497457</ele>
        <time>2024-04-01T09:27:20.764Z</time>
      </trkpt>
      <trkpt lat="51.531449" lon="6.300297">
        <ele>23.237392</ele>
        <time>2024-04-01T09:27:38.491Z</time>
      </trkpt>
      <trkpt lat="51.531895" lon="6.299930">
        <ele>23.170108</ele>
        <time>2024-04-01T09:27:49.257Z</time>
      </trkpt>
      <trkpt lat="51.531925" lon="6.299902">
        <ele>23.165450</ele>
        <time>2024-04-01T09:27:49.979Z</time>
      </trkpt>
      <trkpt lat="51.532894" lon="6.298954">
        <ele>23.056420</ele>
        <time>2024-04-01T09:28:15.522Z</time>
      </trkpt>
      <trkpt lat="51.533074" lon="6.298907">
        <ele>23.073160</ele>
        <time>2024-04-01T09:28:19.867Z</time>
      </trkpt>
      <trkpt lat="51.533207" lon="6.298936">
        <ele>23.085480</ele>
        <time>2024-04-01T09:28:22.775Z</time>
      </trkpt>
      <trkpt lat="51.534133" lon="6.299129">
        <ele>23.171196</ele>
        <time>2024-04-01T09:28:44.307Z</time>
      </trkpt>
      <trkpt lat="51.534722" lon="6.299251">
        <ele>23.196168</ele>
        <time>2024-04-01T09:28:57.511Z</time>
      </trkpt>
      <trkpt lat="51.534757" lon="6.299284">
        <ele>23.194836</ele>
        <time>2024-04-01T09:28:58.441Z</time>
      </trkpt>
      <trkpt lat="51.535288" lon="6.300341">
        <ele>23.167097</ele>
        <time>2024-04-01T09:29:17.390Z</time>
      </trkpt>
      <trkpt lat="51.535444" lon="6.300790">
        <ele>23.156597</ele>
        <time>2024-04-01T09:29:24.369Z</time>
      </trkpt>
      <trkpt lat="51.535501" lon="6.300870">
        <ele>23.154113</ele>
        <time>2024-04-01T09:29:26.014Z</time>
      </trkpt>
      <trkpt lat="51.535565" lon="6.300882">
        <ele>23.151998</ele>
        <time>2024-04-01T09:29:27.430Z</time>
      </trkpt>
      <trkpt lat="51.539248" lon="6.300323">
        <ele>22.404964</ele>
        <time>2024-04-01T09:30:47.463Z</time>
      </trkpt>
      <trkpt lat="51.540762" lon="6.300154">
        <ele>22.195464</ele>
        <time>2024-04-01T09:31:20.321Z</time>
      </trkpt>
      <trkpt lat="51.541483" lon="6.299989">
        <ele>22.222204</ele>
        <time>2024-04-01T09:31:36.749Z</time>
      </trkpt>
      <trkpt lat="51.541413" lon="6.299506">
        <ele>22.295108</ele>
        <time>2024-04-01T09:31:44.027Z</time>
      </trkpt>
      <trkpt lat="51.541380" lon="6.299054">
        <ele>22.362010</ele>
        <time>2024-04-01T09:31:50.836Z</time>
      </trkpt>
      <trkpt lat="51.541366" lon="6.298315">
        <ele>22.470695</ele>
        <time>2024-04-01T09:32:02.157Z</time>
      </trkpt>
      <trkpt lat="51.541396" lon="6.297873">
        <ele>22.536056</ele>
        <time>2024-04-01T09:32:08.668Z</time>
      </trkpt>
      <trkpt lat="51.541498" lon="6.297586">
        <ele>22.573879</ele>
        <time>2024-04-01T09:32:13.351Z</time>
      </trkpt>
      <trkpt lat="51.541590" lon="6.297358">
        <ele>22.587188</ele>
        <time>2024-04-01T09:32:17.101Z</time>
      </trkpt>
      <trkpt lat="51.541648" lon="6.297076">
        <ele>22.601732</ele>
        <time>2024-04-01T09:32:21.308Z</time>
      </trkpt>
      <trkpt lat="51.541753" lon="6.295871">
        <ele>22.661314</ele>
        <time>2024-04-01T09:32:38.282Z</time>
      </trkpt>
      <trkpt lat="51.541772" lon="6.295677">
        <ele>22.670931</ele>
        <time>2024-04-01T09:32:40.935Z</time>
      </trkpt>
      <trkpt lat="51.541838" lon="6.295275">
        <ele>22.691290</ele>
        <time>2024-04-01T09:32:46.729Z</time>
      </trkpt>
      <trkpt lat="51.541983" lon="6.295115">
        <ele>22.705136</ele>
        <time>2024-04-01T09:32:50.596Z</time>
      </trkpt>
      <trkpt lat="51.542125" lon="6.295009">
        <ele>22.717920</ele>
        <time>2024-04-01T09:32:54.147Z</time>
      </trkpt>
      <trkpt lat="51.543771" lon="6.293896">
        <ele>22.874038</ele>
        <time>2024-04-01T09:33:34.627Z</time>
      </trkpt>
      <trkpt lat="51.543815" lon="6.293865">
        <ele>22.882102</ele>
        <time>2024-04-01T09:33:35.953Z</time>
      </trkpt>
      <trkpt lat="51.544793" lon="6.293225">
        <ele>23.059349</ele>
        <time>2024-04-01T09:34:00.453Z</time>
      </trkpt>
      <trkpt lat="51.545217" lon="6.292980">
        <ele>23.134979</ele>
        <time>2024-04-01T09:34:11.019Z</time>
      </trkpt>
      <trkpt lat="51.545951" lon="6.292849">
        <ele>23.108082</ele>
        <time>2024-04-01T09:34:27.412Z</time>
      </trkpt>
      <trkpt lat="51.546121" lon="6.292780">
        <ele>23.091485</ele>
        <time>2024-04-01T09:34:31.293Z</time>
      </trkpt>
      <trkpt lat="51.546220" lon="6.292662">
        <ele>23.079820</ele>
        <time>2024-04-01T09:34:33.953Z</time>
      </trkpt>
      <trkpt lat="51.546346" lon="6.292415">
        <ele>23.061013</ele>
        <time>2024-04-01T09:34:38.315Z</time>
      </trkpt>
      <trkpt lat="51.546369" lon="6.292327">
        <ele>23.055394</ele>
        <time>2024-04-01T09:34:39.601Z</time>
      </trkpt>
      <trkpt lat="51.546534" lon="6.292039">
        <ele>23.032342</ele>
        <time>2024-04-01T09:34:44.881Z</time>
      </trkpt>
      <trkpt lat="51.546857" lon="6.291760">
        <ele>22.997634</ele>
        <time>2024-04-01T09:34:52.841Z</time>
      </trkpt>
      <trkpt lat="51.547447" lon="6.291325">
        <ele>22.840176</ele>
        <time>2024-04-01T09:35:06.974Z</time>
      </trkpt>
      <trkpt lat="51.547976" lon="6.290997">
        <ele>22.694528</ele>
        <time>2024-04-01T09:35:19.006Z</time>
      </trkpt>
      <trkpt lat="51.548355" lon="6.290799">
        <ele>22.592157</ele>
        <time>2024-04-01T09:35:27.471Z</time>
      </trkpt>
      <trkpt lat="51.548462" lon="6.290815">
        <ele>22.564551</ele>
        <time>2024-04-01T09:35:29.759Z</time>
      </trkpt>
      <trkpt lat="51.549380" lon="6.291733">
        <ele>22.393281</ele>
        <time>2024-04-01T09:35:53.412Z</time>
      </trkpt>
      <trkpt lat="51.549430" lon="6.291752">
        <ele>22.385857</ele>
        <time>2024-04-01T09:35:54.534Z</time>
      </trkpt>
      <trkpt lat="51.549670" lon="6.291652">
        <ele>22.350027</ele>
        <time>2024-04-01T09:36:00.027Z</time>
      </trkpt>
      <trkpt lat="51.549789" lon="6.291561">
        <ele>22.330984</ele>
        <time>2024-04-01T09:36:02.871Z</time>
      </trkpt>
      <trkpt lat="51.550036" lon="6.291175">
        <ele>22.281209</ele>
        <time>2024-04-01T09:36:10.410Z</time>
      </trkpt>
      <trkpt lat="51.550273" lon="6.290633">
        <ele>22.200510</ele>
        <time>2024-04-01T09:36:19.420Z</time>
      </trkpt>
      <trkpt lat="51.550430" lon="6.290491">
        <ele>22.163138</ele>
        <time>2024-04-01T09:36:23.369Z</time>
      </trkpt>
      <trkpt lat="51.551969" lon="6.289633">
        <ele>21.860017</ele>
        <time>2024-04-01T09:36:58.563Z</time>
      </trkpt>
      <trkpt lat="51.552863" lon="6.289083">
        <ele>21.757679</ele>
        <time>2024-04-01T09:37:19.351Z</time>
      </trkpt>
      <trkpt lat="51.552876" lon="6.289075">
        <ele>21.756191</ele>
        <time>2024-04-01T09:37:19.662Z</time>
      </trkpt>
      <trkpt lat="51.552994" lon="6.288967">
        <ele>21.741675</ele>
        <time>2024-04-01T09:37:22.670Z</time>
      </trkpt>
      <trkpt lat="51.553993" lon="6.287657">
        <ele>21.696176</ele>
        <time>2024-04-01T09:37:51.507Z</time>
      </trkpt>
      <trkpt lat="51.554799" lon="6.286998">
        <ele>21.682545</ele>
        <time>2024-04-01T09:38:11.581Z</time>
      </trkpt>
      <trkpt lat="51.555167" lon="6.286522">
        <ele>21.626115</ele>
        <time>2024-04-01T09:38:21.974Z</time>
      </trkpt>
      <trkpt lat="51.555374" lon="6.286090">
        <ele>21.585594</ele>
        <time>2024-04-01T09:38:29.364Z</time>
      </trkpt>
      <trkpt lat="51.555479" lon="6.285776">
        <ele>21.559105</ele>
        <time>2024-04-01T09:38:34.165Z</time>
      </trkpt>
      <trkpt lat="51.555559" lon="6.285241">
        <ele>21.518224</ele>
        <time>2024-04-01T09:38:41.578Z</time>
      </trkpt>
      <trkpt lat="51.555563" lon="6.285102">
        <ele>21.507886</ele>
        <time>2024-04-01T09:38:43.458Z</time>
      </trkpt>
      <trkpt lat="51.555826" lon="6.284048">
        <ele>21.473988</ele>
        <time>2024-04-01T09:38:58.858Z</time>
      </trkpt>
      <trkpt lat="51.555991" lon="6.283493">
        <ele>21.474446</ele>
        <time>2024-04-01T09:39:07.336Z</time>
      </trkpt>
      <trkpt lat="51.556722" lon="6.281512">
        <ele>21.523983</ele>
        <time>2024-04-01T09:39:39.874Z</time>
      </trkpt>
      <trkpt lat="51.556071" lon="6.279925">
        <ele>21.655537</ele>
        <time>2024-04-01T09:40:24.802Z</time>
      </trkpt>
      <trkpt lat="51.555950" lon="6.279680">
        <ele>21.675504</ele>
        <time>2024-04-01T09:40:31.999Z</time>
      </trkpt>
      <trkpt lat="51.555808" lon="6.279370">
        <ele>21.669590</ele>
        <time>2024-04-01T09:40:40.958Z</time>
      </trkpt>
      <trkpt lat="51.555695" lon="6.279010">
        <ele>21.663396</ele>
        <time>2024-04-01T09:40:50.241Z</time>
      </trkpt>
      <trkpt lat="51.555423" lon="6.277624">
        <ele>21.641071</ele>
        <time>2024-04-01T09:41:23.586Z</time>
      </trkpt>
      <trkpt lat="51.555384" lon="6.277450">
        <ele>21.638230</ele>
        <time>2024-04-01T09:41:27.698Z</time>
      </trkpt>
      <trkpt lat="51.555391" lon="6.277188">
        <ele>21.634202</ele>
        <time>2024-04-01T09:41:33.784Z</time>
      </trkpt>
      <trkpt lat="51.555519" lon="6.276560">
        <ele>21.632659</ele>
        <time>2024-04-01T09:41:48.930Z</time>
      </trkpt>
      <trkpt lat="51.555664" lon="6.276337">
        <ele>21.633528</ele>
        <time>2024-04-01T09:41:56.246Z</time>
      </trkpt>
      <trkpt lat="51.556870" lon="6.275838">
        <ele>21.638919</ele>
        <time>2024-04-01T09:42:42.433Z</time>
      </trkpt>
      <trkpt lat="51.556569" lon="6.273810">
        <ele>21.768340</ele>
        <time>2024-04-01T09:43:31.724Z</time>
      </trkpt>
      <trkpt lat="51.556452" lon="6.272622">
        <ele>21.803446</ele>
        <time>2024-04-01T09:43:59.690Z</time>
      </trkpt>
      <trkpt lat="51.556413" lon="6.272005">
        <ele>21.756417</ele>
        <time>2024-04-01T09:44:13.894Z</time>
      </trkpt>
      <trkpt lat="51.556369" lon="6.271303">
        <ele>21.702915</ele>
        <time>2024-04-01T09:44:29.940Z</time>
      </trkpt>
      <trkpt lat="51.557897" lon="6.270369">
        <ele>21.520971</ele>
        <time>2024-04-01T09:45:05.144Z</time>
      </trkpt>
      <trkpt lat="51.559123" lon="6.269396">
        <ele>21.536435</ele>
        <time>2024-04-01T09:45:35.925Z</time>
      </trkpt>
      <trkpt lat="51.560293" lon="6.268466">
        <ele>21.885385</ele>
        <time>2024-04-01T09:46:07.476Z</time>
      </trkpt>
      <trkpt lat="51.561924" lon="6.267714">
        <ele>22.262522</ele>
        <time>2024-04-01T09:46:47.589Z</time>
      </trkpt>
      <trkpt lat="51.562238" lon="6.269506">
        <ele>22.218161</ele>
        <time>2024-04-01T09:47:12.820Z</time>
      </trkpt>
      <trkpt lat="51.562289" lon="6.269934">
        <ele>22.195087</ele>
        <time>2024-04-01T09:47:18.713Z</time>
      </trkpt>
      <trkpt lat="51.562298" lon="6.270301">
        <ele>22.175640</ele>
        <time>2024-04-01T09:47:23.695Z</time>
      </trkpt>
      <trkpt lat="51.562188" lon="6.271205">
        <ele>22.110434</ele>
        <time>2024-04-01T09:47:36.325Z</time>
      </trkpt>
      <trkpt lat="51.562166" lon="6.271666">
        <ele>22.067293</ele>
        <time>2024-04-01T09:47:42.695Z</time>
      </trkpt>
      <trkpt lat="51.562190" lon="6.272199">
        <ele>22.017430</ele>
        <time>2024-04-01T09:47:49.996Z</time>
      </trkpt>
      <trkpt lat="51.562269" lon="6.272984">
        <ele>21.943230</ele>
        <time>2024-04-01T09:48:00.665Z</time>
      </trkpt>
      <trkpt lat="51.562380" lon="6.273681">
        <ele>21.872674</ele>
        <time>2024-04-01T09:48:10.348Z</time>
      </trkpt>
      <trkpt lat="51.562486" lon="6.274122">
        <ele>21.764796</ele>
        <time>2024-04-01T09:48:16.746Z</time>
      </trkpt>
      <trkpt lat="51.562765" lon="6.275007">
        <ele>21.538394</ele>
        <time>2024-04-01T09:48:29.922Z</time>
      </trkpt>
      <trkpt lat="51.563330" lon="6.276808">
        <ele>21.219677</ele>
        <time>2024-04-01T09:48:56.185Z</time>
      </trkpt>
      <trkpt lat="51.563615" lon="6.277785">
        <ele>21.222049</ele>
        <time>2024-04-01T09:49:11.863Z</time>
      </trkpt>
      <trkpt lat="51.564082" lon="6.279097">
        <ele>21.270489</ele>
        <time>2024-04-01T09:49:34.642Z</time>
      </trkpt>
      <trkpt lat="51.564280" lon="6.279432">
        <ele>21.338302</ele>
        <time>2024-04-01T09:49:41.723Z</time>
      </trkpt>
      <trkpt lat="51.564543" lon="6.279725">
        <ele>21.413799</ele>
        <time>2024-04-01T09:49:49.721Z</time>
      </trkpt>
      <trkpt lat="51.564678" lon="6.279780">
        <ele>21.446664</ele>
        <time>2024-04-01T09:49:53.210Z</time>
      </trkpt>
      <trkpt lat="51.564675" lon="6.280228">
        <ele>21.512390</ele>
        <time>2024-04-01T09:50:00.573Z</time>
      </trkpt>
      <trkpt lat="51.564900" lon="6.281001">
        <ele>21.637605</ele>
        <time>2024-04-01T09:50:14.210Z</time>
      </trkpt>
      <trkpt lat="51.564890" lon="6.281087">
        <ele>21.648220</ele>
        <time>2024-04-01T09:50:15.585Z</time>
      </trkpt>
      <trkpt lat="51.564830" lon="6.281154">
        <ele>21.635732</ele>
        <time>2024-04-01T09:50:17.428Z</time>
      </trkpt>
      <trkpt lat="51.564306" lon="6.281457">
        <ele>21.540527</ele>
        <time>2024-04-01T09:50:31.035Z</time>
      </trkpt>
      <trkpt lat="51.564253" lon="6.281546">
        <ele>21.527427</ele>
        <time>2024-04-01T09:50:32.882Z</time>
      </trkpt>
      <trkpt lat="51.564243" lon="6.281704">
        <ele>21.510547</ele>
        <time>2024-04-01T09:50:35.257Z</time>
      </trkpt>
      <trkpt lat="51.564591" lon="6.283961">
        <ele>21.364177</ele>
        <time>2024-04-01T09:51:09.884Z</time>
      </trkpt>
      <trkpt lat="51.564626" lon="6.284000">
        <ele>21.366276</ele>
        <time>2024-04-01T09:51:10.905Z</time>
      </trkpt>
      <trkpt lat="51.564729" lon="6.284443">
        <ele>21.380768</ele>
        <time>2024-04-01T09:51:18.057Z</time>
      </trkpt>
      <trkpt lat="51.564931" lon="6.285042">
        <ele>21.401649</ele>
        <time>2024-04-01T09:51:28.578Z</time>
      </trkpt>
      <trkpt lat="51.565413" lon="6.286175">
        <ele>21.538385</ele>
        <time>2024-04-01T09:51:51.088Z</time>
      </trkpt>
      <trkpt lat="51.565826" lon="6.287278">
        <ele>21.855841</ele>
        <time>2024-04-01T09:52:12.752Z</time>
      </trkpt>
      <trkpt lat="51.566031" lon="6.287889">
        <ele>22.027017</ele>
        <time>2024-04-01T09:52:23.346Z</time>
      </trkpt>
      <trkpt lat="51.566930" lon="6.290281">
        <ele>22.364145</ele>
        <time>2024-04-01T09:53:04.213Z</time>
      </trkpt>
      <trkpt lat="51.566973" lon="6.290401">
        <ele>22.377297</ele>
        <time>2024-04-01T09:53:06.093Z</time>
      </trkpt>
      <trkpt lat="51.567515" lon="6.290010">
        <ele>22.366376</ele>
        <time>2024-04-01T09:53:19.070Z</time>
      </trkpt>
      <trkpt lat="51.567532" lon="6.290082">
        <ele>22.358712</ele>
        <time>2024-04-01T09:53:20.451Z</time>
      </trkpt>
      <trkpt lat="51.567773" lon="6.290864">
        <ele>22.271849</ele>
        <time>2024-04-01T09:53:32.270Z</time>
      </trkpt>
      <trkpt lat="51.568013" lon="6.291685">
        <ele>22.181561</ele>
        <time>2024-04-01T09:53:44.540Z</time>
      </trkpt>
      <trkpt lat="51.568121" lon="6.292033">
        <ele>22.142853</ele>
        <time>2024-04-01T09:53:49.736Z</time>
      </trkpt>
      <trkpt lat="51.568155" lon="6.292160">
        <ele>22.128904</ele>
        <time>2024-04-01T09:53:51.565Z</time>
      </trkpt>
      <trkpt lat="51.568423" lon="6.293113">
        <ele>22.010234</ele>
        <time>2024-04-01T09:54:05.578Z</time>
      </trkpt>
      <trkpt lat="51.568473" lon="6.293133">
        <ele>22.000831</ele>
        <time>2024-04-01T09:54:07.057Z</time>
      </trkpt>
      <trkpt lat="51.568610" lon="6.293669">
        <ele>21.935081</ele>
        <time>2024-04-01T09:54:15.035Z</time>
      </trkpt>
      <trkpt lat="51.568730" lon="6.294138">
        <ele>21.877541</ele>
        <time>2024-04-01T09:54:21.899Z</time>
      </trkpt>
      <trkpt lat="51.568748" lon="6.294211">
        <ele>21.868631</ele>
        <time>2024-04-01T09:54:22.948Z</time>
      </trkpt>
      <trkpt lat="51.569425" lon="6.293963">
        <ele>21.827160</ele>
        <time>2024-04-01T09:54:38.007Z</time>
      </trkpt>
      <trkpt lat="51.569435" lon="6.293959">
        <ele>21.827940</ele>
        <time>2024-04-01T09:54:38.219Z</time>
      </trkpt>
      <trkpt lat="51.569427" lon="6.294614">
        <ele>21.858803</ele>
        <time>2024-04-01T09:54:47.221Z</time>
      </trkpt>
      <trkpt lat="51.569424" lon="6.295189">
        <ele>21.885891</ele>
        <time>2024-04-01T09:54:55.328Z</time>
      </trkpt>
      <trkpt lat="51.569417" lon="6.295500">
        <ele>21.900552</ele>
        <time>2024-04-01T09:54:59.889Z</time>
      </trkpt>
      <trkpt lat="51.569409" lon="6.295985">
        <ele>21.923407</ele>
        <time>2024-04-01T09:55:07.076Z</time>
      </trkpt>
      <trkpt lat="51.569477" lon="6.296254">
        <ele>21.937088</ele>
        <time>2024-04-01T09:55:11.384Z</time>
      </trkpt>
      <trkpt lat="51.569499" lon="6.296346">
        <ele>21.938536</ele>
        <time>2024-04-01T09:55:12.790Z</time>
      </trkpt>
      <trkpt lat="51.569939" lon="6.298229">
        <ele>21.940603</ele>
        <time>2024-04-01T09:55:41.027Z</time>
      </trkpt>
      <trkpt lat="51.569894" lon="6.298497">
        <ele>21.940889</ele>
        <time>2024-04-01T09:55:44.918Z</time>
      </trkpt>
      <trkpt lat="51.569777" lon="6.298709">
        <ele>21.941180</ele>
        <time>2024-04-01T09:55:49.213Z</time>
      </trkpt>
      <trkpt lat="51.569465" lon="6.299035">
        <ele>21.883235</ele>
        <time>2024-04-01T09:55:58.081Z</time>
      </trkpt>
      <trkpt lat="51.568660" lon="6.299694">
        <ele>21.639431</ele>
        <time>2024-04-01T09:56:19.484Z</time>
      </trkpt>
      <trkpt lat="51.568609" lon="6.299703">
        <ele>21.625582</ele>
        <time>2024-04-01T09:56:20.746Z</time>
      </trkpt>
      <trkpt lat="51.568553" lon="6.299646">
        <ele>21.607695</ele>
        <time>2024-04-01T09:56:22.318Z</time>
      </trkpt>
      <trkpt lat="51.568437" lon="6.299444">
        <ele>21.561553</ele>
        <time>2024-04-01T09:56:26.285Z</time>
      </trkpt>
      <trkpt lat="51.568362" lon="6.299454">
        <ele>21.541239</ele>
        <time>2024-04-01T09:56:28.078Z</time>
      </trkpt>
      <trkpt lat="51.568321" lon="6.301271">
        <ele>21.446187</ele>
        <time>2024-04-01T09:56:52.713Z</time>
      </trkpt>
      <trkpt lat="51.568071" lon="6.303397">
        <ele>21.438227</ele>
        <time>2024-04-01T09:57:23.606Z</time>
      </trkpt>
      <trkpt lat="51.568078" lon="6.303562">
        <ele>21.439319</ele>
        <time>2024-04-01T09:57:25.920Z</time>
      </trkpt>
      <trkpt lat="51.568267" lon="6.304085">
        <ele>21.443315</ele>
        <time>2024-04-01T09:57:34.310Z</time>
      </trkpt>
      <trkpt lat="51.568673" lon="6.305439">
        <ele>21.453244</ele>
        <time>2024-04-01T09:57:54.994Z</time>
      </trkpt>
      <trkpt lat="51.568811" lon="6.306360">
        <ele>21.329091</ele>
        <time>2024-04-01T09:58:07.826Z</time>
      </trkpt>
      <trkpt lat="51.568925" lon="6.306753">
        <ele>21.269615</ele>
        <time>2024-04-01T09:58:13.662Z</time>
      </trkpt>
      <trkpt lat="51.569187" lon="6.307196">
        <ele>21.185754</ele>
        <time>2024-04-01T09:58:21.846Z</time>
      </trkpt>
      <trkpt lat="51.569227" lon="6.307369">
        <ele>21.160440</ele>
        <time>2024-04-01T09:58:24.305Z</time>
      </trkpt>
      <trkpt lat="51.569554" lon="6.310671">
        <ele>20.730834</ele>
        <time>2024-04-01T09:59:08.897Z</time>
      </trkpt>
      <trkpt lat="51.570476" lon="6.314489">
        <ele>21.097876</ele>
        <time>2024-04-01T10:00:07.471Z</time>
      </trkpt>
      <trkpt lat="51.571167" lon="6.317133">
        <ele>21.770667</ele>
        <time>2024-04-01T10:00:50.710Z</time>
      </trkpt>
      <trkpt lat="51.569470" lon="6.318536">
        <ele>22.508470</ele>
        <time>2024-04-01T10:01:38.504Z</time>
      </trkpt>
      <trkpt lat="51.569899" lon="6.320177">
        <ele>22.669745</ele>
        <time>2024-04-01T10:02:02.968Z</time>
      </trkpt>
      <trkpt lat="51.569918" lon="6.320378">
        <ele>22.654090</ele>
        <time>2024-04-01T10:02:05.621Z</time>
      </trkpt>
      <trkpt lat="51.569884" lon="6.320472">
        <ele>22.636599</ele>
        <time>2024-04-01T10:02:07.119Z</time>
      </trkpt>
      <trkpt lat="51.569530" lon="6.320884">
        <ele>22.523550</ele>
        <time>2024-04-01T10:02:16.534Z</time>
      </trkpt>
      <trkpt lat="51.569506" lon="6.320977">
        <ele>22.507355</ele>
        <time>2024-04-01T10:02:17.928Z</time>
      </trkpt>
      <trkpt lat="51.569533" lon="6.321118">
        <ele>22.483627</ele>
        <time>2024-04-01T10:02:19.831Z</time>
      </trkpt>
      <trkpt lat="51.569742" lon="6.321576">
        <ele>22.392249</ele>
        <time>2024-04-01T10:02:27.399Z</time>
      </trkpt>
      <trkpt lat="51.568625" lon="6.323118">
        <ele>22.120452</ele>
        <time>2024-04-01T10:02:59.073Z</time>
      </trkpt>
      <trkpt lat="51.568339" lon="6.323455">
        <ele>22.078964</ele>
        <time>2024-04-01T10:03:06.787Z</time>
      </trkpt>
      <trkpt lat="51.567459" lon="6.323961">
        <ele>22.005969</ele>
        <time>2024-04-01T10:03:27.575Z</time>
      </trkpt>
      <trkpt lat="51.566962" lon="6.324322">
        <ele>22.018499</ele>
        <time>2024-04-01T10:03:39.966Z</time>
      </trkpt>
      <trkpt lat="51.566635" lon="6.324510">
        <ele>22.026478</ele>
        <time>2024-04-01T10:03:47.622Z</time>
      </trkpt>
      <trkpt lat="51.566032" lon="6.324756">
        <ele>22.040772</ele>
        <time>2024-04-01T10:04:01.535Z</time>
      </trkpt>
      <trkpt lat="51.566153" lon="6.325302">
        <ele>22.071265</ele>
        <time>2024-04-01T10:04:09.864Z</time>
      </trkpt>
      <trkpt lat="51.566242" lon="6.326649">
        <ele>22.146258</ele>
        <time>2024-04-01T10:04:28.532Z</time>
      </trkpt>
      <trkpt lat="51.566219" lon="6.327027">
        <ele>22.167286</ele>
        <time>2024-04-01T10:04:33.887Z</time>
      </trkpt>
      <trkpt lat="51.566082" lon="6.327630">
        <ele>22.208239</ele>
        <time>2024-04-01T10:04:42.892Z</time>
      </trkpt>
      <trkpt lat="51.565836" lon="6.328603">
        <ele>22.506998</ele>
        <time>2024-04-01T10:04:58.663Z</time>
      </trkpt>
      <trkpt lat="51.565462" lon="6.330505">
        <ele>23.057939</ele>
        <time>2024-04-01T10:05:29.741Z</time>
      </trkpt>
      <trkpt lat="51.565400" lon="6.330817">
        <ele>23.120373</ele>
        <time>2024-04-01T10:05:34.856Z</time>
      </trkpt>
      <trkpt lat="51.565279" lon="6.331166">
        <ele>23.196541</ele>
        <time>2024-04-01T10:05:41.183Z</time>
      </trkpt>
      <trkpt lat="51.564967" lon="6.331743">
        <ele>23.342306</ele>
        <time>2024-04-01T10:05:52.955Z</time>
      </trkpt>
      <trkpt lat="51.564292" lon="6.332860">
        <ele>23.531552</ele>
        <time>2024-04-01T10:06:14.792Z</time>
      </trkpt>
      <trkpt lat="51.563911" lon="6.333704">
        <ele>23.391732</ele>
        <time>2024-04-01T10:06:28.807Z</time>
      </trkpt>
      <trkpt lat="51.563701" lon="6.334085">
        <ele>23.323476</ele>
        <time>2024-04-01T10:06:35.608Z</time>
      </trkpt>
      <trkpt lat="51.562815" lon="6.335338">
        <ele>23.059265</ele>
        <time>2024-04-01T10:07:00.785Z</time>
      </trkpt>
      <trkpt lat="51.562537" lon="6.335643">
        <ele>22.980717</ele>
        <time>2024-04-01T10:07:07.960Z</time>
      </trkpt>
      <trkpt lat="51.562116" lon="6.335874">
        <ele>22.876885</ele>
        <time>2024-04-01T10:07:17.484Z</time>
      </trkpt>
      <trkpt lat="51.561853" lon="6.336132">
        <ele>22.804979</ele>
        <time>2024-04-01T10:07:24.175Z</time>
      </trkpt>
      <trkpt lat="51.561670" lon="6.336395">
        <ele>22.765826</ele>
        <time>2024-04-01T10:07:29.596Z</time>
      </trkpt>
      <trkpt lat="51.561148" lon="6.337294">
        <ele>22.744275</ele>
        <time>2024-04-01T10:07:46.984Z</time>
      </trkpt>
      <trkpt lat="51.561064" lon="6.337573">
        <ele>22.738845</ele>
        <time>2024-04-01T10:07:51.224Z</time>
      </trkpt>
      <trkpt lat="51.560962" lon="6.338412">
        <ele>22.723867</ele>
        <time>2024-04-01T10:08:03.076Z</time>
      </trkpt>
      <trkpt lat="51.560901" lon="6.338595">
        <ele>22.720230</ele>
        <time>2024-04-01T10:08:05.854Z</time>
      </trkpt>
      <trkpt lat="51.560458" lon="6.339254">
        <ele>22.601631</ele>
        <time>2024-04-01T10:08:19.114Z</time>
      </trkpt>
      <trkpt lat="51.560386" lon="6.339332">
        <ele>22.581930</ele>
        <time>2024-04-01T10:08:20.925Z</time>
      </trkpt>
      <trkpt lat="51.560034" lon="6.338624">
        <ele>22.454020</ele>
        <time>2024-04-01T10:08:33.014Z</time>
      </trkpt>
      <trkpt lat="51.559548" lon="6.337836">
        <ele>22.310367</ele>
        <time>2024-04-01T10:08:47.742Z</time>
      </trkpt>
      <trkpt lat="51.559110" lon="6.337209">
        <ele>22.320812</ele>
        <time>2024-04-01T10:09:00.338Z</time>
      </trkpt>
      <trkpt lat="51.558945" lon="6.337476">
        <ele>22.324981</ele>
        <time>2024-04-01T10:09:05.603Z</time>
      </trkpt>
      <trkpt lat="51.558296" lon="6.337931">
        <ele>22.337593</ele>
        <time>2024-04-01T10:09:21.905Z</time>
      </trkpt>
      <trkpt lat="51.557552" lon="6.338390">
        <ele>22.413416</ele>
        <time>2024-04-01T10:09:41.356Z</time>
      </trkpt>
      <trkpt lat="51.556491" lon="6.338912">
        <ele>22.551174</ele>
        <time>2024-04-01T10:10:06.142Z</time>
      </trkpt>
      <trkpt lat="51.556354" lon="6.339061">
        <ele>22.555507</ele>
        <time>2024-04-01T10:10:09.741Z</time>
      </trkpt>
      <trkpt lat="51.556308" lon="6.339226">
        <ele>22.536813</ele>
        <time>2024-04-01T10:10:12.195Z</time>
      </trkpt>
      <trkpt lat="51.556235" lon="6.340050">
        <ele>22.450770</ele>
        <time>2024-04-01T10:10:23.438Z</time>
      </trkpt>
      <trkpt lat="51.556178" lon="6.340192">
        <ele>22.433297</ele>
        <time>2024-04-01T10:10:25.734Z</time>
      </trkpt>
      <trkpt lat="51.556005" lon="6.340415">
        <ele>22.396434</ele>
        <time>2024-04-01T10:10:30.553Z</time>
      </trkpt>
      <trkpt lat="51.555667" lon="6.340574">
        <ele>22.337881</ele>
        <time>2024-04-01T10:10:38.195Z</time>
      </trkpt>
      <trkpt lat="51.554863" lon="6.340765">
        <ele>22.275511</ele>
        <time>2024-04-01T10:10:55.915Z</time>
      </trkpt>
      <trkpt lat="51.554632" lon="6.340904">
        <ele>22.281886</ele>
        <time>2024-04-01T10:11:01.410Z</time>
      </trkpt>
      <trkpt lat="51.554464" lon="6.340915">
        <ele>22.286231</ele>
        <time>2024-04-01T10:11:05.231Z</time>
      </trkpt>
      <trkpt lat="51.554218" lon="6.340759">
        <ele>22.293066</ele>
        <time>2024-04-01T10:11:11.201Z</time>
      </trkpt>
      <trkpt lat="51.554090" lon="6.340757">
        <ele>22.296374</ele>
        <time>2024-04-01T10:11:14.108Z</time>
      </trkpt>
      <trkpt lat="51.554010" lon="6.340817">
        <ele>22.298656</ele>
        <time>2024-04-01T10:11:16.052Z</time>
      </trkpt>
      <trkpt lat="51.553806" lon="6.341402">
        <ele>22.309435</ele>
        <time>2024-04-01T10:11:25.520Z</time>
      </trkpt>
      <trkpt lat="51.553687" lon="6.341617">
        <ele>22.326825</ele>
        <time>2024-04-01T10:11:29.606Z</time>
      </trkpt>
      <trkpt lat="51.553502" lon="6.341806">
        <ele>22.371563</ele>
        <time>2024-04-01T10:11:34.550Z</time>
      </trkpt>
      <trkpt lat="51.552854" lon="6.342201">
        <ele>22.513018</ele>
        <time>2024-04-01T10:11:50.312Z</time>
      </trkpt>
      <trkpt lat="51.551519" lon="6.343238">
        <ele>22.973184</ele>
        <time>2024-04-01T10:12:25.701Z</time>
      </trkpt>
      <trkpt lat="51.551167" lon="6.343780">
        <ele>23.187644</ele>
        <time>2024-04-01T10:12:38.137Z</time>
      </trkpt>
      <trkpt lat="51.551047" lon="6.344085">
        <ele>23.286409</ele>
        <time>2024-04-01T10:12:43.828Z</time>
      </trkpt>
      <trkpt lat="51.550975" lon="6.344430">
        <ele>23.385992</ele>
        <time>2024-04-01T10:12:49.565Z</time>
      </trkpt>
      <trkpt lat="51.550948" lon="6.347544">
        <ele>23.745921</ele>
        <time>2024-04-01T10:13:34.716Z</time>
      </trkpt>
      <trkpt lat="51.551051" lon="6.348313">
        <ele>23.572118</ele>
        <time>2024-04-01T10:13:45.096Z</time>
      </trkpt>
      <trkpt lat="51.551063" lon="6.348402">
        <ele>23.548313</ele>
        <time>2024-04-01T10:13:46.241Z</time>
      </trkpt>
      <trkpt lat="51.550866" lon="6.349527">
        <ele>23.242809</ele>
        <time>2024-04-01T10:14:01.460Z</time>
      </trkpt>
      <trkpt lat="51.550850" lon="6.350444">
        <ele>23.003017</ele>
        <time>2024-04-01T10:14:13.321Z</time>
      </trkpt>
      <trkpt lat="51.550720" lon="6.351652">
        <ele>22.831983</ele>
        <time>2024-04-01T10:14:29.308Z</time>
      </trkpt>
      <trkpt lat="51.550691" lon="6.351705">
        <ele>22.822257</ele>
        <time>2024-04-01T10:14:30.157Z</time>
      </trkpt>
      <trkpt lat="51.550645" lon="6.351722">
        <ele>22.811799</ele>
        <time>2024-04-01T10:14:31.170Z</time>
      </trkpt>
      <trkpt lat="51.549455" lon="6.351896">
        <ele>22.588327</ele>
        <time>2024-04-01T10:14:57.777Z</time>
      </trkpt>
      <trkpt lat="51.548399" lon="6.352126">
        <ele>22.536279</ele>
        <time>2024-04-01T10:15:21.433Z</time>
      </trkpt>
      <trkpt lat="51.548079" lon="6.352226">
        <ele>22.520357</ele>
        <time>2024-04-01T10:15:28.608Z</time>
      </trkpt>
      <trkpt lat="51.546487" lon="6.352779">
        <ele>22.375214</ele>
        <time>2024-04-01T10:16:04.369Z</time>
      </trkpt>
      <trkpt lat="51.546340" lon="6.352877">
        <ele>22.360296</ele>
        <time>2024-04-01T10:16:07.808Z</time>
      </trkpt>
      <trkpt lat="51.545765" lon="6.353362">
        <ele>22.370796</ele>
        <time>2024-04-01T10:16:22.002Z</time>
      </trkpt>
      <trkpt lat="51.545635" lon="6.353585">
        <ele>22.381813</ele>
        <time>2024-04-01T10:16:26.228Z</time>
      </trkpt>
      <trkpt lat="51.545364" lon="6.354498">
        <ele>22.418275</ele>
        <time>2024-04-01T10:16:40.784Z</time>
      </trkpt>
      <trkpt lat="51.545239" lon="6.354750">
        <ele>22.429893</ele>
        <time>2024-04-01T10:16:45.438Z</time>
      </trkpt>
      <trkpt lat="51.544766" lon="6.355382">
        <ele>22.499181</ele>
        <time>2024-04-01T10:16:59.570Z</time>
      </trkpt>
      <trkpt lat="51.544427" lon="6.355681">
        <ele>22.564032</ele>
        <time>2024-04-01T10:17:08.312Z</time>
      </trkpt>
      <trkpt lat="51.544178" lon="6.355829">
        <ele>22.608559</ele>
        <time>2024-04-01T10:17:14.425Z</time>
      </trkpt>
      <trkpt lat="51.543098" lon="6.356273">
        <ele>22.795094</ele>
        <time>2024-04-01T10:17:40.532Z</time>
      </trkpt>
      <trkpt lat="51.541942" lon="6.356648">
        <ele>22.991016</ele>
        <time>2024-04-01T10:18:07.767Z</time>
      </trkpt>
      <trkpt lat="51.541254" lon="6.356847">
        <ele>23.059170</ele>
        <time>2024-04-01T10:18:23.833Z</time>
      </trkpt>
      <trkpt lat="51.540626" lon="6.356968">
        <ele>23.078620</ele>
        <time>2024-04-01T10:18:38.068Z</time>
      </trkpt>
      <trkpt lat="51.540319" lon="6.357006">
        <ele>23.088089</ele>
        <time>2024-04-01T10:18:44.937Z</time>
      </trkpt>
      <trkpt lat="51.539901" lon="6.356999">
        <ele>23.100944</ele>
        <time>2024-04-01T10:18:54.159Z</time>
      </trkpt>
      <trkpt lat="51.539857" lon="6.357033">
        <ele>23.102445</ele>
        <time>2024-04-01T10:18:55.249Z</time>
      </trkpt>
      <trkpt lat="51.539837" lon="6.357104">
        <ele>23.102380</ele>
        <time>2024-04-01T10:18:56.321Z</time>
      </trkpt>
      <trkpt lat="51.539765" lon="6.358287">
        <ele>23.025042</ele>
        <time>2024-04-01T10:19:12.413Z</time>
      </trkpt>
      <trkpt lat="51.539670" lon="6.359398">
        <ele>22.952076</ele>
        <time>2024-04-01T10:19:27.511Z</time>
      </trkpt>
      <trkpt lat="51.539532" lon="6.360073">
        <ele>22.922790</ele>
        <time>2024-04-01T10:19:37.316Z</time>
      </trkpt>
      <trkpt lat="51.539340" lon="6.360815">
        <ele>22.962970</ele>
        <time>2024-04-01T10:19:48.515Z</time>
      </trkpt>
      <trkpt lat="51.538678" lon="6.363055">
        <ele>23.113590</ele>
        <time>2024-04-01T10:20:24.060Z</time>
      </trkpt>
      <trkpt lat="51.537998" lon="6.366698">
        <ele>23.421334</ele>
        <time>2024-04-01T10:21:18.405Z</time>
      </trkpt>
      <trkpt lat="51.538424" lon="6.367849">
        <ele>23.489569</ele>
        <time>2024-04-01T10:21:37.037Z</time>
      </trkpt>
      <trkpt lat="51.538543" lon="6.368012">
        <ele>23.489649</ele>
        <time>2024-04-01T10:21:40.538Z</time>
      </trkpt>
      <trkpt lat="51.538601" lon="6.368221">
        <ele>23.481871</ele>
        <time>2024-04-01T10:21:43.754Z</time>
      </trkpt>
      <trkpt lat="51.538826" lon="6.368611">
        <ele>23.463791</ele>
        <time>2024-04-01T10:21:51.042Z</time>
      </trkpt>
      <trkpt lat="51.538770" lon="6.368715">
        <ele>23.459115</ele>
        <time>2024-04-01T10:21:52.968Z</time>
      </trkpt>
      <trkpt lat="51.538587" lon="6.369144">
        <ele>23.441434</ele>
        <time>2024-04-01T10:21:59.991Z</time>
      </trkpt>
      <trkpt lat="51.538248" lon="6.370200">
        <ele>23.401043</ele>
        <time>2024-04-01T10:22:16.203Z</time>
      </trkpt>
      <trkpt lat="51.537997" lon="6.371088">
        <ele>23.325868</ele>
        <time>2024-04-01T10:22:29.795Z</time>
      </trkpt>
      <trkpt lat="51.537988" lon="6.371272">
        <ele>23.310365</ele>
        <time>2024-04-01T10:22:32.377Z</time>
      </trkpt>
      <trkpt lat="51.537901" lon="6.375057">
        <ele>22.923230</ele>
        <time>2024-04-01T10:23:23.369Z</time>
      </trkpt>
      <trkpt lat="51.537833" lon="6.375406">
        <ele>22.879374</ele>
        <time>2024-04-01T10:23:28.147Z</time>
      </trkpt>
      <trkpt lat="51.537700" lon="6.375757">
        <ele>22.830088</ele>
        <time>2024-04-01T10:23:33.909Z</time>
      </trkpt>
      <trkpt lat="51.537650" lon="6.375884">
        <ele>22.812064</ele>
        <time>2024-04-01T10:23:35.846Z</time>
      </trkpt>
      <trkpt lat="51.537167" lon="6.376923">
        <ele>22.964880</ele>
        <time>2024-04-01T10:23:54.247Z</time>
      </trkpt>
      <trkpt lat="51.537088" lon="6.377017">
        <ele>22.984812</ele>
        <time>2024-04-01T10:23:56.780Z</time>
      </trkpt>
      <trkpt lat="51.536946" lon="6.377054">
        <ele>23.013986</ele>
        <time>2024-04-01T10:23:59.968Z</time>
      </trkpt>
      <trkpt lat="51.536304" lon="6.377050">
        <ele>23.144187</ele>
        <time>2024-04-01T10:24:14.844Z</time>
      </trkpt>
      <trkpt lat="51.535706" lon="6.377775">
        <ele>23.449659</ele>
        <time>2024-04-01T10:24:33.672Z</time>
      </trkpt>
      <trkpt lat="51.535364" lon="6.377922">
        <ele>23.610006</ele>
        <time>2024-04-01T10:24:42.790Z</time>
      </trkpt>
      <trkpt lat="51.534959" lon="6.378150">
        <ele>23.804368</ele>
        <time>2024-04-01T10:24:53.178Z</time>
      </trkpt>
      <trkpt lat="51.534466" lon="6.378559">
        <ele>24.029834</ele>
        <time>2024-04-01T10:25:06.094Z</time>
      </trkpt>
      <trkpt lat="51.533637" lon="6.379473">
        <ele>24.315795</ele>
        <time>2024-04-01T10:25:30.277Z</time>
      </trkpt>
      <trkpt lat="51.533091" lon="6.380176">
        <ele>24.490399</ele>
        <time>2024-04-01T10:25:46.680Z</time>
      </trkpt>
      <trkpt lat="51.532890" lon="6.380466">
        <ele>24.456229</ele>
        <time>2024-04-01T10:25:52.948Z</time>
      </trkpt>
      <trkpt lat="51.532666" lon="6.380856">
        <ele>24.414453</ele>
        <time>2024-04-01T10:26:00.410Z</time>
      </trkpt>
      <trkpt lat="51.532635" lon="6.380912">
        <ele>24.408553</ele>
        <time>2024-04-01T10:26:01.479Z</time>
      </trkpt>
      <trkpt lat="51.532426" lon="6.381526">
        <ele>24.353469</ele>
        <time>2024-04-01T10:26:11.070Z</time>
      </trkpt>
      <trkpt lat="51.532393" lon="6.381626">
        <ele>24.344560</ele>
        <time>2024-04-01T10:26:12.606Z</time>
      </trkpt>
      <trkpt lat="51.532157" lon="6.382429">
        <ele>24.274664</ele>
        <time>2024-04-01T10:26:24.274Z</time>
      </trkpt>
      <trkpt lat="51.532095" lon="6.382955">
        <ele>24.129466</ele>
        <time>2024-04-01T10:26:31.137Z</time>
      </trkpt>
      <trkpt lat="51.532046" lon="6.383375">
        <ele>24.004189</ele>
        <time>2024-04-01T10:26:36.606Z</time>
      </trkpt>
      <trkpt lat="51.532018" lon="6.383975">
        <ele>23.827794</ele>
        <time>2024-04-01T10:26:44.415Z</time>
      </trkpt>
      <trkpt lat="51.531947" lon="6.384230">
        <ele>23.745890</ele>
        <time>2024-04-01T10:26:48.058Z</time>
      </trkpt>
      <trkpt lat="51.531774" lon="6.384407">
        <ele>23.649248</ele>
        <time>2024-04-01T10:26:52.348Z</time>
      </trkpt>
      <trkpt lat="51.531267" lon="6.384657">
        <ele>23.418099</ele>
        <time>2024-04-01T10:27:03.589Z</time>
      </trkpt>
      <trkpt lat="51.531057" lon="6.384818">
        <ele>23.396512</ele>
        <time>2024-04-01T10:27:08.514Z</time>
      </trkpt>
      <trkpt lat="51.530947" lon="6.384989">
        <ele>23.382314</ele>
        <time>2024-04-01T10:27:11.820Z</time>
      </trkpt>
      <trkpt lat="51.530497" lon="6.386080">
        <ele>23.306758</ele>
        <time>2024-04-01T10:27:29.578Z</time>
      </trkpt>
      <trkpt lat="51.529970" lon="6.386991">
        <ele>23.294630</ele>
        <time>2024-04-01T10:27:47.790Z</time>
      </trkpt>
      <trkpt lat="51.529845" lon="6.387290">
        <ele>23.333309</ele>
        <time>2024-04-01T10:27:53.053Z</time>
      </trkpt>
      <trkpt lat="51.529743" lon="6.387654">
        <ele>23.376174</ele>
        <time>2024-04-01T10:27:58.843Z</time>
      </trkpt>
      <trkpt lat="51.529461" lon="6.389144">
        <ele>23.543397</ele>
        <time>2024-04-01T10:28:21.009Z</time>
      </trkpt>
      <trkpt lat="51.529431" lon="6.389197">
        <ele>23.551091</ele>
        <time>2024-04-01T10:28:22.070Z</time>
      </trkpt>
      <trkpt lat="51.529235" lon="6.389586">
        <ele>23.571661</ele>
        <time>2024-04-01T10:28:29.093Z</time>
      </trkpt>
      <trkpt lat="51.528917" lon="6.390278">
        <ele>23.584617</ele>
        <time>2024-04-01T10:28:41.144Z</time>
      </trkpt>
      <trkpt lat="51.528289" lon="6.392255">
        <ele>23.671482</ele>
        <time>2024-04-01T10:29:11.718Z</time>
      </trkpt>
      <trkpt lat="51.528181" lon="6.392352">
        <ele>23.693855</ele>
        <time>2024-04-01T10:29:14.568Z</time>
      </trkpt>
      <trkpt lat="51.527110" lon="6.392277">
        <ele>23.887717</ele>
        <time>2024-04-01T10:29:39.336Z</time>
      </trkpt>
      <trkpt lat="51.525435" lon="6.392066">
        <ele>24.531766</ele>
        <time>2024-04-01T10:30:20.438Z</time>
      </trkpt>
      <trkpt lat="51.525020" lon="6.392019">
        <ele>24.713046</ele>
        <time>2024-04-01T10:30:30.714Z</time>
      </trkpt>
      <trkpt lat="51.525015" lon="6.392967">
        <ele>25.064382</ele>
        <time>2024-04-01T10:30:45.257Z</time>
      </trkpt>
      <trkpt lat="51.524956" lon="6.392967">
        <ele>25.099526</ele>
        <time>2024-04-01T10:30:46.749Z</time>
      </trkpt>
      <trkpt lat="51.523811" lon="6.392909">
        <ele>25.784131</ele>
        <time>2024-04-01T10:31:16.955Z</time>
      </trkpt>
      <trkpt lat="51.523185" lon="6.392685">
        <ele>26.211936</ele>
        <time>2024-04-01T10:31:33.710Z</time>
      </trkpt>
      <trkpt lat="51.522464" lon="6.392418">
        <ele>26.705489</ele>
        <time>2024-04-01T10:31:53.363Z</time>
      </trkpt>
      <trkpt lat="51.521504" lon="6.392061">
        <ele>27.125295</ele>
        <time>2024-04-01T10:32:19.701Z</time>
      </trkpt>
      <trkpt lat="51.520893" lon="6.391834">
        <ele>27.295174</ele>
        <time>2024-04-01T10:32:34.774Z</time>
      </trkpt>
      <trkpt lat="51.520300" lon="6.391698">
        <ele>27.446408</ele>
        <time>2024-04-01T10:32:48.640Z</time>
      </trkpt>
      <trkpt lat="51.520238" lon="6.391684">
        <ele>27.437740</ele>
        <time>2024-04-01T10:32:50.108Z</time>
      </trkpt>
      <trkpt lat="51.519902" lon="6.391609">
        <ele>27.390777</ele>
        <time>2024-04-01T10:32:57.907Z</time>
      </trkpt>
      <trkpt lat="51.518611" lon="6.391718">
        <ele>27.211802</ele>
        <time>2024-04-01T10:33:27.098Z</time>
      </trkpt>
      <trkpt lat="51.517663" lon="6.391826">
        <ele>26.971543</ele>
        <time>2024-04-01T10:33:48.892Z</time>
      </trkpt>
      <trkpt lat="51.516939" lon="6.391767">
        <ele>26.780961</ele>
        <time>2024-04-01T10:34:04.951Z</time>
      </trkpt>
      <trkpt lat="51.516876" lon="6.391767">
        <ele>26.764399</ele>
        <time>2024-04-01T10:34:06.321Z</time>
      </trkpt>
      <trkpt lat="51.515242" lon="6.391859">
        <ele>26.308348</ele>
        <time>2024-04-01T10:34:42.341Z</time>
      </trkpt>
      <trkpt lat="51.514640" lon="6.394873">
        <ele>26.548687</ele>
        <time>2024-04-01T10:35:30.069Z</time>
      </trkpt>
      <trkpt lat="51.514501" lon="6.395571">
        <ele>26.616237</ele>
        <time>2024-04-01T10:35:41.319Z</time>
      </trkpt>
      <trkpt lat="51.514365" lon="6.396324">
        <ele>26.679481</ele>
        <time>2024-04-01T10:35:53.045Z</time>
      </trkpt>
      <trkpt lat="51.514036" lon="6.398354">
        <ele>26.822948</ele>
        <time>2024-04-01T10:36:23.748Z</time>
      </trkpt>
      <trkpt lat="51.513664" lon="6.400378">
        <ele>26.887879</ele>
        <time>2024-04-01T10:36:54.443Z</time>
      </trkpt>
      <trkpt lat="51.513537" lon="6.401099">
        <ele>26.886624</ele>
        <time>2024-04-01T10:37:05.386Z</time>
      </trkpt>
      <trkpt lat="51.513493" lon="6.401348">
        <ele>26.881624</ele>
        <time>2024-04-01T10:37:09.167Z</time>
      </trkpt>
      <trkpt lat="51.513257" lon="6.402426">
        <ele>26.859550</ele>
        <time>2024-04-01T10:37:25.695Z</time>
      </trkpt>
      <trkpt lat="51.512752" lon="6.405630">
        <ele>26.403869</ele>
        <time>2024-04-01T10:38:12.016Z</time>
      </trkpt>
      <trkpt lat="51.512372" lon="6.407751">
        <ele>26.047469</ele>
        <time>2024-04-01T10:38:41.979Z</time>
      </trkpt>
      <trkpt lat="51.512119" lon="6.408905">
        <ele>25.862374</ele>
        <time>2024-04-01T10:38:59.393Z</time>
      </trkpt>
      <trkpt lat="51.511439" lon="6.411754">
        <ele>26.597118</ele>
        <time>2024-04-01T10:39:48.310Z</time>
      </trkpt>
      <trkpt lat="51.510879" lon="6.413702">
        <ele>26.715755</ele>
        <time>2024-04-01T10:40:20.292Z</time>
      </trkpt>
      <trkpt lat="51.510222" lon="6.416749">
        <ele>26.299923</ele>
        <time>2024-04-01T10:41:05.244Z</time>
      </trkpt>
      <trkpt lat="51.509402" lon="6.420425">
        <ele>25.709105</ele>
        <time>2024-04-01T10:41:59.532Z</time>
      </trkpt>
      <trkpt lat="51.509376" lon="6.420523">
        <ele>25.703751</ele>
        <time>2024-04-01T10:42:01.037Z</time>
      </trkpt>
      <trkpt lat="51.507882" lon="6.425537">
        <ele>25.672129</ele>
        <time>2024-04-01T10:43:21.234Z</time>
      </trkpt>
      <trkpt lat="51.507605" lon="6.426478">
        <ele>25.755888</ele>
        <time>2024-04-01T10:43:37.086Z</time>
      </trkpt>
      <trkpt lat="51.506424" lon="6.430408">
        <ele>25.955294</ele>
        <time>2024-04-01T10:44:41.119Z</time>
      </trkpt>
      <trkpt lat="51.506011" lon="6.431767">
        <ele>25.918682</ele>
        <time>2024-04-01T10:45:02.524Z</time>
      </trkpt>
      <trkpt lat="51.505605" lon="6.433142">
        <ele>25.969797</ele>
        <time>2024-04-01T10:45:24.376Z</time>
      </trkpt>
      <trkpt lat="51.504883" lon="6.435473">
        <ele>26.525191</ele>
        <time>2024-04-01T10:46:05.089Z</time>
      </trkpt>
      <trkpt lat="51.503702" lon="6.434689">
        <ele>27.129056</ele>
        <time>2024-04-01T10:46:36.974Z</time>
      </trkpt>
      <trkpt lat="51.503417" lon="6.434615">
        <ele>27.265484</ele>
        <time>2024-04-01T10:46:44.053Z</time>
      </trkpt>
      <trkpt lat="51.502249" lon="6.434453">
        <ele>27.602221</ele>
        <time>2024-04-01T10:47:12.098Z</time>
      </trkpt>
      <trkpt lat="51.501546" lon="6.434353">
        <ele>27.781709</ele>
        <time>2024-04-01T10:47:28.425Z</time>
      </trkpt>
      <trkpt lat="51.501480" lon="6.434342">
        <ele>27.798584</ele>
        <time>2024-04-01T10:47:30.058Z</time>
      </trkpt>
      <trkpt lat="51.500352" lon="6.434189">
        <ele>27.791494</ele>
        <time>2024-04-01T10:47:55.098Z</time>
      </trkpt>
      <trkpt lat="51.499969" lon="6.434127">
        <ele>27.786259</ele>
        <time>2024-04-01T10:48:03.538Z</time>
      </trkpt>
      <trkpt lat="51.497827" lon="6.433825">
        <ele>27.693438</ele>
        <time>2024-04-01T10:48:51.057Z</time>
      </trkpt>
      <trkpt lat="51.497259" lon="6.433755">
        <ele>27.625961</ele>
        <time>2024-04-01T10:49:03.729Z</time>
      </trkpt>
      <trkpt lat="51.497159" lon="6.433724">
        <ele>27.613897</ele>
        <time>2024-04-01T10:49:05.953Z</time>
      </trkpt>
      <trkpt lat="51.496672" lon="6.433650">
        <ele>27.555955</ele>
        <time>2024-04-01T10:49:16.754Z</time>
      </trkpt>
      <trkpt lat="51.496623" lon="6.434937">
        <ele>27.427666</ele>
        <time>2024-04-01T10:49:34.295Z</time>
      </trkpt>
      <trkpt lat="51.496601" lon="6.436937">
        <ele>27.077141</ele>
        <time>2024-04-01T10:50:00.609Z</time>
      </trkpt>
      <trkpt lat="51.496600" lon="6.437751">
        <ele>26.993575</ele>
        <time>2024-04-01T10:50:11.578Z</time>
      </trkpt>
      <trkpt lat="51.496560" lon="6.438828">
        <ele>27.057057</ele>
        <time>2024-04-01T10:50:26.450Z</time>
      </trkpt>
      <trkpt lat="51.496560" lon="6.438828">
        <ele>27.057057</ele>
        <time>2024-04-01T10:50:26.455Z</time>
      </trkpt>
      <trkpt lat="51.496265" lon="6.442556">
        <ele>27.502754</ele>
        <time>2024-04-01T10:51:21.558Z</time>
      </trkpt>
      <trkpt lat="51.496190" lon="6.443643">
        <ele>27.675684</ele>
        <time>2024-04-01T10:51:37.581Z</time>
      </trkpt>
      <trkpt lat="51.496214" lon="6.444040">
        <ele>27.736858</ele>
        <time>2024-04-01T10:51:43.451Z</time>
      </trkpt>
      <trkpt lat="51.496257" lon="6.444764">
        <ele>27.848401</ele>
        <time>2024-04-01T10:51:54.142Z</time>
      </trkpt>
      <trkpt lat="51.495905" lon="6.444788">
        <ele>27.935195</ele>
        <time>2024-04-01T10:52:02.438Z</time>
      </trkpt>
      <trkpt lat="51.494923" lon="6.444884">
        <ele>28.182839</ele>
        <time>2024-04-01T10:52:25.257Z</time>
      </trkpt>
      <trkpt lat="51.494817" lon="6.444914">
        <ele>28.210513</ele>
        <time>2024-04-01T10:52:27.726Z</time>
      </trkpt>
      <trkpt lat="51.494610" lon="6.445077">
        <ele>28.269788</ele>
        <time>2024-04-01T10:52:33.183Z</time>
      </trkpt>
      <trkpt lat="51.494548" lon="6.445092">
        <ele>28.285909</ele>
        <time>2024-04-01T10:52:34.663Z</time>
      </trkpt>
      <trkpt lat="51.494504" lon="6.445062">
        <ele>28.298199</ele>
        <time>2024-04-01T10:52:35.777Z</time>
      </trkpt>
      <trkpt lat="51.494213" lon="6.444567">
        <ele>28.407179</ele>
        <time>2024-04-01T10:52:45.930Z</time>
      </trkpt>
      <trkpt lat="51.493650" lon="6.445269">
        <ele>28.565631</ele>
        <time>2024-04-01T10:53:02.754Z</time>
      </trkpt>
      <trkpt lat="51.493400" lon="6.445626">
        <ele>28.621709</ele>
        <time>2024-04-01T10:53:10.532Z</time>
      </trkpt>
      <trkpt lat="51.493319" lon="6.445875">
        <ele>28.651032</ele>
        <time>2024-04-01T10:53:14.558Z</time>
      </trkpt>
      <trkpt lat="51.493257" lon="6.446225">
        <ele>28.689012</ele>
        <time>2024-04-01T10:53:19.839Z</time>
      </trkpt>
      <trkpt lat="51.493145" lon="6.446726">
        <ele>28.744572</ele>
        <time>2024-04-01T10:53:27.540Z</time>
      </trkpt>
      <trkpt lat="51.492814" lon="6.447633">
        <ele>28.796929</ele>
        <time>2024-04-01T10:53:42.427Z</time>
      </trkpt>
      <trkpt lat="51.493145" lon="6.446726">
        <ele>28.719403</ele>
        <time>2024-04-01T10:53:56.805Z</time>
      </trkpt>
      <trkpt lat="51.493257" lon="6.446225">
        <ele>28.680149</ele>
        <time>2024-04-01T10:54:03.979Z</time>
      </trkpt>
      <trkpt lat="51.493319" lon="6.445875">
        <ele>28.653316</ele>
        <time>2024-04-01T10:54:08.877Z</time>
      </trkpt>
      <trkpt lat="51.493400" lon="6.445626">
        <ele>28.632599</ele>
        <time>2024-04-01T10:54:12.693Z</time>
      </trkpt>
      <trkpt lat="51.493650" lon="6.445269">
        <ele>28.575741</ele>
        <time>2024-04-01T10:54:19.940Z</time>
      </trkpt>
      <trkpt lat="51.494213" lon="6.444567">
        <ele>28.392158</ele>
        <time>2024-04-01T10:54:35.256Z</time>
      </trkpt>
      <trkpt lat="51.494504" lon="6.445062">
        <ele>28.282982</ele>
        <time>2024-04-01T10:54:44.284Z</time>
      </trkpt>
      <trkpt lat="51.494548" lon="6.445092">
        <ele>28.270670</ele>
        <time>2024-04-01T10:54:45.313Z</time>
      </trkpt>
      <trkpt lat="51.494610" lon="6.445077">
        <ele>28.254521</ele>
        <time>2024-04-01T10:54:46.675Z</time>
      </trkpt>
      <trkpt lat="51.494817" lon="6.444914">
        <ele>28.195140</ele>
        <time>2024-04-01T10:54:51.604Z</time>
      </trkpt>
      <trkpt lat="51.494923" lon="6.444884">
        <ele>28.167416</ele>
        <time>2024-04-01T10:54:53.950Z</time>
      </trkpt>
      <trkpt lat="51.495905" lon="6.444788">
        <ele>27.937043</ele>
        <time>2024-04-01T10:55:15.288Z</time>
      </trkpt>
      <trkpt lat="51.496257" lon="6.444764">
        <ele>27.855369</ele>
        <time>2024-04-01T10:55:22.886Z</time>
      </trkpt>
      <trkpt lat="51.496214" lon="6.444040">
        <ele>27.750404</ele>
        <time>2024-04-01T10:55:32.619Z</time>
      </trkpt>
      <trkpt lat="51.496190" lon="6.443643">
        <ele>27.687958</ele>
        <time>2024-04-01T10:55:37.945Z</time>
      </trkpt>
      <trkpt lat="51.496265" lon="6.442556">
        <ele>27.507836</ele>
        <time>2024-04-01T10:55:52.593Z</time>
      </trkpt>
      <trkpt lat="51.496560" lon="6.438828">
        <ele>27.014602</ele>
        <time>2024-04-01T10:56:42.894Z</time>
      </trkpt>
      <trkpt lat="51.496600" lon="6.437751">
        <ele>27.000642</ele>
        <time>2024-04-01T10:56:57.935Z</time>
      </trkpt>
      <trkpt lat="51.496601" lon="6.436937">
        <ele>27.125215</ele>
        <time>2024-04-01T10:57:09.739Z</time>
      </trkpt>
      <trkpt lat="51.496623" lon="6.434937">
        <ele>27.388882</ele>
        <time>2024-04-01T10:57:39.741Z</time>
      </trkpt>
      <trkpt lat="51.496672" lon="6.433650">
        <ele>27.413579</ele>
        <time>2024-04-01T10:57:58.073Z</time>
      </trkpt>
      <trkpt lat="51.496623" lon="6.434937">
        <ele>27.437002</ele>
        <time>2024-04-01T10:58:15.639Z</time>
      </trkpt>
      <trkpt lat="51.496601" lon="6.436937">
        <ele>27.100719</ele>
        <time>2024-04-01T10:58:42.076Z</time>
      </trkpt>
      <trkpt lat="51.496600" lon="6.437751">
        <ele>26.963873</ele>
        <time>2024-04-01T10:58:53.045Z</time>
      </trkpt>
      <trkpt lat="51.496560" lon="6.438828">
        <ele>27.039021</ele>
        <time>2024-04-01T10:59:07.922Z</time>
      </trkpt>
      <trkpt lat="51.496265" lon="6.442556">
        <ele>27.505650</ele>
        <time>2024-04-01T11:00:03.025Z</time>
      </trkpt>
      <trkpt lat="51.496190" lon="6.443643">
        <ele>27.682403</ele>
        <time>2024-04-01T11:00:19.048Z</time>
      </trkpt>
      <trkpt lat="51.496214" lon="6.444040">
        <ele>27.741859</ele>
        <time>2024-04-01T11:00:24.917Z</time>
      </trkpt>
      <trkpt lat="51.496257" lon="6.444764">
        <ele>27.850272</ele>
        <time>2024-04-01T11:00:35.609Z</time>
      </trkpt>
      <trkpt lat="51.495905" lon="6.444788">
        <ele>27.934629</ele>
        <time>2024-04-01T11:00:43.905Z</time>
      </trkpt>
      <trkpt lat="51.494923" lon="6.444884">
        <ele>28.177298</ele>
        <time>2024-04-01T11:01:06.723Z</time>
      </trkpt>
      <trkpt lat="51.494817" lon="6.444914">
        <ele>28.205697</ele>
        <time>2024-04-01T11:01:09.193Z</time>
      </trkpt>
      <trkpt lat="51.494610" lon="6.445077">
        <ele>28.266525</ele>
        <time>2024-04-01T11:01:14.650Z</time>
      </trkpt>
      <trkpt lat="51.494548" lon="6.445092">
        <ele>28.283068</ele>
        <time>2024-04-01T11:01:16.131Z</time>
      </trkpt>
      <trkpt lat="51.494504" lon="6.445062">
        <ele>28.295680</ele>
        <time>2024-04-01T11:01:17.244Z</time>
      </trkpt>
      <trkpt lat="51.494213" lon="6.444567">
        <ele>28.407517</ele>
        <time>2024-04-01T11:01:27.397Z</time>
      </trkpt>
      <trkpt lat="51.493650" lon="6.445269">
        <ele>28.617285</ele>
        <time>2024-04-01T11:01:44.221Z</time>
      </trkpt>
      <trkpt lat="51.493400" lon="6.445626">
        <ele>28.798942</ele>
        <time>2024-04-01T11:01:52.042Z</time>
      </trkpt>
      <trkpt lat="51.493319" lon="6.445875">
        <ele>28.893927</ele>
        <time>2024-04-01T11:01:56.218Z</time>
      </trkpt>
      <trkpt lat="51.493257" lon="6.446225">
        <ele>29.016958</ele>
        <time>2024-04-01T11:02:01.772Z</time>
      </trkpt>
      <trkpt lat="51.493145" lon="6.446726">
        <ele>29.196933</ele>
        <time>2024-04-01T11:02:10.081Z</time>
      </trkpt>
      <trkpt lat="51.492814" lon="6.447633">
        <ele>29.552896</ele>
        <time>2024-04-01T11:02:27.172Z</time>
      </trkpt>
      <trkpt lat="51.491439" lon="6.447069">
        <ele>30.977645</ele>
        <time>2024-04-01T11:03:05.527Z</time>
      </trkpt>
      <trkpt lat="51.491380" lon="6.447053">
        <ele>31.037717</ele>
        <time>2024-04-01T11:03:07.178Z</time>
      </trkpt>
      <trkpt lat="51.490947" lon="6.447522">
        <ele>31.592079</ele>
        <time>2024-04-01T11:03:21.976Z</time>
      </trkpt>
      <trkpt lat="51.489649" lon="6.448783">
        <ele>33.338711</ele>
        <time>2024-04-01T11:04:04.856Z</time>
      </trkpt>
      <trkpt lat="51.488827" lon="6.449554">
        <ele>34.188641</ele>
        <time>2024-04-01T11:04:30.443Z</time>
      </trkpt>
      <trkpt lat="51.488713" lon="6.449616">
        <ele>34.293330</ele>
        <time>2024-04-01T11:04:33.890Z</time>
      </trkpt>
      <trkpt lat="51.488299" lon="6.449775">
        <ele>34.663581</ele>
        <time>2024-04-01T11:04:44.889Z</time>
      </trkpt>
      <trkpt lat="51.487812" lon="6.449928">
        <ele>35.053082</ele>
        <time>2024-04-01T11:04:57.478Z</time>
      </trkpt>
      <trkpt lat="51.487629" lon="6.449998">
        <ele>35.149326</ele>
        <time>2024-04-01T11:05:02.433Z</time>
      </trkpt>
      <trkpt lat="51.487502" lon="6.449998">
        <ele>35.214300</ele>
        <time>2024-04-01T11:05:05.494Z</time>
      </trkpt>
      <trkpt lat="51.486774" lon="6.449666">
        <ele>35.601478</ele>
        <time>2024-04-01T11:05:23.889Z</time>
      </trkpt>
      <trkpt lat="51.486476" lon="6.453734">
        <ele>36.987590</ele>
        <time>2024-04-01T11:06:26.994Z</time>
      </trkpt>
      <trkpt lat="51.486127" lon="6.458569">
        <ele>39.484817</ele>
        <time>2024-04-01T11:07:47.249Z</time>
      </trkpt>
      <trkpt lat="51.484448" lon="6.458052">
        <ele>41.174276</ele>
        <time>2024-04-01T11:08:33.989Z</time>
      </trkpt>
      <trkpt lat="51.482942" lon="6.457581">
        <ele>42.756874</ele>
        <time>2024-04-01T11:09:15.629Z</time>
      </trkpt>
      <trkpt lat="51.480740" lon="6.456804">
        <ele>45.003280</ele>
        <time>2024-04-01T11:10:18.154Z</time>
      </trkpt>
      <trkpt lat="51.480635" lon="6.456814">
        <ele>45.105874</ele>
        <time>2024-04-01T11:10:21.287Z</time>
      </trkpt>
      <trkpt lat="51.479544" lon="6.456420">
        <ele>45.232427</ele>
        <time>2024-04-01T11:10:48.835Z</time>
      </trkpt>
      <trkpt lat="51.475376" lon="6.454946">
        <ele>43.265095</ele>
        <time>2024-04-01T11:12:15.792Z</time>
      </trkpt>
      <trkpt lat="51.473947" lon="6.455244">
        <ele>45.008380</ele>
        <time>2024-04-01T11:13:17.460Z</time>
      </trkpt>
      <trkpt lat="51.472800" lon="6.455180">
        <ele>47.528014</ele>
        <time>2024-04-01T11:14:14.907Z</time>
      </trkpt>
      <trkpt lat="51.472115" lon="6.455099">
        <ele>49.527737</ele>
        <time>2024-04-01T11:14:51.310Z</time>
      </trkpt>
      <trkpt lat="51.471512" lon="6.457021">
        <ele>52.457112</ele>
        <time>2024-04-01T11:15:41.386Z</time>
      </trkpt>
      <trkpt lat="51.471118" lon="6.458073">
        <ele>53.744857</ele>
        <time>2024-04-01T11:16:04.167Z</time>
      </trkpt>
      <trkpt lat="51.471078" lon="6.458259">
        <ele>53.951286</ele>
        <time>2024-04-01T11:16:07.307Z</time>
      </trkpt>
      <trkpt lat="51.471056" lon="6.458372">
        <ele>54.075487</ele>
        <time>2024-04-01T11:16:09.234Z</time>
      </trkpt>
      <trkpt lat="51.468453" lon="6.454816">
        <ele>48.871320</ele>
        <time>2024-04-01T11:17:13.315Z</time>
      </trkpt>
      <trkpt lat="51.467873" lon="6.453898">
        <ele>47.900810</ele>
        <time>2024-04-01T11:17:28.058Z</time>
      </trkpt>
      <trkpt lat="51.467331" lon="6.452894">
        <ele>47.098909</ele>
        <time>2024-04-01T11:17:44.481Z</time>
      </trkpt>
      <trkpt lat="51.466914" lon="6.453406">
        <ele>46.978450</ele>
        <time>2024-04-01T11:17:56.808Z</time>
      </trkpt>
      <trkpt lat="51.466727" lon="6.453820">
        <ele>47.525247</ele>
        <time>2024-04-01T11:18:05.586Z</time>
      </trkpt>
      <trkpt lat="51.466540" lon="6.454945">
        <ele>48.770271</ele>
        <time>2024-04-01T11:18:28.624Z</time>
      </trkpt>
      <trkpt lat="51.466418" lon="6.456039">
        <ele>49.997913</ele>
        <time>2024-04-01T11:18:53.070Z</time>
      </trkpt>
      <trkpt lat="51.466379" lon="6.457353">
        <ele>51.795776</ele>
        <time>2024-04-01T11:19:21.945Z</time>
      </trkpt>
      <trkpt lat="51.466325" lon="6.457336">
        <ele>51.916498</ele>
        <time>2024-04-01T11:19:23.790Z</time>
      </trkpt>
      <trkpt lat="51.464197" lon="6.457405">
        <ele>55.186650</ele>
        <time>2024-04-01T11:20:29.787Z</time>
      </trkpt>
      <trkpt lat="51.463267" lon="6.457539">
        <ele>55.800086</ele>
        <time>2024-04-01T11:20:52.050Z</time>
      </trkpt>
      <trkpt lat="51.462919" lon="6.457499">
        <ele>55.838935</ele>
        <time>2024-04-01T11:21:00.254Z</time>
      </trkpt>
      <trkpt lat="51.462284" lon="6.456991">
        <ele>55.917937</ele>
        <time>2024-04-01T11:21:17.905Z</time>
      </trkpt>
      <trkpt lat="51.462089" lon="6.456963">
        <ele>55.939737</ele>
        <time>2024-04-01T11:21:23.193Z</time>
      </trkpt>
      <trkpt lat="51.461906" lon="6.457092">
        <ele>56.056436</ele>
        <time>2024-04-01T11:21:28.874Z</time>
      </trkpt>
      <trkpt lat="51.461906" lon="6.457346">
        <ele>56.268019</ele>
        <time>2024-04-01T11:21:33.423Z</time>
      </trkpt>
      <trkpt lat="51.461832" lon="6.457996">
        <ele>56.818437</ele>
        <time>2024-04-01T11:21:46.081Z</time>
      </trkpt>
      <trkpt lat="51.461836" lon="6.458852">
        <ele>57.531509</ele>
        <time>2024-04-01T11:22:03.963Z</time>
      </trkpt>
      <trkpt lat="51.461987" lon="6.459998">
        <ele>58.322693</ele>
        <time>2024-04-01T11:22:29.244Z</time>
      </trkpt>
      <trkpt lat="51.462185" lon="6.461039">
        <ele>58.106593</ele>
        <time>2024-04-01T11:22:47.941Z</time>
      </trkpt>
      <trkpt lat="51.462215" lon="6.461630">
        <ele>57.988866</ele>
        <time>2024-04-01T11:22:56.353Z</time>
      </trkpt>
      <trkpt lat="51.462291" lon="6.462121">
        <ele>57.888418</ele>
        <time>2024-04-01T11:23:03.160Z</time>
      </trkpt>
      <trkpt lat="51.462598" lon="6.463614">
        <ele>56.966050</ele>
        <time>2024-04-01T11:23:23.318Z</time>
      </trkpt>
      <trkpt lat="51.462686" lon="6.464777">
        <ele>56.053577</ele>
        <time>2024-04-01T11:23:38.958Z</time>
      </trkpt>
      <trkpt lat="51.462681" lon="6.465448">
        <ele>55.540596</ele>
        <time>2024-04-01T11:23:48.734Z</time>
      </trkpt>
      <trkpt lat="51.462485" lon="6.465285">
        <ele>55.743593</ele>
        <time>2024-04-01T11:23:53.706Z</time>
      </trkpt>
      <trkpt lat="51.460539" lon="6.464806">
        <ele>57.576478</ele>
        <time>2024-04-01T11:24:50.106Z</time>
      </trkpt>
      <trkpt lat="51.460407" lon="6.464803">
        <ele>57.705369</ele>
        <time>2024-04-01T11:24:53.833Z</time>
      </trkpt>
      <trkpt lat="51.459078" lon="6.465396">
        <ele>59.077204</ele>
        <time>2024-04-01T11:25:50.838Z</time>
      </trkpt>
      <trkpt lat="51.458177" lon="6.465855">
        <ele>60.219239</ele>
        <time>2024-04-01T11:26:14.708Z</time>
      </trkpt>
      <trkpt lat="51.456605" lon="6.466541">
        <ele>63.015808</ele>
        <time>2024-04-01T11:27:07.524Z</time>
      </trkpt>
      <trkpt lat="51.456534" lon="6.466654">
        <ele>63.230342</ele>
        <time>2024-04-01T11:27:11.037Z</time>
      </trkpt>
      <trkpt lat="51.456072" lon="6.466804">
        <ele>64.241630</ele>
        <time>2024-04-01T11:27:28.076Z</time>
      </trkpt>
      <trkpt lat="51.454816" lon="6.466954">
        <ele>65.496960</ele>
        <time>2024-04-01T11:28:06.381Z</time>
      </trkpt>
      <trkpt lat="51.454716" lon="6.467028">
        <ele>65.559283</ele>
        <time>2024-04-01T11:28:09.014Z</time>
      </trkpt>
      <trkpt lat="51.454700" lon="6.467168">
        <ele>65.609481</ele>
        <time>2024-04-01T11:28:11.057Z</time>
      </trkpt>
      <trkpt lat="51.454758" lon="6.467829">
        <ele>65.844897</ele>
        <time>2024-04-01T11:28:19.682Z</time>
      </trkpt>
      <trkpt lat="51.454725" lon="6.467953">
        <ele>65.892449</ele>
        <time>2024-04-01T11:28:21.371Z</time>
      </trkpt>
      <trkpt lat="51.454584" lon="6.468102">
        <ele>65.987998</ele>
        <time>2024-04-01T11:28:24.609Z</time>
      </trkpt>
      <trkpt lat="51.454229" lon="6.468366">
        <ele>65.588679</ele>
        <time>2024-04-01T11:28:32.165Z</time>
      </trkpt>
      <trkpt lat="51.453200" lon="6.469308">
        <ele>64.304566</ele>
        <time>2024-04-01T11:28:55.700Z</time>
      </trkpt>
      <trkpt lat="51.453116" lon="6.469107">
        <ele>64.141092</ele>
        <time>2024-04-01T11:28:58.792Z</time>
      </trkpt>
      <trkpt lat="51.452936" lon="6.468509">
        <ele>63.551812</ele>
        <time>2024-04-01T11:29:06.820Z</time>
      </trkpt>
      <trkpt lat="51.452652" lon="6.467391">
        <ele>62.412503</ele>
        <time>2024-04-01T11:29:20.807Z</time>
      </trkpt>
      <trkpt lat="51.452533" lon="6.466873">
        <ele>61.891523</ele>
        <time>2024-04-01T11:29:27.330Z</time>
      </trkpt>
      <trkpt lat="51.452348" lon="6.466318">
        <ele>61.320191</ele>
        <time>2024-04-01T11:29:34.826Z</time>
      </trkpt>
      <trkpt lat="51.452129" lon="6.465797">
        <ele>61.252134</ele>
        <time>2024-04-01T11:29:42.320Z</time>
      </trkpt>
      <trkpt lat="51.451942" lon="6.465235">
        <ele>61.183140</ele>
        <time>2024-04-01T11:29:49.992Z</time>
      </trkpt>
      <trkpt lat="51.451133" lon="6.465498">
        <ele>61.039695</ele>
        <time>2024-04-01T11:30:10.810Z</time>
      </trkpt>
      <trkpt lat="51.450732" lon="6.465689">
        <ele>61.671774</ele>
        <time>2024-04-01T11:30:25.315Z</time>
      </trkpt>
      <trkpt lat="51.450423" lon="6.465942">
        <ele>62.587053</ele>
        <time>2024-04-01T11:30:38.833Z</time>
      </trkpt>
      <trkpt lat="51.449982" lon="6.466384">
        <ele>63.958932</ele>
        <time>2024-04-01T11:31:00.127Z</time>
      </trkpt>
      <trkpt lat="51.448289" lon="6.467920">
        <ele>69.130742</ele>
        <time>2024-04-01T11:32:16.417Z</time>
      </trkpt>
      <trkpt lat="51.448035" lon="6.468143">
        <ele>69.903908</ele>
        <time>2024-04-01T11:32:27.203Z</time>
      </trkpt>
      <trkpt lat="51.447702" lon="6.468375">
        <ele>70.669381</ele>
        <time>2024-04-01T11:32:40.177Z</time>
      </trkpt>
      <trkpt lat="51.447713" lon="6.468439">
        <ele>70.708129</ele>
        <time>2024-04-01T11:32:41.540Z</time>
      </trkpt>
      <trkpt lat="51.447723" lon="6.468510">
        <ele>70.750613</ele>
        <time>2024-04-01T11:32:43.019Z</time>
      </trkpt>
      <trkpt lat="51.447787" lon="6.468969">
        <ele>71.025132</ele>
        <time>2024-04-01T11:32:52.433Z</time>
      </trkpt>
      <trkpt lat="51.446987" lon="6.469374">
        <ele>71.810736</ele>
        <time>2024-04-01T11:33:18.795Z</time>
      </trkpt>
      <trkpt lat="51.445953" lon="6.469989">
        <ele>70.058134</ele>
        <time>2024-04-01T11:33:43.756Z</time>
      </trkpt>
      <trkpt lat="51.445178" lon="6.470440">
        <ele>67.245112</ele>
        <time>2024-04-01T11:33:57.122Z</time>
      </trkpt>
      <trkpt lat="51.444822" lon="6.470597">
        <ele>65.916437</ele>
        <time>2024-04-01T11:34:02.798Z</time>
      </trkpt>
      <trkpt lat="51.444531" lon="6.470678">
        <ele>64.334931</ele>
        <time>2024-04-01T11:34:07.318Z</time>
      </trkpt>
      <trkpt lat="51.444432" lon="6.470707">
        <ele>63.796049</ele>
        <time>2024-04-01T11:34:08.897Z</time>
      </trkpt>
      <trkpt lat="51.444087" lon="6.470802">
        <ele>61.921653</ele>
        <time>2024-04-01T11:34:14.274Z</time>
      </trkpt>
      <trkpt lat="51.443404" lon="6.470987">
        <ele>58.212612</ele>
        <time>2024-04-01T11:34:24.973Z</time>
      </trkpt>
      <trkpt lat="51.442335" lon="6.471324">
        <ele>54.818304</ele>
        <time>2024-04-01T11:34:43.121Z</time>
      </trkpt>
      <trkpt lat="51.441875" lon="6.471507">
        <ele>53.791860</ele>
        <time>2024-04-01T11:34:52.229Z</time>
      </trkpt>
      <trkpt lat="51.441561" lon="6.471667">
        <ele>53.078318</ele>
        <time>2024-04-01T11:34:59.210Z</time>
      </trkpt>
      <trkpt lat="51.441260" lon="6.471927">
        <ele>52.587719</ele>
        <time>2024-04-01T11:35:06.532Z</time>
      </trkpt>
      <trkpt lat="51.441277" lon="6.471152">
        <ele>52.623255</ele>
        <time>2024-04-01T11:35:16.660Z</time>
      </trkpt>
      <trkpt lat="51.441228" lon="6.471136">
        <ele>52.626931</ele>
        <time>2024-04-01T11:35:18.843Z</time>
      </trkpt>
      <trkpt lat="51.440950" lon="6.471101">
        <ele>52.647432</ele>
        <time>2024-04-01T11:35:24.683Z</time>
      </trkpt>
      <trkpt lat="51.440788" lon="6.470984">
        <ele>52.660493</ele>
        <time>2024-04-01T11:35:29.979Z</time>
      </trkpt>
      <trkpt lat="51.440646" lon="6.470776">
        <ele>52.674629</ele>
        <time>2024-04-01T11:35:34.223Z</time>
      </trkpt>
      <trkpt lat="51.440412" lon="6.470560">
        <ele>52.694477</ele>
        <time>2024-04-01T11:35:41.019Z</time>
      </trkpt>
      <trkpt lat="51.440116" lon="6.470484">
        <ele>52.684440</ele>
        <time>2024-04-01T11:35:47.968Z</time>
      </trkpt>
      <trkpt lat="51.439886" lon="6.470530">
        <ele>52.586777</ele>
        <time>2024-04-01T11:35:53.759Z</time>
      </trkpt>
      <trkpt lat="51.439342" lon="6.470198">
        <ele>52.341533</ele>
        <time>2024-04-01T11:36:06.050Z</time>
      </trkpt>
      <trkpt lat="51.439155" lon="6.470217">
        <ele>52.262581</ele>
        <time>2024-04-01T11:36:10.458Z</time>
      </trkpt>
      <trkpt lat="51.438524" lon="6.470093">
        <ele>51.994717</ele>
        <time>2024-04-01T11:36:24.775Z</time>
      </trkpt>
      <trkpt lat="51.438163" lon="6.470077">
        <ele>51.796374</ele>
        <time>2024-04-01T11:36:32.940Z</time>
      </trkpt>
      <trkpt lat="51.438070" lon="6.470088">
        <ele>51.740785</ele>
        <time>2024-04-01T11:36:35.285Z</time>
      </trkpt>
      <trkpt lat="51.437532" lon="6.470108">
        <ele>51.419987</ele>
        <time>2024-04-01T11:36:47.363Z</time>
      </trkpt>
      <trkpt lat="51.437434" lon="6.470144">
        <ele>51.360055</ele>
        <time>2024-04-01T11:36:49.667Z</time>
      </trkpt>
      <trkpt lat="51.437363" lon="6.470218">
        <ele>51.309582</ele>
        <time>2024-04-01T11:36:51.672Z</time>
      </trkpt>
      <trkpt lat="51.437240" lon="6.470434">
        <ele>51.200868</ele>
        <time>2024-04-01T11:36:55.650Z</time>
      </trkpt>
      <trkpt lat="51.437175" lon="6.470486">
        <ele>51.157569</ele>
        <time>2024-04-01T11:36:57.336Z</time>
      </trkpt>
      <trkpt lat="51.436909" lon="6.470495">
        <ele>50.998966</ele>
        <time>2024-04-01T11:37:03.542Z</time>
      </trkpt>
      <trkpt lat="51.436632" lon="6.470569">
        <ele>50.874773</ele>
        <time>2024-04-01T11:37:10.899Z</time>
      </trkpt>
      <trkpt lat="51.435991" lon="6.470542">
        <ele>50.822134</ele>
        <time>2024-04-01T11:37:27.274Z</time>
      </trkpt>
      <trkpt lat="51.435856" lon="6.470585">
        <ele>50.810836</ele>
        <time>2024-04-01T11:37:30.520Z</time>
      </trkpt>
      <trkpt lat="51.435753" lon="6.470625">
        <ele>50.802136</ele>
        <time>2024-04-01T11:37:32.930Z</time>
      </trkpt>
      <trkpt lat="51.435481" lon="6.470932">
        <ele>50.774834</ele>
        <time>2024-04-01T11:37:40.757Z</time>
      </trkpt>
      <trkpt lat="51.435271" lon="6.471093">
        <ele>50.755727</ele>
        <time>2024-04-01T11:37:47.104Z</time>
      </trkpt>
      <trkpt lat="51.434867" lon="6.471168">
        <ele>50.772725</ele>
        <time>2024-04-01T11:37:56.721Z</time>
      </trkpt>
      <trkpt lat="51.434588" lon="6.471126">
        <ele>50.848959</ele>
        <time>2024-04-01T11:38:04.066Z</time>
      </trkpt>
      <trkpt lat="51.434071" lon="6.471119">
        <ele>50.989613</ele>
        <time>2024-04-01T11:38:18.267Z</time>
      </trkpt>
      <trkpt lat="51.434057" lon="6.473138">
        <ele>51.298355</ele>
        <time>2024-04-01T11:38:47.752Z</time>
      </trkpt>
      <trkpt lat="51.433901" lon="6.472738">
        <ele>51.353572</ele>
        <time>2024-04-01T11:38:55.734Z</time>
      </trkpt>
      <trkpt lat="51.433775" lon="6.472641">
        <ele>51.379809</ele>
        <time>2024-04-01T11:38:59.877Z</time>
      </trkpt>
      <trkpt lat="51.433401" lon="6.472366">
        <ele>51.457043</ele>
        <time>2024-04-01T11:39:11.415Z</time>
      </trkpt>
      <trkpt lat="51.433170" lon="6.472043">
        <ele>51.514570</ele>
        <time>2024-04-01T11:39:19.341Z</time>
      </trkpt>
      <trkpt lat="51.432761" lon="6.471771">
        <ele>51.364678</ele>
        <time>2024-04-01T11:39:29.654Z</time>
      </trkpt>
      <trkpt lat="51.431545" lon="6.471672">
        <ele>50.142173</ele>
        <time>2024-04-01T11:39:55.978Z</time>
      </trkpt>
      <trkpt lat="51.430685" lon="6.471464">
        <ele>49.589319</ele>
        <time>2024-04-01T11:40:15.683Z</time>
      </trkpt>
      <trkpt lat="51.430537" lon="6.471820">
        <ele>49.498004</ele>
        <time>2024-04-01T11:40:21.488Z</time>
      </trkpt>
      <trkpt lat="51.429229" lon="6.471432">
        <ele>49.255003</ele>
        <time>2024-04-01T11:40:50.520Z</time>
      </trkpt>
      <trkpt lat="51.428866" lon="6.471333">
        <ele>49.405731</ele>
        <time>2024-04-01T11:41:00.869Z</time>
      </trkpt>
      <trkpt lat="51.428673" lon="6.471347">
        <ele>49.484816</ele>
        <time>2024-04-01T11:41:06.050Z</time>
      </trkpt>
      <trkpt lat="51.428223" lon="6.471536">
        <ele>49.675236</ele>
        <time>2024-04-01T11:41:18.895Z</time>
      </trkpt>
      <trkpt lat="51.427982" lon="6.471560">
        <ele>49.774080</ele>
        <time>2024-04-01T11:41:25.435Z</time>
      </trkpt>
      <trkpt lat="51.427264" lon="6.471425">
        <ele>50.031882</ele>
        <time>2024-04-01T11:41:45.147Z</time>
      </trkpt>
      <trkpt lat="51.427046" lon="6.471300">
        <ele>50.108061</ele>
        <time>2024-04-01T11:41:51.484Z</time>
      </trkpt>
      <trkpt lat="51.426888" lon="6.471250">
        <ele>50.161053</ele>
        <time>2024-04-01T11:41:55.830Z</time>
      </trkpt>
      <trkpt lat="51.426578" lon="6.471256">
        <ele>50.263066</ele>
        <time>2024-04-01T11:42:04.254Z</time>
      </trkpt>
      <trkpt lat="51.426108" lon="6.471359">
        <ele>50.419156</ele>
        <time>2024-04-01T11:42:17.254Z</time>
      </trkpt>
      <trkpt lat="51.425689" lon="6.471680">
        <ele>50.012684</ele>
        <time>2024-04-01T11:42:28.285Z</time>
      </trkpt>
      <trkpt lat="51.425364" lon="6.471726">
        <ele>49.545236</ele>
        <time>2024-04-01T11:42:35.502Z</time>
      </trkpt>
      <trkpt lat="51.425276" lon="6.471731">
        <ele>49.419076</ele>
        <time>2024-04-01T11:42:38.443Z</time>
      </trkpt>
      <trkpt lat="51.425006" lon="6.471842">
        <ele>49.019731</ele>
        <time>2024-04-01T11:42:47.816Z</time>
      </trkpt>
      <trkpt lat="51.424715" lon="6.471973">
        <ele>48.586691</ele>
        <time>2024-04-01T11:42:57.826Z</time>
      </trkpt>
      <trkpt lat="51.424505" lon="6.471944">
        <ele>48.284704</ele>
        <time>2024-04-01T11:43:04.575Z</time>
      </trkpt>
      <trkpt lat="51.424240" lon="6.471835">
        <ele>47.892741</ele>
        <time>2024-04-01T11:43:13.330Z</time>
      </trkpt>
      <trkpt lat="51.423951" lon="6.471550">
        <ele>46.864146</ele>
        <time>2024-04-01T11:43:23.953Z</time>
      </trkpt>
      <trkpt lat="51.423873" lon="6.471341">
        <ele>46.402555</ele>
        <time>2024-04-01T11:43:28.624Z</time>
      </trkpt>
      <trkpt lat="51.423889" lon="6.471263">
        <ele>46.246946</ele>
        <time>2024-04-01T11:43:30.218Z</time>
      </trkpt>
      <trkpt lat="51.424000" lon="6.471123">
        <ele>45.817771</ele>
        <time>2024-04-01T11:43:34.545Z</time>
      </trkpt>
      <trkpt lat="51.424889" lon="6.469094">
        <ele>41.342890</ele>
        <time>2024-04-01T11:44:21.994Z</time>
      </trkpt>
      <trkpt lat="51.425002" lon="6.468333">
        <ele>40.115321</ele>
        <time>2024-04-01T11:44:37.313Z</time>
      </trkpt>
      <trkpt lat="51.425032" lon="6.467704">
        <ele>39.125401</ele>
        <time>2024-04-01T11:44:49.866Z</time>
      </trkpt>
      <trkpt lat="51.425028" lon="6.467530">
        <ele>38.852172</ele>
        <time>2024-04-01T11:44:53.377Z</time>
      </trkpt>
      <trkpt lat="51.425107" lon="6.467122">
        <ele>38.181774</ele>
        <time>2024-04-01T11:45:02.042Z</time>
      </trkpt>
      <trkpt lat="51.425305" lon="6.466467">
        <ele>37.504521</ele>
        <time>2024-04-01T11:45:17.139Z</time>
      </trkpt>
      <trkpt lat="51.425620" lon="6.465549">
        <ele>36.751246</ele>
        <time>2024-04-01T11:45:39.321Z</time>
      </trkpt>
      <trkpt lat="51.425989" lon="6.464324">
        <ele>35.805075</ele>
        <time>2024-04-01T11:46:08.928Z</time>
      </trkpt>
      <trkpt lat="51.421122" lon="6.461122">
        <ele>33.720192</ele>
        <time>2024-04-01T11:49:18.052Z</time>
      </trkpt>
      <trkpt lat="51.421047" lon="6.461089">
        <ele>33.694621</ele>
        <time>2024-04-01T11:49:20.963Z</time>
      </trkpt>
      <trkpt lat="51.419786" lon="6.460535">
        <ele>33.683275</ele>
        <time>2024-04-01T11:50:09.473Z</time>
      </trkpt>
      <trkpt lat="51.416499" lon="6.459119">
        <ele>33.252407</ele>
        <time>2024-04-01T11:52:15.379Z</time>
      </trkpt>
      <trkpt lat="51.416423" lon="6.459172">
        <ele>33.223788</ele>
        <time>2024-04-01T11:52:18.282Z</time>
      </trkpt>
      <trkpt lat="51.416304" lon="6.459815">
        <ele>33.079342</ele>
        <time>2024-04-01T11:52:32.890Z</time>
      </trkpt>
      <trkpt lat="51.416221" lon="6.460422">
        <ele>32.883474</ele>
        <time>2024-04-01T11:52:46.409Z</time>
      </trkpt>
      <trkpt lat="51.415720" lon="6.460296">
        <ele>32.542996</ele>
        <time>2024-04-01T11:53:04.068Z</time>
      </trkpt>
      <trkpt lat="51.415842" lon="6.459358">
        <ele>32.141786</ele>
        <time>2024-04-01T11:53:16.354Z</time>
      </trkpt>
      <trkpt lat="51.415994" lon="6.458118">
        <ele>31.631892</ele>
        <time>2024-04-01T11:53:32.992Z</time>
      </trkpt>
      <trkpt lat="51.416017" lon="6.457233">
        <ele>31.298391</ele>
        <time>2024-04-01T11:53:44.468Z</time>
      </trkpt>
      <trkpt lat="51.416010" lon="6.456524">
        <ele>31.031412</ele>
        <time>2024-04-01T11:53:53.668Z</time>
      </trkpt>
      <trkpt lat="51.415377" lon="6.456338">
        <ele>30.635470</ele>
        <time>2024-04-01T11:54:06.800Z</time>
      </trkpt>
      <trkpt lat="51.414581" lon="6.456116">
        <ele>30.099300</ele>
        <time>2024-04-01T11:54:23.015Z</time>
      </trkpt>
      <trkpt lat="51.414463" lon="6.456091">
        <ele>30.020313</ele>
        <time>2024-04-01T11:54:25.427Z</time>
      </trkpt>
      <trkpt lat="51.413826" lon="6.455973">
        <ele>29.594777</ele>
        <time>2024-04-01T11:54:38.517Z</time>
      </trkpt>
      <trkpt lat="51.413444" lon="6.455909">
        <ele>29.596349</ele>
        <time>2024-04-01T11:54:46.983Z</time>
      </trkpt>
      <trkpt lat="51.413345" lon="6.455894">
        <ele>29.622202</ele>
        <time>2024-04-01T11:54:49.218Z</time>
      </trkpt>
      <trkpt lat="51.413293" lon="6.455885">
        <ele>29.635800</ele>
        <time>2024-04-01T11:54:50.349Z</time>
      </trkpt>
      <trkpt lat="51.413072" lon="6.455843">
        <ele>29.693659</ele>
        <time>2024-04-01T11:54:55.545Z</time>
      </trkpt>
      <trkpt lat="51.413047" lon="6.456075">
        <ele>29.731836</ele>
        <time>2024-04-01T11:54:59.048Z</time>
      </trkpt>
      <trkpt lat="51.412986" lon="6.456156">
        <ele>29.752428</ele>
        <time>2024-04-01T11:55:00.981Z</time>
      </trkpt>
      <trkpt lat="51.412928" lon="6.456163">
        <ele>29.767550</ele>
        <time>2024-04-01T11:55:02.418Z</time>
      </trkpt>
      <trkpt lat="51.412986" lon="6.456156">
        <ele>29.782671</ele>
        <time>2024-04-01T11:55:03.861Z</time>
      </trkpt>
      <trkpt lat="51.413047" lon="6.456075">
        <ele>29.803263</ele>
        <time>2024-04-01T11:55:05.838Z</time>
      </trkpt>
      <trkpt lat="51.413072" lon="6.455843">
        <ele>29.841440</ele>
        <time>2024-04-01T11:55:09.535Z</time>
      </trkpt>
      <trkpt lat="51.412194" lon="6.455582">
        <ele>30.154405</ele>
        <time>2024-04-01T11:55:32.458Z</time>
      </trkpt>
      <trkpt lat="51.411594" lon="6.455400">
        <ele>30.469962</ele>
        <time>2024-04-01T11:55:47.932Z</time>
      </trkpt>
      <trkpt lat="51.410903" lon="6.455277">
        <ele>30.829239</ele>
        <time>2024-04-01T11:56:05.328Z</time>
      </trkpt>
      <trkpt lat="51.410375" lon="6.455216">
        <ele>30.913027</ele>
        <time>2024-04-01T11:56:18.050Z</time>
      </trkpt>
      <trkpt lat="51.409124" lon="6.455163">
        <ele>30.883732</ele>
        <time>2024-04-01T11:56:45.527Z</time>
      </trkpt>
      <trkpt lat="51.408358" lon="6.455196">
        <ele>30.718410</ele>
        <time>2024-04-01T11:57:01.713Z</time>
      </trkpt>
      <trkpt lat="51.408164" lon="6.455200">
        <ele>30.663735</ele>
        <time>2024-04-01T11:57:05.774Z</time>
      </trkpt>
      <trkpt lat="51.408078" lon="6.455196">
        <ele>30.639489</ele>
        <time>2024-04-01T11:57:07.640Z</time>
      </trkpt>
      <trkpt lat="51.407711" lon="6.455236">
        <ele>30.535828</ele>
        <time>2024-04-01T11:57:15.478Z</time>
      </trkpt>
      <trkpt lat="51.407206" lon="6.455288">
        <ele>30.393223</ele>
        <time>2024-04-01T11:57:26.313Z</time>
      </trkpt>
      <trkpt lat="51.406446" lon="6.455340">
        <ele>30.382771</ele>
        <time>2024-04-01T11:57:43.088Z</time>
      </trkpt>
      <trkpt lat="51.406419" lon="6.455331">
        <ele>30.383192</ele>
        <time>2024-04-01T11:57:43.734Z</time>
      </trkpt>
      <trkpt lat="51.405476" lon="6.455009">
        <ele>30.397929</ele>
        <time>2024-04-01T11:58:05.835Z</time>
      </trkpt>
      <trkpt lat="51.405372" lon="6.455043">
        <ele>30.399551</ele>
        <time>2024-04-01T11:58:08.348Z</time>
      </trkpt>
      <trkpt lat="51.404962" lon="6.455412">
        <ele>30.432654</ele>
        <time>2024-04-01T11:58:18.928Z</time>
      </trkpt>
      <trkpt lat="51.404706" lon="6.455529">
        <ele>30.451858</ele>
        <time>2024-04-01T11:58:24.897Z</time>
      </trkpt>
      <trkpt lat="51.403999" lon="6.455254">
        <ele>30.504343</ele>
        <time>2024-04-01T11:58:41.206Z</time>
      </trkpt>
      <trkpt lat="51.403456" lon="6.455288">
        <ele>30.560450</ele>
        <time>2024-04-01T11:58:53.412Z</time>
      </trkpt>
      <trkpt lat="51.402699" lon="6.456170">
        <ele>30.709387</ele>
        <time>2024-04-01T11:59:15.073Z</time>
      </trkpt>
      <trkpt lat="51.402300" lon="6.456517">
        <ele>30.781630</ele>
        <time>2024-04-01T11:59:25.562Z</time>
      </trkpt>
      <trkpt lat="51.401713" lon="6.456887">
        <ele>30.852606</ele>
        <time>2024-04-01T11:59:40.168Z</time>
      </trkpt>
      <trkpt lat="51.401468" lon="6.456848">
        <ele>30.874393</ele>
        <time>2024-04-01T11:59:45.792Z</time>
      </trkpt>
      <trkpt lat="51.401174" lon="6.456751">
        <ele>30.900954</ele>
        <time>2024-04-01T11:59:52.570Z</time>
      </trkpt>
      <trkpt lat="51.400399" lon="6.456746">
        <ele>30.969534</ele>
        <time>2024-04-01T12:00:10.142Z</time>
      </trkpt>
      <trkpt lat="51.400181" lon="6.456787">
        <ele>30.986300</ele>
        <time>2024-04-01T12:00:15.045Z</time>
      </trkpt>
      <trkpt lat="51.399795" lon="6.456968">
        <ele>31.015143</ele>
        <time>2024-04-01T12:00:23.932Z</time>
      </trkpt>
      <trkpt lat="51.398710" lon="6.456874">
        <ele>31.093068</ele>
        <time>2024-04-01T12:00:48.254Z</time>
      </trkpt>
      <trkpt lat="51.397801" lon="6.456858">
        <ele>31.326021</ele>
        <time>2024-04-01T12:01:10.152Z</time>
      </trkpt>
      <trkpt lat="51.397555" lon="6.456792">
        <ele>31.399142</ele>
        <time>2024-04-01T12:01:16.413Z</time>
      </trkpt>
      <trkpt lat="51.397282" lon="6.456640">
        <ele>31.483865</ele>
        <time>2024-04-01T12:01:23.415Z</time>
      </trkpt>
      <trkpt lat="51.396610" lon="6.456389">
        <ele>31.633759</ele>
        <time>2024-04-01T12:01:39.055Z</time>
      </trkpt>
      <trkpt lat="51.396318" lon="6.456296">
        <ele>31.637796</ele>
        <time>2024-04-01T12:01:45.593Z</time>
      </trkpt>
      <trkpt lat="51.396224" lon="6.456266">
        <ele>31.639095</ele>
        <time>2024-04-01T12:01:48.007Z</time>
      </trkpt>
      <trkpt lat="51.395587" lon="6.456081">
        <ele>31.647873</ele>
        <time>2024-04-01T12:02:02.660Z</time>
      </trkpt>
      <trkpt lat="51.394907" lon="6.455883">
        <ele>31.654595</ele>
        <time>2024-04-01T12:02:17.877Z</time>
      </trkpt>
      <trkpt lat="51.394160" lon="6.455671">
        <ele>31.648236</ele>
        <time>2024-04-01T12:02:34.203Z</time>
      </trkpt>
      <trkpt lat="51.393903" lon="6.455646">
        <ele>31.646078</ele>
        <time>2024-04-01T12:02:39.841Z</time>
      </trkpt>
      <trkpt lat="51.393674" lon="6.455686">
        <ele>31.644147</ele>
        <time>2024-04-01T12:02:45.078Z</time>
      </trkpt>
      <trkpt lat="51.393170" lon="6.456037">
        <ele>31.689513</ele>
        <time>2024-04-01T12:02:58.040Z</time>
      </trkpt>
      <trkpt lat="51.392854" lon="6.456348">
        <ele>31.843287</ele>
        <time>2024-04-01T12:03:07.093Z</time>
      </trkpt>
      <trkpt lat="51.392596" lon="6.456624">
        <ele>31.971920</ele>
        <time>2024-04-01T12:03:14.683Z</time>
      </trkpt>
      <trkpt lat="51.391964" lon="6.457430">
        <ele>32.306851</ele>
        <time>2024-04-01T12:03:34.438Z</time>
      </trkpt>
      <trkpt lat="51.391831" lon="6.457531">
        <ele>32.367882</ele>
        <time>2024-04-01T12:03:38.098Z</time>
      </trkpt>
      <trkpt lat="51.391494" lon="6.457663">
        <ele>32.501442</ele>
        <time>2024-04-01T12:03:46.695Z</time>
      </trkpt>
      <trkpt lat="51.390980" lon="6.457861">
        <ele>32.702646</ele>
        <time>2024-04-01T12:03:59.744Z</time>
      </trkpt>
      <trkpt lat="51.389718" lon="6.458350">
        <ele>33.135762</ele>
        <time>2024-04-01T12:04:30.473Z</time>
      </trkpt>
      <trkpt lat="51.389249" lon="6.458484">
        <ele>33.229122</ele>
        <time>2024-04-01T12:04:41.211Z</time>
      </trkpt>
      <trkpt lat="51.388807" lon="6.458611">
        <ele>33.317123</ele>
        <time>2024-04-01T12:04:51.543Z</time>
      </trkpt>
      <trkpt lat="51.388138" lon="6.458789">
        <ele>33.464406</ele>
        <time>2024-04-01T12:05:07.520Z</time>
      </trkpt>
      <trkpt lat="51.387464" lon="6.459048">
        <ele>33.673747</ele>
        <time>2024-04-01T12:05:24.280Z</time>
      </trkpt>
      <trkpt lat="51.386837" lon="6.459201">
        <ele>33.865304</ele>
        <time>2024-04-01T12:05:39.316Z</time>
      </trkpt>
      <trkpt lat="51.386069" lon="6.459279">
        <ele>33.966747</ele>
        <time>2024-04-01T12:05:57.443Z</time>
      </trkpt>
      <trkpt lat="51.385373" lon="6.459335">
        <ele>33.966834</ele>
        <time>2024-04-01T12:06:13.007Z</time>
      </trkpt>
      <trkpt lat="51.385226" lon="6.459351">
        <ele>33.966852</ele>
        <time>2024-04-01T12:06:16.195Z</time>
      </trkpt>
      <trkpt lat="51.385057" lon="6.459362">
        <ele>33.966873</ele>
        <time>2024-04-01T12:06:19.913Z</time>
      </trkpt>
      <trkpt lat="51.384737" lon="6.459389">
        <ele>33.966913</ele>
        <time>2024-04-01T12:06:26.754Z</time>
      </trkpt>
      <trkpt lat="51.384604" lon="6.459402">
        <ele>33.948586</ele>
        <time>2024-04-01T12:06:29.736Z</time>
      </trkpt>
      <trkpt lat="51.384165" lon="6.459448">
        <ele>33.869716</ele>
        <time>2024-04-01T12:06:39.142Z</time>
      </trkpt>
      <trkpt lat="51.383738" lon="6.459499">
        <ele>33.792954</ele>
        <time>2024-04-01T12:06:48.269Z</time>
      </trkpt>
      <trkpt lat="51.383819" lon="6.459896">
        <ele>33.746222</ele>
        <time>2024-04-01T12:06:54.002Z</time>
      </trkpt>
      <trkpt lat="51.383694" lon="6.460050">
        <ele>33.717955</ele>
        <time>2024-04-01T12:06:57.270Z</time>
      </trkpt>
      <trkpt lat="51.383545" lon="6.461205">
        <ele>33.668886</ele>
        <time>2024-04-01T12:07:13.718Z</time>
      </trkpt>
      <trkpt lat="51.383406" lon="6.461771">
        <ele>33.697307</ele>
        <time>2024-04-01T12:07:22.497Z</time>
      </trkpt>
      <trkpt lat="51.383336" lon="6.461917">
        <ele>33.705910</ele>
        <time>2024-04-01T12:07:25.331Z</time>
      </trkpt>
      <trkpt lat="51.383195" lon="6.462225">
        <ele>33.723758</ele>
        <time>2024-04-01T12:07:30.591Z</time>
      </trkpt>
      <trkpt lat="51.382951" lon="6.462672">
        <ele>33.751507</ele>
        <time>2024-04-01T12:07:39.113Z</time>
      </trkpt>
      <trkpt lat="51.382635" lon="6.463186">
        <ele>33.770283</ele>
        <time>2024-04-01T12:07:49.264Z</time>
      </trkpt>
      <trkpt lat="51.382351" lon="6.463683">
        <ele>33.724545</ele>
        <time>2024-04-01T12:07:58.601Z</time>
      </trkpt>
      <trkpt lat="51.382194" lon="6.463938">
        <ele>33.700232</ele>
        <time>2024-04-01T12:08:06.825Z</time>
      </trkpt>
      <trkpt lat="51.381322" lon="6.464713">
        <ele>33.591786</ele>
        <time>2024-04-01T12:08:43.295Z</time>
      </trkpt>
      <trkpt lat="51.380949" lon="6.465292">
        <ele>33.575264</ele>
        <time>2024-04-01T12:09:02.208Z</time>
      </trkpt>
      <trkpt lat="51.380746" lon="6.465816">
        <ele>33.568097</ele>
        <time>2024-04-01T12:09:16.363Z</time>
      </trkpt>
      <trkpt lat="51.379906" lon="6.465898">
        <ele>33.552427</ele>
        <time>2024-04-01T12:09:35.269Z</time>
      </trkpt>
      <trkpt lat="51.378219" lon="6.465984">
        <ele>33.931313</ele>
        <time>2024-04-01T12:10:14.846Z</time>
      </trkpt>
      <trkpt lat="51.377307" lon="6.465963">
        <ele>34.184464</ele>
        <time>2024-04-01T12:10:36.838Z</time>
      </trkpt>
      <trkpt lat="51.377006" lon="6.465882">
        <ele>34.272764</ele>
        <time>2024-04-01T12:10:44.155Z</time>
      </trkpt>
      <trkpt lat="51.376913" lon="6.465824">
        <ele>34.301636</ele>
        <time>2024-04-01T12:10:46.458Z</time>
      </trkpt>
      <trkpt lat="51.376857" lon="6.465882">
        <ele>34.320927</ele>
        <time>2024-04-01T12:10:47.941Z</time>
      </trkpt>
      <trkpt lat="51.376823" lon="6.465932">
        <ele>34.334279</ele>
        <time>2024-04-01T12:10:49.020Z</time>
      </trkpt>
      <trkpt lat="51.376775" lon="6.465937">
        <ele>34.348195</ele>
        <time>2024-04-01T12:10:50.280Z</time>
      </trkpt>
      <trkpt lat="51.376700" lon="6.465940">
        <ele>34.369900</ele>
        <time>2024-04-01T12:10:52.101Z</time>
      </trkpt>
      <trkpt lat="51.376597" lon="6.465936">
        <ele>34.399706</ele>
        <time>2024-04-01T12:10:54.491Z</time>
      </trkpt>
      <trkpt lat="51.376426" lon="6.465955">
        <ele>34.449296</ele>
        <time>2024-04-01T12:10:58.460Z</time>
      </trkpt>
      <trkpt lat="51.376418" lon="6.465803">
        <ele>34.476842</ele>
        <time>2024-04-01T12:11:02.218Z</time>
      </trkpt>
      <trkpt lat="51.376339" lon="6.464128">
        <ele>34.624950</ele>
        <time>2024-04-01T12:11:26.478Z</time>
      </trkpt>
      <trkpt lat="51.376279" lon="6.463906">
        <ele>34.643512</ele>
        <time>2024-04-01T12:11:29.869Z</time>
      </trkpt>
      <trkpt lat="51.376096" lon="6.463291">
        <ele>34.695788</ele>
        <time>2024-04-01T12:11:39.486Z</time>
      </trkpt>
      <trkpt lat="51.375737" lon="6.462319">
        <ele>34.684330</ele>
        <time>2024-04-01T12:11:55.109Z</time>
      </trkpt>
      <trkpt lat="51.375301" lon="6.461281">
        <ele>34.595957</ele>
        <time>2024-04-01T12:12:12.297Z</time>
      </trkpt>
      <trkpt lat="51.374638" lon="6.459840">
        <ele>34.347963</ele>
        <time>2024-04-01T12:12:36.514Z</time>
      </trkpt>
      <trkpt lat="51.373835" lon="6.458059">
        <ele>33.863296</ele>
        <time>2024-04-01T12:13:05.450Z</time>
      </trkpt>
      <trkpt lat="51.373591" lon="6.457508">
        <ele>33.687226</ele>
        <time>2024-04-01T12:13:14.292Z</time>
      </trkpt>
      <trkpt lat="51.373529" lon="6.457357">
        <ele>33.640121</ele>
        <time>2024-04-01T12:13:16.639Z</time>
      </trkpt>
      <trkpt lat="51.373581" lon="6.457322">
        <ele>33.616572</ele>
        <time>2024-04-01T12:13:17.843Z</time>
      </trkpt>
      <trkpt lat="51.373529" lon="6.457357">
        <ele>33.593023</ele>
        <time>2024-04-01T12:13:19.014Z</time>
      </trkpt>
      <trkpt lat="51.373236" lon="6.456637">
        <ele>33.369018</ele>
        <time>2024-04-01T12:13:30.280Z</time>
      </trkpt>
      <trkpt lat="51.372949" lon="6.455689">
        <ele>33.134120</ele>
        <time>2024-04-01T12:13:44.241Z</time>
      </trkpt>
      <trkpt lat="51.372842" lon="6.455168">
        <ele>33.094869</ele>
        <time>2024-04-01T12:13:51.645Z</time>
      </trkpt>
      <trkpt lat="51.372679" lon="6.453584">
        <ele>32.979978</ele>
        <time>2024-04-01T12:14:13.524Z</time>
      </trkpt>
      <trkpt lat="51.372505" lon="6.451465">
        <ele>33.280728</ele>
        <time>2024-04-01T12:14:44.802Z</time>
      </trkpt>
      <trkpt lat="51.372450" lon="6.450199">
        <ele>33.545931</ele>
        <time>2024-04-01T12:15:04.239Z</time>
      </trkpt>
      <trkpt lat="51.372420" lon="6.448825">
        <ele>33.934777</ele>
        <time>2024-04-01T12:15:25.471Z</time>
      </trkpt>
      <trkpt lat="51.372427" lon="6.448084">
        <ele>34.144379</ele>
        <time>2024-04-01T12:15:36.910Z</time>
      </trkpt>
      <trkpt lat="51.372433" lon="6.447439">
        <ele>34.326824</ele>
        <time>2024-04-01T12:15:46.752Z</time>
      </trkpt>
      <trkpt lat="51.372833" lon="6.447480">
        <ele>34.390642</ele>
        <time>2024-04-01T12:15:56.333Z</time>
      </trkpt>
      <trkpt lat="51.374015" lon="6.447245">
        <ele>34.505807</ele>
        <time>2024-04-01T12:16:23.280Z</time>
      </trkpt>
      <trkpt lat="51.375985" lon="6.446970">
        <ele>34.323636</ele>
        <time>2024-04-01T12:17:06.433Z</time>
      </trkpt>
      <trkpt lat="51.376234" lon="6.446975">
        <ele>34.299750</ele>
        <time>2024-04-01T12:17:11.887Z</time>
      </trkpt>
      <trkpt lat="51.376302" lon="6.446949">
        <ele>34.294274</ele>
        <time>2024-04-01T12:17:13.425Z</time>
      </trkpt>
      <trkpt lat="51.376424" lon="6.446891">
        <ele>34.284304</ele>
        <time>2024-04-01T12:17:16.312Z</time>
      </trkpt>
      <trkpt lat="51.376628" lon="6.446749">
        <ele>34.266879</ele>
        <time>2024-04-01T12:17:21.165Z</time>
      </trkpt>
      <trkpt lat="51.376655" lon="6.446742">
        <ele>34.264736</ele>
        <time>2024-04-01T12:17:21.746Z</time>
      </trkpt>
      <trkpt lat="51.376597" lon="6.446558">
        <ele>34.254657</ele>
        <time>2024-04-01T12:17:24.726Z</time>
      </trkpt>
      <trkpt lat="51.376634" lon="6.446518">
        <ele>34.251160</ele>
        <time>2024-04-01T12:17:25.698Z</time>
      </trkpt>
      <trkpt lat="51.376670" lon="6.446360">
        <ele>34.242935</ele>
        <time>2024-04-01T12:17:29.532Z</time>
      </trkpt>
      <trkpt lat="51.376665" lon="6.441323">
        <ele>34.070517</ele>
        <time>2024-04-01T12:19:25.614Z</time>
      </trkpt>
      <trkpt lat="51.376645" lon="6.436998">
        <ele>33.888498</ele>
        <time>2024-04-01T12:21:04.897Z</time>
      </trkpt>
      <trkpt lat="51.376790" lon="6.436943">
        <ele>33.881901</ele>
        <time>2024-04-01T12:21:08.358Z</time>
      </trkpt>
      <trkpt lat="51.378099" lon="6.437457">
        <ele>33.902934</ele>
        <time>2024-04-01T12:21:39.159Z</time>
      </trkpt>
      <trkpt lat="51.378542" lon="6.437675">
        <ele>33.919011</ele>
        <time>2024-04-01T12:21:49.376Z</time>
      </trkpt>
      <trkpt lat="51.379017" lon="6.437894">
        <ele>33.858532</ele>
        <time>2024-04-01T12:22:00.201Z</time>
      </trkpt>
      <trkpt lat="51.379913" lon="6.438111">
        <ele>33.501446</ele>
        <time>2024-04-01T12:22:19.884Z</time>
      </trkpt>
      <trkpt lat="51.380255" lon="6.437762">
        <ele>33.341664</ele>
        <time>2024-04-01T12:22:28.185Z</time>
      </trkpt>
      <trkpt lat="51.380424" lon="6.437532">
        <ele>33.254285</ele>
        <time>2024-04-01T12:22:32.683Z</time>
      </trkpt>
      <trkpt lat="51.380831" lon="6.436840">
        <ele>32.904171</ele>
        <time>2024-04-01T12:22:44.708Z</time>
      </trkpt>
      <trkpt lat="51.381022" lon="6.436295">
        <ele>32.661389</ele>
        <time>2024-04-01T12:22:52.644Z</time>
      </trkpt>
      <trkpt lat="51.381154" lon="6.435826">
        <ele>32.461552</ele>
        <time>2024-04-01T12:22:59.259Z</time>
      </trkpt>
      <trkpt lat="51.381245" lon="6.435090">
        <ele>32.170116</ele>
        <time>2024-04-01T12:23:09.029Z</time>
      </trkpt>
      <trkpt lat="51.381423" lon="6.434142">
        <ele>32.119521</ele>
        <time>2024-04-01T12:23:22.167Z</time>
      </trkpt>
      <trkpt lat="51.381425" lon="6.433710">
        <ele>32.128958</ele>
        <time>2024-04-01T12:23:28.157Z</time>
      </trkpt>
      <trkpt lat="51.381317" lon="6.433088">
        <ele>32.143060</ele>
        <time>2024-04-01T12:23:37.563Z</time>
      </trkpt>
      <trkpt lat="51.381289" lon="6.432891">
        <ele>32.147473</ele>
        <time>2024-04-01T12:23:40.573Z</time>
      </trkpt>
      <trkpt lat="51.381326" lon="6.432686">
        <ele>32.152135</ele>
        <time>2024-04-01T12:23:43.764Z</time>
      </trkpt>
      <trkpt lat="51.381413" lon="6.432555">
        <ele>32.156313</ele>
        <time>2024-04-01T12:23:46.792Z</time>
      </trkpt>
      <trkpt lat="51.382473" lon="6.431555">
        <ele>32.396271</ele>
        <time>2024-04-01T12:24:16.354Z</time>
      </trkpt>
      <trkpt lat="51.382561" lon="6.431417">
        <ele>32.425053</ele>
        <time>2024-04-01T12:24:19.155Z</time>
      </trkpt>
      <trkpt lat="51.382591" lon="6.431300">
        <ele>32.443506</ele>
        <time>2024-04-01T12:24:21.106Z</time>
      </trkpt>
      <trkpt lat="51.383227" lon="6.430130">
        <ele>32.535387</ele>
        <time>2024-04-01T12:24:42.698Z</time>
      </trkpt>
      <trkpt lat="51.383382" lon="6.429846">
        <ele>32.503086</ele>
        <time>2024-04-01T12:24:47.915Z</time>
      </trkpt>
      <trkpt lat="51.384596" lon="6.427724">
        <ele>32.296652</ele>
        <time>2024-04-01T12:25:26.660Z</time>
      </trkpt>
      <trkpt lat="51.384639" lon="6.427649">
        <ele>32.292202</ele>
        <time>2024-04-01T12:25:28.073Z</time>
      </trkpt>
      <trkpt lat="51.384911" lon="6.427175">
        <ele>32.264067</ele>
        <time>2024-04-01T12:25:36.989Z</time>
      </trkpt>
      <trkpt lat="51.385115" lon="6.426697">
        <ele>32.238765</ele>
        <time>2024-04-01T12:25:45.027Z</time>
      </trkpt>
      <trkpt lat="51.384911" lon="6.427175">
        <ele>32.213463</ele>
        <time>2024-04-01T12:25:53.065Z</time>
      </trkpt>
      <trkpt lat="51.384639" lon="6.427649">
        <ele>32.271679</ele>
        <time>2024-04-01T12:26:02.037Z</time>
      </trkpt>
      <trkpt lat="51.384596" lon="6.427724">
        <ele>32.281400</ele>
        <time>2024-04-01T12:26:03.451Z</time>
      </trkpt>
      <trkpt lat="51.383382" lon="6.429846">
        <ele>32.486987</ele>
        <time>2024-04-01T12:26:45.525Z</time>
      </trkpt>
      <trkpt lat="51.383227" lon="6.430130">
        <ele>32.486713</ele>
        <time>2024-04-01T12:26:50.815Z</time>
      </trkpt>
      <trkpt lat="51.382591" lon="6.431300">
        <ele>32.485584</ele>
        <time>2024-04-01T12:27:12.313Z</time>
      </trkpt>
      <trkpt lat="51.382561" lon="6.431417">
        <ele>32.485492</ele>
        <time>2024-04-01T12:27:13.968Z</time>
      </trkpt>
      <trkpt lat="51.382473" lon="6.431555">
        <ele>32.469398</ele>
        <time>2024-04-01T12:27:16.667Z</time>
      </trkpt>
      <trkpt lat="51.381413" lon="6.432555">
        <ele>32.117972</ele>
        <time>2024-04-01T12:27:42.821Z</time>
      </trkpt>
      <trkpt lat="51.381326" lon="6.432686">
        <ele>32.083863</ele>
        <time>2024-04-01T12:27:45.288Z</time>
      </trkpt>
      <trkpt lat="51.381289" lon="6.432891">
        <ele>32.045812</ele>
        <time>2024-04-01T12:27:48.121Z</time>
      </trkpt>
      <trkpt lat="51.381317" lon="6.433088">
        <ele>32.009786</ele>
        <time>2024-04-01T12:27:50.815Z</time>
      </trkpt>
      <trkpt lat="51.381425" lon="6.433710">
        <ele>31.946333</ele>
        <time>2024-04-01T12:27:59.527Z</time>
      </trkpt>
      <trkpt lat="51.381423" lon="6.434142">
        <ele>31.921061</ele>
        <time>2024-04-01T12:28:05.534Z</time>
      </trkpt>
      <trkpt lat="51.381245" lon="6.435090">
        <ele>31.863150</ele>
        <time>2024-04-01T12:28:19.142Z</time>
      </trkpt>
      <trkpt lat="51.381154" lon="6.435826">
        <ele>31.819258</ele>
        <time>2024-04-01T12:28:29.481Z</time>
      </trkpt>
      <trkpt lat="51.381022" lon="6.436295">
        <ele>31.809489</ele>
        <time>2024-04-01T12:28:36.616Z</time>
      </trkpt>
      <trkpt lat="51.380975" lon="6.436427">
        <ele>31.813679</ele>
        <time>2024-04-01T12:28:38.823Z</time>
      </trkpt>
      <trkpt lat="51.381022" lon="6.436295">
        <ele>31.817868</ele>
        <time>2024-04-01T12:28:40.858Z</time>
      </trkpt>
      <trkpt lat="51.381154" lon="6.435826">
        <ele>31.832050</ele>
        <time>2024-04-01T12:28:48.030Z</time>
      </trkpt>
      <trkpt lat="51.381245" lon="6.435090">
        <ele>31.852733</ele>
        <time>2024-04-01T12:28:58.570Z</time>
      </trkpt>
      <trkpt lat="51.381423" lon="6.434142">
        <ele>31.880022</ele>
        <time>2024-04-01T12:29:12.563Z</time>
      </trkpt>
      <trkpt lat="51.381425" lon="6.433710">
        <ele>31.939848</ele>
        <time>2024-04-01T12:29:18.553Z</time>
      </trkpt>
      <trkpt lat="51.381317" lon="6.433088">
        <ele>32.047296</ele>
        <time>2024-04-01T12:29:27.958Z</time>
      </trkpt>
      <trkpt lat="51.381289" lon="6.432891">
        <ele>32.080921</ele>
        <time>2024-04-01T12:29:30.969Z</time>
      </trkpt>
      <trkpt lat="51.381326" lon="6.432686">
        <ele>32.116436</ele>
        <time>2024-04-01T12:29:34.160Z</time>
      </trkpt>
      <trkpt lat="51.381413" lon="6.432555">
        <ele>32.148272</ele>
        <time>2024-04-01T12:29:37.188Z</time>
      </trkpt>
      <trkpt lat="51.382473" lon="6.431555">
        <ele>32.405440</ele>
        <time>2024-04-01T12:30:06.751Z</time>
      </trkpt>
      <trkpt lat="51.382561" lon="6.431417">
        <ele>32.417916</ele>
        <time>2024-04-01T12:30:09.552Z</time>
      </trkpt>
      <trkpt lat="51.382591" lon="6.431300">
        <ele>32.425915</ele>
        <time>2024-04-01T12:30:11.502Z</time>
      </trkpt>
      <trkpt lat="51.383227" lon="6.430130">
        <ele>32.524030</ele>
        <time>2024-04-01T12:30:33.093Z</time>
      </trkpt>
      <trkpt lat="51.383382" lon="6.429846">
        <ele>32.535429</ele>
        <time>2024-04-01T12:30:38.312Z</time>
      </trkpt>
      <trkpt lat="51.384639" lon="6.427649">
        <ele>32.076382</ele>
        <time>2024-04-01T12:31:18.173Z</time>
      </trkpt>
      <trkpt lat="51.384911" lon="6.427175">
        <ele>31.982876</ele>
        <time>2024-04-01T12:31:26.790Z</time>
      </trkpt>
      <trkpt lat="51.385212" lon="6.426470">
        <ele>31.858836</ele>
        <time>2024-04-01T12:31:38.228Z</time>
      </trkpt>
      <trkpt lat="51.386060" lon="6.423707">
        <ele>31.605328</ele>
        <time>2024-04-01T12:32:20.238Z</time>
      </trkpt>
      <trkpt lat="51.386557" lon="6.422047">
        <ele>31.669661</ele>
        <time>2024-04-01T12:32:46.139Z</time>
      </trkpt>
      <trkpt lat="51.386893" lon="6.421180">
        <ele>31.803503</ele>
        <time>2024-04-01T12:33:00.854Z</time>
      </trkpt>
      <trkpt lat="51.387582" lon="6.419914">
        <ele>32.008497</ele>
        <time>2024-04-01T12:33:26.203Z</time>
      </trkpt>
      <trkpt lat="51.387616" lon="6.419845">
        <ele>32.017885</ele>
        <time>2024-04-01T12:33:27.422Z</time>
      </trkpt>
      <trkpt lat="51.387853" lon="6.419370">
        <ele>32.082828</ele>
        <time>2024-04-01T12:33:36.132Z</time>
      </trkpt>
      <trkpt lat="51.388019" lon="6.419080">
        <ele>32.124850</ele>
        <time>2024-04-01T12:33:41.738Z</time>
      </trkpt>
      <trkpt lat="51.388162" lon="6.418573">
        <ele>32.184262</ele>
        <time>2024-04-01T12:33:49.502Z</time>
      </trkpt>
      <trkpt lat="51.388269" lon="6.417720">
        <ele>32.249205</ele>
        <time>2024-04-01T12:34:01.803Z</time>
      </trkpt>
      <trkpt lat="51.388363" lon="6.417035">
        <ele>32.249205</ele>
        <time>2024-04-01T12:34:11.606Z</time>
      </trkpt>
      <trkpt lat="51.388421" lon="6.416460">
        <ele>32.249205</ele>
        <time>2024-04-01T12:34:19.486Z</time>
      </trkpt>
      <trkpt lat="51.388413" lon="6.415565">
        <ele>32.249205</ele>
        <time>2024-04-01T12:34:31.422Z</time>
      </trkpt>
      <trkpt lat="51.388497" lon="6.415204">
        <ele>32.249205</ele>
        <time>2024-04-01T12:34:36.632Z</time>
      </trkpt>
      <trkpt lat="51.388635" lon="6.414979">
        <ele>32.249205</ele>
        <time>2024-04-01T12:34:40.991Z</time>
      </trkpt>
      <trkpt lat="51.388711" lon="6.414995">
        <ele>32.249205</ele>
        <time>2024-04-01T12:34:42.670Z</time>
      </trkpt>
    </trkseg>
  </trk>
</gpx>